
Distance (Route):
Temperature : 16.1°C
Humidity : 55.4%
Pressure : 0hPa| Receiver | Frames | First received | Last received |
|---|---|---|---|
| 9A1FER-3 | 310 | 2026-09-03 23:14:57 | 2026-09-04 01:24:00 |
| 9A1FER-10 | 254 | 2026-09-03 23:14:56 | 2026-09-04 01:27:28 |
| PETON7-10 | 136 | 2026-09-04 00:28:58 | 2026-09-04 01:13:11 |
| OM5KV | 125 | 2026-09-04 01:02:52 | 2026-09-04 01:15:31 |
| OE5DRO-10 | 107 | 2026-09-04 00:30:10 | 2026-09-04 01:13:53 |
| OE5DXL-15 | 67 | 2026-09-04 00:37:50 | 2026-09-04 01:13:37 |
| PG1ADW-2 | 64 | 2026-09-04 00:42:06 | 2026-09-04 01:11:07 |
| LZ4TU-5 | 13 | 2026-09-04 00:52:36 | 2026-09-04 01:09:15 |
| OE3JTB-15 | 4 | 2026-09-04 00:01:40 | 2026-09-04 00:04:16 |
| Receiver | Date | Latitude | Longitude | Direction | Speed | Altitude | Climb | Temperature | Humidity | Pressure | Voltage | Killtimer | Uptime | BKT | XDATA |
|---|---|---|---|---|---|---|---|---|---|---|---|---|---|---|---|
| 9A1FER-10 | 2026-09-04 01:27:28 | 44.94723 | 16.47035 | 196° | 18km/h | 1551m | -15.0m/s | 16.1°C | 55.4% | 0hPa | 2.6V | 00:00:00 | 02:27:30 | 00:00:00 | |
| 9A1FER-10 | 2026-09-04 01:27:23 | 44.94745 | 16.47043 | 193° | 16km/h | 1623m | -15.4m/s | 15.6°C | 55.5% | 0hPa | 2.6V | 00:00:00 | 02:27:25 | 00:00:00 | |
| 9A1FER-10 | 2026-09-04 01:27:14 | 44.94782 | 16.47048 | 180° | 20km/h | 1752m | -14.9m/s | 14.4°C | 58.0% | 0hPa | 2.6V | 00:00:00 | 02:27:16 | 00:00:00 | |
| 9A1FER-10 | 2026-09-04 01:27:09 | 44.94806 | 16.47047 | 182° | 22km/h | 1824m | -15.3m/s | 13.7°C | 60.5% | 0hPa | 2.6V | 00:00:00 | 02:27:11 | 00:00:00 | |
| 9A1FER-10 | 2026-09-04 01:27:04 | 44.94835 | 16.47048 | 185° | 24km/h | 1897m | -15.5m/s | 13.2°C | 59.8% | 0hPa | 2.6V | 08:13:00 | 02:27:06 | 00:00:00 | |
| 9A1FER-10 | 2026-09-04 01:26:59 | 44.94866 | 16.47053 | 190° | 22km/h | 1971m | -15.5m/s | 12.7°C | 58.9% | 0hPa | 2.5V | 00:00:00 | 02:27:01 | 00:00:00 | |
| 9A1FER-10 | 2026-09-04 01:26:54 | 44.94894 | 16.47061 | 188° | 22km/h | 2045m | -15.5m/s | 12.0°C | 62.8% | 0hPa | 2.5V | 00:00:00 | 02:26:56 | 00:00:00 | |
| 9A1FER-10 | 2026-09-04 01:26:44 | 44.94949 | 16.47066 | 177° | 26km/h | 2195m | -15.1m/s | 10.9°C | 66.1% | 0hPa | 2.5V | 00:00:00 | 02:26:46 | 00:00:00 | |
| 9A1FER-10 | 2026-09-04 01:26:34 | 44.95012 | 16.47066 | 171° | 29km/h | 2345m | -15.6m/s | 9.7°C | 67.8% | 0hPa | 2.6V | 00:00:00 | 02:26:36 | 00:00:00 | |
| 9A1FER-10 | 2026-09-04 01:26:24 | 44.95085 | 16.47058 | 173° | 31km/h | 2498m | -14.7m/s | 8.6°C | 62.3% | 0hPa | 2.6V | 00:00:00 | 02:26:26 | 00:00:00 | |
| 9A1FER-10 | 2026-09-04 01:26:14 | 44.95163 | 16.47046 | 170° | 29km/h | 2643m | -15.7m/s | 7.2°C | 63.1% | 0hPa | 2.6V | 00:00:00 | 02:26:16 | 00:00:00 | |
| 9A1FER-10 | 2026-09-04 01:25:13 | 44.95733 | 16.46912 | 177° | 46km/h | 3571m | -16.4m/s | 0.9°C | 89.0% | 0hPa | 2.5V | 00:00:00 | 02:25:15 | 00:00:00 | |
| 9A1FER-10 | 2026-09-04 01:24:53 | 44.95971 | 16.46880 | 172° | 53km/h | 3885m | -16.3m/s | -0.9°C | 87.7% | 0hPa | 2.5V | 00:00:00 | 02:24:55 | 00:00:00 | |
| 9A1FER-10 | 2026-09-04 01:24:23 | 44.96367 | 16.46812 | 168° | 44km/h | 4356m | -16.2m/s | -3.3°C | 84.0% | 0hPa | 2.5V | 00:00:00 | 02:24:25 | 00:00:00 | |
| 9A1FER-10 | 2026-09-04 01:24:08 | 44.96529 | 16.46766 | 165° | 47km/h | 4601m | -16.9m/s | -4.4°C | 78.2% | 0hPa | 2.5V | 00:00:00 | 02:24:10 | 00:00:00 | |
| 9A1FER-3 | 2026-09-04 01:24:00 | 44.96613 | 16.46731 | 157° | 55km/h | 4733m | -17.2m/s | -4.2°C | 49.6% | 0hPa | 2.5V | 00:00:00 | 02:24:02 | 00:00:00 | |
| 9A1FER-10 | 2026-09-04 01:23:53 | 44.96699 | 16.46683 | 160° | 58km/h | 4850m | -17.9m/s | -4.2°C | 45.9% | 0hPa | 2.5V | 00:00:00 | 02:23:55 | 00:00:00 | |
| 9A1FER-3 | 2026-09-04 01:23:45 | 44.96808 | 16.46623 | 164° | 60km/h | 4985m | -17.5m/s | -4.7°C | 27.7% | 0hPa | 2.6V | 00:00:00 | 02:23:47 | 00:00:00 | |
| 9A1FER-10 | 2026-09-04 01:23:38 | 44.96909 | 16.46572 | 160° | 62km/h | 5105m | -17.2m/s | -5.2°C | 53.1% | 0hPa | 2.5V | 00:00:00 | 02:23:40 | 00:00:00 | |
| 9A1FER-3 | 2026-09-04 01:23:30 | 44.97029 | 16.46518 | 161° | 66km/h | 5239m | -18.0m/s | -6.3°C | 56.8% | 0hPa | 2.5V | 00:00:00 | 02:23:32 | 00:00:00 | |
| 9A1FER-10 | 2026-09-04 01:23:23 | 44.97137 | 16.46473 | 168° | 66km/h | 5358m | -17.8m/s | -7.1°C | 58.7% | 0hPa | 2.5V | 00:00:00 | 02:23:25 | 00:00:00 | |
| 9A1FER-10 | 2026-09-04 01:23:08 | 44.97379 | 16.46381 | 164° | 64km/h | 5617m | -17.2m/s | -7.8°C | 45.3% | 0hPa | 2.5V | 00:00:00 | 02:23:10 | 00:00:00 | |
| 9A1FER-3 | 2026-09-04 01:23:00 | 44.97499 | 16.46343 | 166° | 71km/h | 5754m | -17.8m/s | -8.9°C | 45.4% | 0hPa | 2.6V | 00:00:00 | 02:23:02 | 00:00:00 | |
| 9A1FER-10 | 2026-09-04 01:22:53 | 44.97618 | 16.46306 | 167° | 78km/h | 5874m | -18.0m/s | -9.0°C | 35.3% | 0hPa | 2.6V | 00:00:00 | 02:22:55 | 00:00:00 | |
| 9A1FER-3 | 2026-09-04 01:22:45 | 44.97766 | 16.46247 | 161° | 84km/h | 6014m | -18.3m/s | -9.9°C | 42.7% | 0hPa | 2.6V | 00:00:00 | 02:22:47 | 00:00:00 | |
| 9A1FER-10 | 2026-09-04 01:22:38 | 44.97901 | 16.46175 | 160° | 86km/h | 6137m | -18.3m/s | -10.6°C | 45.2% | 0hPa | 2.6V | 00:00:00 | 02:22:40 | 00:00:00 | |
| 9A1FER-3 | 2026-09-04 01:22:30 | 44.98064 | 16.46085 | 162° | 86km/h | 6278m | -18.9m/s | -10.9°C | 37.7% | 0hPa | 2.6V | 00:00:00 | 02:22:32 | 00:00:00 | |
| 9A1FER-3 | 2026-09-04 01:22:15 | 44.98366 | 16.45922 | 156° | 84km/h | 6550m | -18.3m/s | -13.0°C | 42.5% | 0hPa | 2.6V | 08:18:00 | 02:22:17 | 00:00:00 | |
| 9A1FER-10 | 2026-09-04 01:22:07 | 44.98526 | 16.45832 | 157° | 86km/h | 6694m | -18.2m/s | -14.3°C | 43.7% | 0hPa | 2.5V | 08:18:00 | 02:22:09 | 00:00:00 | |
| 9A1FER-3 | 2026-09-04 01:22:00 | 44.98666 | 16.45752 | 157° | 97km/h | 6820m | -18.7m/s | -15.5°C | 46.5% | 0hPa | 2.5V | 00:00:00 | 02:22:02 | 00:00:00 | |
| 9A1FER-10 | 2026-09-04 01:21:52 | 44.98826 | 16.45655 | 158° | 93km/h | 6968m | -18.8m/s | -16.7°C | 48.6% | 0hPa | 2.5V | 00:00:00 | 02:21:54 | 00:00:00 | |
| 9A1FER-10 | 2026-09-04 01:21:37 | 44.99160 | 16.45469 | 160° | 100km/h | 7242m | -19.4m/s | -18.8°C | 54.1% | 0hPa | 2.5V | 00:00:00 | 02:21:39 | 00:00:00 | |
| 9A1FER-3 | 2026-09-04 01:21:35 | 44.99207 | 16.45447 | 161° | 97km/h | 7279m | -19.3m/s | -19.1°C | 53.5% | 0hPa | 2.5V | 00:00:00 | 02:21:37 | 00:00:00 | |
| 9A1FER-3 | 2026-09-04 01:21:20 | 44.99556 | 16.45271 | 160° | 95km/h | 7557m | -19.2m/s | -21.4°C | 47.3% | 0hPa | 2.5V | 00:00:00 | 02:21:22 | 00:00:00 | |
| 9A1FER-3 | 2026-09-04 01:20:33 | 45.00640 | 16.44784 | 161° | 102km/h | 8446m | -19.9m/s | -28.7°C | 54.7% | 0hPa | 2.5V | 00:00:00 | 02:20:35 | 00:00:00 | |
| 9A1FER-10 | 2026-09-04 01:20:22 | 45.00906 | 16.44661 | 165° | 108km/h | 8660m | -21.0m/s | -30.4°C | 56.9% | 0hPa | 2.5V | 00:00:00 | 02:20:24 | 00:00:00 | |
| 9A1FER-3 | 2026-09-04 01:20:18 | 45.01009 | 16.44620 | 165° | 110km/h | 8740m | -20.2m/s | -31.2°C | 56.4% | 0hPa | 2.6V | 00:00:00 | 02:20:20 | 00:00:00 | |
| 9A1FER-10 | 2026-09-04 01:20:07 | 45.01303 | 16.44506 | 165° | 111km/h | 8958m | -20.5m/s | -32.7°C | 35.7% | 0hPa | 2.6V | 00:00:00 | 02:20:09 | 00:00:00 | |
| 9A1FER-3 | 2026-09-04 01:20:03 | 45.01412 | 16.44468 | 167° | 110km/h | 9038m | -20.0m/s | -33.3°C | 29.6% | 0hPa | 2.6V | 00:00:00 | 02:20:05 | 00:00:00 | |
| 9A1FER-10 | 2026-09-04 01:19:50 | 45.01762 | 16.44354 | 166° | 110km/h | 9300m | -20.8m/s | -35.2°C | 21.5% | 0hPa | 2.5V | 00:00:00 | 02:19:52 | 00:00:00 | |
| 9A1FER-3 | 2026-09-04 01:19:48 | 45.01816 | 16.44336 | 168° | 115km/h | 9341m | -20.7m/s | -35.6°C | 22.7% | 0hPa | 2.5V | 00:00:00 | 02:19:50 | 00:00:00 | |
| 9A1FER-10 | 2026-09-04 01:19:35 | 45.02180 | 16.44211 | 167° | 115km/h | 9613m | -21.3m/s | -38.1°C | 33.2% | 0hPa | 2.5V | 00:00:00 | 02:19:37 | 00:00:00 | |
| 9A1FER-3 | 2026-09-04 01:19:27 | 45.02407 | 16.44146 | 169° | 115km/h | 9779m | -21.6m/s | -39.7°C | 40.0% | 0hPa | 2.5V | 00:00:00 | 02:19:29 | 00:00:00 | |
| 9A1FER-10 | 2026-09-04 01:19:20 | 45.02607 | 16.44097 | 171° | 117km/h | 9923m | -21.8m/s | -41.1°C | 47.3% | 0hPa | 2.5V | 00:00:00 | 02:19:22 | 00:00:00 | |
| 9A1FER-3 | 2026-09-04 01:19:12 | 45.02841 | 16.44061 | 177° | 120km/h | 10092m | -22.1m/s | -42.5°C | 57.1% | 0hPa | 2.5V | 08:21:00 | 02:19:14 | 00:00:00 | |
| 9A1FER-10 | 2026-09-04 01:19:05 | 45.03051 | 16.44041 | 175° | 128km/h | 10243m | -21.8m/s | -43.9°C | 63.5% | 0hPa | 2.6V | 00:00:00 | 02:19:07 | 00:00:00 | |
| 9A1FER-3 | 2026-09-04 01:18:57 | 45.03297 | 16.44023 | 177° | 137km/h | 10416m | -21.9m/s | -45.4°C | 68.8% | 0hPa | 2.6V | 00:00:00 | 02:18:59 | 00:00:00 | |
| 9A1FER-10 | 2026-09-04 01:18:45 | 45.03686 | 16.44002 | 179° | 133km/h | 10679m | -22.2m/s | -47.7°C | 65.1% | 0hPa | 2.6V | 08:21:00 | 02:18:47 | 00:00:00 | |
| 9A1FER-10 | 2026-09-04 01:18:30 | 45.04191 | 16.43968 | 179° | 139km/h | 11013m | -23.0m/s | -50.7°C | 57.7% | 0hPa | 2.5V | 00:00:00 | 02:18:32 | 00:00:00 | |
| 9A1FER-10 | 2026-09-04 01:18:15 | 45.04720 | 16.43957 | 179° | 144km/h | 11357m | -23.8m/s | -53.7°C | 62.0% | 0hPa | 2.5V | 00:00:00 | 02:18:17 | 00:00:00 | |
| 9A1FER-3 | 2026-09-04 01:18:12 | 45.04828 | 16.43956 | 182° | 146km/h | 11428m | -23.5m/s | -54.3°C | 61.3% | 0hPa | 2.5V | 00:00:00 | 02:18:14 | 00:00:00 | |
| 9A1FER-10 | 2026-09-04 01:18:00 | 45.05269 | 16.43975 | 183° | 151km/h | 11706m | -24.2m/s | -56.7°C | 54.1% | 0hPa | 2.5V | 00:00:00 | 02:18:02 | 00:00:00 | |
| 9A1FER-3 | 2026-09-04 01:17:57 | 45.05382 | 16.43981 | 183° | 151km/h | 11777m | -23.9m/s | -57.2°C | 52.5% | 0hPa | 2.5V | 00:00:00 | 02:17:59 | 00:00:00 | |
| 9A1FER-10 | 2026-09-04 01:17:45 | 45.05842 | 16.44008 | 184° | 146km/h | 12064m | -24.6m/s | -59.7°C | 46.9% | 0hPa | 2.5V | 00:00:00 | 02:17:47 | 00:00:00 | |
| 9A1FER-3 | 2026-09-04 01:17:42 | 45.05956 | 16.44019 | 183° | 142km/h | 12136m | -24.6m/s | -60.3°C | 45.6% | 0hPa | 2.5V | 00:00:00 | 02:17:44 | 00:00:00 | |
| 9A1FER-10 | 2026-09-04 01:17:30 | 45.06393 | 16.44030 | 176° | 144km/h | 12426m | -25.1m/s | -62.1°C | 42.3% | 0hPa | 2.5V | 00:00:00 | 02:17:32 | 00:00:00 | |
| 9A1FER-3 | 2026-09-04 01:17:27 | 45.06497 | 16.44017 | 172° | 146km/h | 12499m | -24.9m/s | -62.4°C | 40.6% | 0hPa | 2.5V | 00:00:00 | 02:17:29 | 00:00:00 | |
| 9A1FER-10 | 2026-09-04 01:17:15 | 45.06937 | 16.43910 | 171° | 122km/h | 12795m | -25.8m/s | -62.1°C | 27.8% | 0hPa | 2.5V | 00:00:00 | 02:17:17 | 00:00:00 | |
| 9A1FER-3 | 2026-09-04 01:17:12 | 45.07043 | 16.43890 | 172° | 124km/h | 12869m | -25.6m/s | -60.9°C | 22.6% | 0hPa | 2.5V | 00:00:00 | 02:17:14 | 00:00:00 | |
| 9A1FER-3 | 2026-09-04 01:16:57 | 45.07497 | 16.43746 | 164° | 110km/h | 13254m | -26.4m/s | -61.9°C | 15.2% | 0hPa | 2.5V | 00:00:00 | 02:16:59 | 00:00:00 | |
| 9A1FER-10 | 2026-09-04 01:16:42 | 45.07879 | 16.43528 | 157° | 97km/h | 13647m | -26.5m/s | -60.5°C | 8.8% | 0hPa | 2.5V | 00:00:00 | 02:16:44 | 00:00:00 | |
| 9A1FER-3 | 2026-09-04 01:16:27 | 45.08219 | 16.43339 | 153° | 82km/h | 14049m | -27.2m/s | -57.7°C | 6.3% | 0hPa | 2.5V | 08:24:00 | 02:16:29 | 00:00:00 | |
| 9A1FER-10 | 2026-09-04 01:16:12 | 45.08482 | 16.43098 | 156° | 66km/h | 14469m | -28.9m/s | -56.4°C | 5.8% | 0hPa | 2.5V | 00:00:00 | 02:16:14 | 00:00:00 | |
| 9A1FER-3 | 2026-09-04 01:15:57 | 45.08705 | 16.42941 | 148° | 42km/h | 14904m | -30.9m/s | -55.0°C | 5.0% | 0hPa | 2.5V | 00:00:00 | 02:15:59 | 00:00:00 | |
| OM5KV | 2026-09-04 01:15:31 | 45.08911 | 16.42729 | 138° | 38km/h | 15669m | -31.7m/s | -56.6°C | 2.1% | 0hPa | 2.5V | 08:25:00 | 00:00:00 | 00:00:00 | |
| 9A1FER-10 | 2026-09-04 01:15:27 | 45.08945 | 16.42669 | 130° | 51km/h | 15829m | -31.8m/s | -57.4°C | 5.6% | 0hPa | 2.5V | 00:00:00 | 02:15:29 | 00:00:00 | |
| OM5KV | 2026-09-04 01:15:24 | 45.08961 | 16.42642 | 127° | 51km/h | 15893m | -32.6m/s | -57.9°C | 2.2% | 0hPa | 2.5V | 08:25:00 | 00:00:00 | 00:00:00 | |
| OM5KV | 2026-09-04 01:15:18 | 45.09011 | 16.42553 | 130° | 51km/h | 16089m | -33.6m/s | -58.1°C | 2.2% | 0hPa | 2.5V | 08:25:00 | 00:00:00 | 00:00:00 | |
| 9A1FER-3 | 2026-09-04 01:15:12 | 45.09071 | 16.42457 | 135° | 46km/h | 16323m | -33.4m/s | -58.0°C | 5.7% | 0hPa | 2.5V | 00:00:00 | 02:15:14 | 00:00:00 | |
| OM5KV | 2026-09-04 01:15:11 | 45.09071 | 16.42457 | 135° | 53km/h | 16323m | -33.5m/s | -58.1°C | 2.1% | 0hPa | 2.5V | 08:25:00 | 00:00:00 | 00:00:00 | |
| OM5KV | 2026-09-04 01:15:10 | 45.09080 | 16.42443 | 132° | 51km/h | 16356m | -33.9m/s | -57.9°C | 2.1% | 0hPa | 2.5V | 08:25:00 | 00:00:00 | 00:00:00 | |
| OM5KV | 2026-09-04 01:15:03 | 45.09135 | 16.42358 | 134° | 42km/h | 16592m | -33.9m/s | -56.5°C | 1.8% | 0hPa | 2.5V | 08:26:00 | 00:00:00 | 00:00:00 | |
| 9A1FER-3 | 2026-09-04 01:14:57 | 45.09185 | 16.42267 | 122° | 47km/h | 16832m | -35.4m/s | -56.4°C | 4.7% | 0hPa | 2.5V | 00:00:00 | 02:14:59 | 00:00:00 | |
| OM5KV | 2026-09-04 01:14:50 | 45.09226 | 16.42188 | 133° | 44km/h | 17043m | -35.6m/s | -56.7°C | 1.7% | 0hPa | 2.6V | 08:26:00 | 00:00:00 | 00:00:00 | |
| OM5KV | 2026-09-04 01:14:44 | 45.09277 | 16.42112 | 138° | 49km/h | 17256m | -36.0m/s | -57.9°C | 1.8% | 0hPa | 2.6V | 08:26:00 | 00:00:00 | 00:00:00 | |
| 9A1FER-10 | 2026-09-04 01:14:42 | 45.09306 | 16.42076 | 141° | 46km/h | 17363m | -34.9m/s | -58.5°C | 5.7% | 0hPa | 2.6V | 00:00:00 | 02:14:44 | 00:00:00 | |
| OM5KV | 2026-09-04 01:14:39 | 45.09327 | 16.42054 | 148° | 49km/h | 17432m | -35.5m/s | -59.1°C | 2.0% | 0hPa | 2.6V | 08:26:00 | 00:00:00 | 00:00:00 | |
| OM5KV | 2026-09-04 01:14:36 | 45.09370 | 16.42019 | 158° | 46km/h | 17574m | -35.3m/s | -58.9°C | 1.9% | 0hPa | 2.6V | 08:26:00 | 00:00:00 | 00:00:00 | |
| OM5KV | 2026-09-04 01:14:32 | 45.09398 | 16.41999 | 153° | 38km/h | 17681m | -36.4m/s | -59.2°C | 1.9% | 0hPa | 2.6V | 08:26:00 | 00:00:00 | 00:00:00 | |
| OM5KV | 2026-09-04 01:14:29 | 45.09425 | 16.41977 | 144° | 42km/h | 17788m | -36.4m/s | -59.5°C | 2.1% | 0hPa | 2.6V | 08:26:00 | 00:00:00 | 00:00:00 | |
| 9A1FER-3 | 2026-09-04 01:14:27 | 45.09453 | 16.41954 | 152° | 33km/h | 17898m | -36.8m/s | -57.9°C | 5.8% | 0hPa | 2.6V | 00:00:00 | 02:14:29 | 00:00:00 | |
| OM5KV | 2026-09-04 01:14:23 | 45.09481 | 16.41933 | 157° | 40km/h | 18007m | -36.8m/s | -56.6°C | 1.6% | 0hPa | 2.6V | 08:26:00 | 00:00:00 | 00:00:00 | |
| OM5KV | 2026-09-04 01:14:21 | 45.09497 | 16.41922 | 156° | 31km/h | 18081m | -37.1m/s | -56.2°C | 1.6% | 0hPa | 2.6V | 08:26:00 | 00:00:00 | 00:00:00 | |
| OM5KV | 2026-09-04 01:14:15 | 45.09530 | 16.41883 | 131° | 29km/h | 18308m | -38.3m/s | -56.1°C | 1.6% | 0hPa | 2.6V | 08:26:00 | 00:00:00 | 00:00:00 | |
| 9A1FER-10 | 2026-09-04 01:14:12 | 45.09553 | 16.41857 | 142° | 20km/h | 18461m | -39.6m/s | -56.2°C | 5.1% | 0hPa | 2.6V | 08:26:00 | 02:14:14 | 00:00:00 | |
| OM5KV | 2026-09-04 01:14:08 | 45.09575 | 16.41839 | 146° | 24km/h | 18619m | -40.4m/s | -55.7°C | 1.6% | 0hPa | 2.5V | 08:27:00 | 00:00:00 | 00:00:00 | |
| OM5KV | 2026-09-04 01:13:59 | 45.09611 | 16.41814 | 167° | 16km/h | 18943m | -41.5m/s | -54.9°C | 1.4% | 0hPa | 2.5V | 08:27:00 | 00:00:00 | 00:00:00 | |
| 9A1FER-10 | 2026-09-04 01:13:57 | 45.09623 | 16.41809 | 154° | 13km/h | 19067m | -41.5m/s | -54.6°C | 4.2% | 0hPa | 2.5V | 00:00:00 | 02:13:59 | 00:00:00 | |
| OE5DRO-10 | 2026-09-04 01:13:53 | 45.09635 | 16.41804 | 149° | 16km/h | 19235m | -42.5m/s | -54.6°C | 4.2% | 0hPa | 2.5V | 00:00:00 | 00:00:00 | 00:00:00 | |
| OM5KV | 2026-09-04 01:13:48 | 45.09643 | 16.41796 | 143° | 9km/h | 19405m | -41.8m/s | -54.6°C | 1.3% | 0hPa | 2.5V | 08:27:00 | 00:00:00 | 00:00:00 | |
| OM5KV | 2026-09-04 01:13:43 | 45.09651 | 16.41775 | 122° | 15km/h | 19616m | -42.8m/s | -55.9°C | 1.5% | 0hPa | 2.5V | 00:00:00 | 00:00:00 | 00:00:00 | |
| 9A1FER-3 | 2026-09-04 01:13:42 | 45.09656 | 16.41764 | 112° | 18km/h | 19703m | -44.2m/s | -56.3°C | 4.9% | 0hPa | 2.5V | 00:00:00 | 02:13:44 | 00:00:00 | |
| OE5DXL-15 | 2026-09-04 01:13:37 | 45.09666 | 16.41734 | 111° | 11km/h | 19919m | -43.7m/s | -57.0°C | 5.2% | 0hPa | 2.5V | 00:00:00 | 00:00:00 | 00:00:00 | |
| OE5DRO-10 | 2026-09-04 01:13:34 | 45.09672 | 16.41715 | 117° | 11km/h | 20051m | -44.7m/s | -56.9°C | 5.3% | 0hPa | 2.5V | 00:00:00 | 00:00:00 | 00:00:00 | |
| OM5KV | 2026-09-04 01:13:33 | 45.09672 | 16.41715 | 117° | 20km/h | 20051m | -44.8m/s | -57.0°C | 1.6% | 0hPa | 2.5V | 08:27:00 | 00:00:00 | 00:00:00 | |
| OM5KV | 2026-09-04 01:13:29 | 45.09678 | 16.41690 | 106° | 15km/h | 20231m | -46.5m/s | -56.1°C | 1.5% | 0hPa | 2.5V | 00:00:00 | 00:00:00 | 00:00:00 | |
| 9A1FER-10 | 2026-09-04 01:13:27 | 45.09682 | 16.41681 | 129° | 9km/h | 20366m | -45.3m/s | -56.0°C | 5.0% | 0hPa | 2.5V | 00:00:00 | 02:13:29 | 00:00:00 | |
| OM5KV | 2026-09-04 01:13:21 | 45.09686 | 16.41670 | 97° | 7km/h | 20594m | -46.6m/s | -55.9°C | 1.5% | 0hPa | 2.6V | 00:00:00 | 00:00:00 | 00:00:00 | |
| OM5KV | 2026-09-04 01:13:16 | 45.09693 | 16.41657 | 147° | 11km/h | 20825m | -47.0m/s | -55.3°C | 1.4% | 0hPa | 2.6V | 00:00:00 | 00:00:00 | 00:00:00 | |
| OE5DRO-10 | 2026-09-04 01:13:15 | 45.09700 | 16.41653 | 150° | 11km/h | 20918m | -47.3m/s | -55.4°C | 4.7% | 0hPa | 2.6V | 00:00:00 | 00:00:00 | 00:00:00 | |
| 9A1FER-3 | 2026-09-04 01:13:12 | 45.09708 | 16.41650 | 166° | 9km/h | 21060m | -47.3m/s | -55.2°C | 4.7% | 0hPa | 2.6V | 00:00:00 | 02:13:14 | 00:00:00 | |
| PETON7-10 | 2026-09-04 01:13:11 | 45.09709 | 16.41649 | 130° | 15km/h | 21108m | -48.8m/s | -55.2°C | 4.7% | 0hPa | 2.6V | 00:00:00 | 00:00:00 | 00:00:00 | |
| OM5KV | 2026-09-04 01:13:08 | 45.09711 | 16.41648 | 154° | 5km/h | 21205m | -48.0m/s | -55.3°C | 1.4% | 0hPa | 2.6V | 08:28:00 | 00:00:00 | 00:00:00 | |
| OE5DXL-15 | 2026-09-04 01:13:05 | 45.09714 | 16.41638 | 123° | 15km/h | 21401m | -49.1m/s | -54.8°C | 4.8% | 0hPa | 2.6V | 08:27:00 | 00:00:00 | 00:00:00 | |
| 9A1FER-3 | 2026-09-04 01:12:57 | 45.09727 | 16.41606 | 124° | 15km/h | 21798m | -50.5m/s | -55.1°C | 5.0% | 0hPa | 2.5V | 00:00:00 | 02:12:59 | 00:00:00 | |
| OE5DRO-10 | 2026-09-04 01:12:56 | 45.09729 | 16.41603 | 132° | 16km/h | 21848m | -51.7m/s | -55.1°C | 5.0% | 0hPa | 2.5V | 00:00:00 | 00:00:00 | 00:00:00 | |
| 9A1FER-10 | 2026-09-04 01:12:42 | 45.09779 | 16.41610 | 214° | 18km/h | 22566m | -53.0m/s | -52.1°C | 4.0% | 0hPa | 2.5V | 00:00:00 | 02:12:44 | 00:00:00 | |
| OE5DRO-10 | 2026-09-04 01:12:37 | 45.09798 | 16.41642 | 240° | 11km/h | 22828m | -53.6m/s | -52.3°C | 4.1% | 0hPa | 2.5V | 00:00:00 | 00:00:00 | 00:00:00 | |
| OM5KV | 2026-09-04 01:12:34 | 45.09803 | 16.41664 | 277° | 20km/h | 22987m | -54.4m/s | -52.5°C | 1.2% | 0hPa | 2.5V | 08:28:00 | 00:00:00 | 00:00:00 | |
| PETON7-10 | 2026-09-04 01:12:32 | 45.09801 | 16.41674 | 299° | 7km/h | 23094m | -54.2m/s | -52.3°C | 4.2% | 0hPa | 2.5V | 00:00:00 | 02:12:34 | 00:00:00 | |
| 9A1FER-3 | 2026-09-04 01:12:27 | 45.09792 | 16.41688 | 304° | 5km/h | 23369m | -56.2m/s | -52.5°C | 4.4% | 0hPa | 2.5V | 00:00:00 | 02:12:29 | 00:00:00 | |
| OM5KV | 2026-09-04 01:12:22 | 45.09789 | 16.41695 | 312° | 5km/h | 23598m | -58.9m/s | -52.1°C | 1.1% | 0hPa | 2.5V | 08:28:00 | 00:00:00 | 00:00:00 | |
| OE5DXL-15 | 2026-09-04 01:12:21 | 45.09786 | 16.41699 | 306° | 5km/h | 23714m | -59.1m/s | -52.5°C | 4.5% | 0hPa | 2.5V | 00:00:00 | 00:00:00 | 00:00:00 | |
| OE5DRO-10 | 2026-09-04 01:12:18 | 45.09784 | 16.41704 | 322° | 5km/h | 23889m | -59.5m/s | -52.2°C | 4.5% | 0hPa | 2.5V | 00:00:00 | 00:00:00 | 00:00:00 | |
| OM5KV | 2026-09-04 01:12:16 | 45.09784 | 16.41705 | 274° | 4km/h | 23948m | -58.7m/s | -52.3°C | 1.2% | 0hPa | 2.6V | 08:28:00 | 00:00:00 | 00:00:00 | |
| PETON7-10 | 2026-09-04 01:12:15 | 45.09783 | 16.41706 | 272° | 5km/h | 24067m | -58.9m/s | -51.6°C | 4.4% | 0hPa | 2.6V | 00:00:00 | 00:00:00 | 08:30:00 | |
| 9A1FER-10 | 2026-09-04 01:12:12 | 45.09782 | 16.41708 | 83° | 5km/h | 24246m | -60.8m/s | -50.8°C | 4.1% | 0hPa | 2.5V | 00:00:00 | 02:12:14 | 00:00:00 | |
| OM5KV | 2026-09-04 01:12:10 | 45.09783 | 16.41709 | 211° | 4km/h | 24366m | -61.1m/s | -50.2°C | 1.0% | 0hPa | 2.5V | 08:28:00 | 00:00:00 | 00:00:00 | |
| OM5KV | 2026-09-04 01:12:09 | 45.09783 | 16.41709 | 211° | 4km/h | 24366m | -61.1m/s | -50.2°C | 1.0% | 0hPa | 2.5V | 08:28:00 | 00:00:00 | 00:00:00 | |
| OM5KV | 2026-09-04 01:12:04 | 45.09787 | 16.41717 | 207° | 5km/h | 24673m | -62.1m/s | -49.2°C | 1.0% | 0hPa | 2.5V | 08:28:00 | 00:00:00 | 00:00:00 | |
| PETON7-10 | 2026-09-04 01:12:00 | 45.09793 | 16.41722 | 176° | 7km/h | 24985m | -63.1m/s | -49.3°C | 3.8% | 0hPa | 2.5V | 00:00:00 | 00:00:00 | 00:00:00 | |
| OE5DRO-10 | 2026-09-04 01:11:59 | 45.09794 | 16.41723 | 242° | 7km/h | 25048m | -62.7m/s | -48.9°C | 3.7% | 0hPa | 2.5V | 00:00:00 | 00:00:00 | 00:00:00 | |
| 9A1FER-10 | 2026-09-04 01:11:57 | 45.09796 | 16.41727 | 277° | 7km/h | 25174m | -63.3m/s | -48.0°C | 3.5% | 0hPa | 2.5V | 08:28:00 | 02:11:59 | 00:00:00 | |
| OM5KV | 2026-09-04 01:11:54 | 45.09796 | 16.41733 | 295° | 7km/h | 25300m | -63.9m/s | -48.4°C | 1.0% | 0hPa | 2.5V | 08:28:00 | 00:00:00 | 00:00:00 | |
| OE5DXL-15 | 2026-09-04 01:11:51 | 45.09791 | 16.41744 | 338° | 11km/h | 25556m | -65.9m/s | -48.7°C | 3.7% | 0hPa | 2.5V | 00:00:00 | 00:00:00 | 00:00:00 | |
| OM5KV | 2026-09-04 01:11:47 | 45.09785 | 16.41749 | 360° | 5km/h | 25816m | -66.5m/s | -48.2°C | 1.0% | 0hPa | 2.5V | 08:28:00 | 00:00:00 | 00:00:00 | |
| 9A1FER-3 | 2026-09-04 01:11:42 | 45.09782 | 16.41755 | 349° | 11km/h | 26154m | -68.8m/s | -46.7°C | 3.4% | 0hPa | 2.5V | 00:00:00 | 02:11:44 | 00:00:00 | |
| OE5DRO-10 | 2026-09-04 01:11:40 | 45.09780 | 16.41756 | 21° | 15km/h | 26293m | -70.4m/s | -46.3°C | 3.3% | 0hPa | 2.5V | 00:00:00 | 00:00:00 | 00:00:00 | |
| OM5KV | 2026-09-04 01:11:35 | 45.09774 | 16.41758 | 15° | 9km/h | 26650m | -72.8m/s | -46.1°C | 0.8% | 0hPa | 2.5V | 00:00:00 | 00:00:00 | 00:00:00 | |
| OM5KV | 2026-09-04 01:11:30 | 45.09759 | 16.41751 | 32° | 18km/h | 27015m | -74.9m/s | -45.3°C | 0.8% | 0hPa | 2.5V | 00:00:00 | 00:00:00 | 00:00:00 | |
| OM5KV | 2026-09-04 01:11:28 | 45.09755 | 16.41747 | 39° | 16km/h | 27090m | -74.4m/s | -45.0°C | 0.8% | 0hPa | 2.5V | 00:00:00 | 00:00:00 | 00:00:00 | |
| 9A1FER-10 | 2026-09-04 01:11:27 | 45.09749 | 16.41737 | 48° | 20km/h | 27239m | -74.8m/s | -45.1°C | 3.1% | 0hPa | 2.5V | 00:00:00 | 02:11:29 | 00:00:00 | |
| OM5KV | 2026-09-04 01:11:24 | 45.09740 | 16.41717 | 70° | 24km/h | 27465m | -76.3m/s | -44.7°C | 0.7% | 0hPa | 2.5V | 00:00:00 | 00:00:00 | 00:00:00 | |
| OE5DXL-15 | 2026-09-04 01:11:21 | 45.09736 | 16.41696 | 86° | 13km/h | 27693m | -76.2m/s | -44.6°C | 3.1% | 0hPa | 2.5V | 00:00:00 | 00:00:00 | 00:00:00 | |
| 9A1FER-3 | 2026-09-04 01:11:12 | 45.09741 | 16.41636 | 106° | 11km/h | 28391m | -78.2m/s | -43.0°C | 2.9% | 0hPa | 2.5V | 00:00:00 | 02:11:14 | 00:00:00 | |
| PG1ADW-2 | 2026-09-04 01:11:07 | 45.09750 | 16.41614 | 131° | 7km/h | 28787m | -80.6m/s | -42.3°C | 2.8% | 0hPa | 2.6V | 00:00:00 | 00:00:00 | 00:00:00 | |
| OM5KV | 2026-09-04 01:11:05 | 45.09755 | 16.41609 | 158° | 9km/h | 28950m | -83.4m/s | -42.4°C | 0.7% | 0hPa | 2.6V | 00:00:00 | 00:00:00 | 00:00:00 | |
| OM5KV | 2026-09-04 01:11:03 | 45.09757 | 16.41607 | 131° | 9km/h | 29033m | -84.7m/s | -42.1°C | 0.7% | 0hPa | 2.6V | 00:00:00 | 00:00:00 | 00:00:00 | |
| OE5DRO-10 | 2026-09-04 01:11:02 | 45.09761 | 16.41603 | 137° | 5km/h | 29201m | -84.7m/s | -41.8°C | 2.7% | 0hPa | 2.6V | 00:00:00 | 00:00:00 | 00:00:00 | |
| OM5KV | 2026-09-04 01:10:58 | 45.09765 | 16.41601 | 190° | 5km/h | 29456m | -86.4m/s | -41.4°C | 0.7% | 0hPa | 2.6V | 00:00:00 | 00:00:00 | 00:00:00 | |
| 9A1FER-3 | 2026-09-04 01:10:57 | 45.09767 | 16.41602 | 252° | 5km/h | 29628m | -86.3m/s | -40.8°C | 2.6% | 0hPa | 2.6V | 00:00:00 | 02:10:59 | 00:00:00 | |
| OE5DXL-15 | 2026-09-04 01:10:51 | 45.09764 | 16.41614 | 325° | 7km/h | 30152m | -90.8m/s | -39.1°C | 2.2% | 0hPa | 2.6V | 00:00:00 | 00:00:00 | 00:00:00 | |
| OM5KV | 2026-09-04 01:10:47 | 45.09761 | 16.41619 | 321° | 7km/h | 30425m | -91.4m/s | -39.4°C | 0.5% | 0hPa | 2.6V | 00:00:00 | 00:00:00 | 00:00:00 | |
| OM5KV | 2026-09-04 01:10:45 | 45.09760 | 16.41622 | 282° | 5km/h | 30608m | -92.1m/s | -39.7°C | 0.6% | 0hPa | 2.6V | 00:00:00 | 00:00:00 | 00:00:00 | |
| PETON7-10 | 2026-09-04 01:10:44 | 45.09760 | 16.41626 | 276° | 7km/h | 30792m | -92.6m/s | -39.5°C | 2.4% | 0hPa | 2.6V | 00:00:00 | 00:00:00 | 00:00:00 | |
| PG1ADW-2 | 2026-09-04 01:10:43 | 45.09761 | 16.41629 | 259° | 7km/h | 30884m | -92.9m/s | -39.2°C | 2.3% | 0hPa | 2.5V | 00:00:00 | 00:00:00 | 00:00:00 | |
| 9A1FER-10 | 2026-09-04 01:10:42 | 45.09761 | 16.41631 | 282° | 7km/h | 30977m | -92.4m/s | -39.0°C | 2.3% | 0hPa | 2.5V | 00:00:00 | 02:10:44 | 00:00:00 | |
| OM5KV | 2026-09-04 01:10:40 | 45.09760 | 16.41634 | 262° | 9km/h | 31070m | -92.1m/s | -39.0°C | 0.5% | 0hPa | 2.5V | 00:00:00 | 00:00:00 | 00:00:00 | |
| OM5KV | 2026-09-04 01:10:35 | 45.09760 | 16.41647 | 0° | 0km/h | 31533m | -93.4m/s | -39.7°C | 0.6% | 0hPa | 2.5V | 00:00:00 | 00:00:00 | 00:00:00 | |
| OM5KV | 2026-09-04 01:10:29 | 45.09766 | 16.41647 | 152° | 7km/h | 32173m | -88.0m/s | -37.8°C | 0.5% | 0hPa | 2.5V | 00:00:00 | 00:00:00 | 00:00:00 | |
| PETON7-10 | 2026-09-04 01:10:28 | 45.09769 | 16.41646 | 156° | 20km/h | 32261m | -86.8m/s | -37.8°C | 2.1% | 0hPa | 2.5V | 00:00:00 | 00:00:00 | 00:00:00 | |
| 9A1FER-3 | 2026-09-04 01:10:27 | 45.09771 | 16.41644 | 143° | 20km/h | 32347m | -86.4m/s | -38.1°C | 2.2% | 0hPa | 2.5V | 00:00:00 | 02:10:29 | 00:00:00 | |
| OE5DRO-10 | 2026-09-04 01:10:24 | 45.09778 | 16.41641 | 176° | 22km/h | 32597m | -81.2m/s | -38.0°C | 2.1% | 0hPa | 2.6V | 00:00:00 | 00:00:00 | 00:00:00 | |
| PG1ADW-2 | 2026-09-04 01:10:23 | 45.09779 | 16.41640 | 159° | 22km/h | 32678m | -79.7m/s | -37.8°C | 2.0% | 0hPa | 2.5V | 00:00:00 | 02:10:25 | 00:00:00 | |
| OE5DXL-15 | 2026-09-04 01:10:21 | 45.09782 | 16.41637 | 127° | 16km/h | 32836m | -76.0m/s | -37.5°C | 2.0% | 0hPa | 2.5V | 00:00:00 | 00:00:00 | 00:00:00 | |
| OM5KV | 2026-09-04 01:10:16 | 45.09802 | 16.41619 | 152° | 31km/h | 33141m | -70.0m/s | -37.2°C | 0.4% | 0hPa | 2.5V | 00:00:00 | 00:00:00 | 00:00:00 | |
| OM5KV | 2026-09-04 01:10:15 | 45.09809 | 16.41614 | 151° | 33km/h | 33207m | -62.5m/s | -37.5°C | 0.5% | 0hPa | 2.5V | 00:00:00 | 00:00:00 | 00:00:00 | |
| 9A1FER-10 | 2026-09-04 01:10:12 | 45.09839 | 16.41591 | 156° | 13km/h | 33395m | -32.1m/s | -38.4°C | 2.2% | 0hPa | 2.5V | 00:00:00 | 02:10:14 | 00:00:00 | |
| OM5KV | 2026-09-04 01:10:09 | 45.09852 | 16.41584 | 168° | 20km/h | 33444m | -16.3m/s | -38.4°C | 0.5% | 0hPa | 2.5V | 00:00:00 | 00:00:00 | 00:00:00 | |
| OM5KV | 2026-09-04 01:10:06 | 45.09860 | 16.41595 | 243° | 13km/h | 33457m | 5.0m/s | -38.2°C | 0.5% | 0hPa | 2.5V | 00:00:00 | 00:00:00 | 00:00:00 | |
| OE5DRO-10 | 2026-09-04 01:10:05 | 45.09862 | 16.41599 | 231° | 9km/h | 33451m | 5.8m/s | -38.1°C | 2.1% | 0hPa | 2.5V | 00:00:00 | 00:00:00 | 00:00:00 | |
| PG1ADW-2 | 2026-09-04 01:10:03 | 45.09866 | 16.41603 | 198° | 9km/h | 33440m | 5.0m/s | -38.1°C | 2.1% | 0hPa | 2.5V | 00:00:00 | 00:00:00 | 00:00:00 | |
| OM5KV | 2026-09-04 01:09:58 | 45.09873 | 16.41608 | 225° | 5km/h | 33414m | 4.9m/s | -38.1°C | 0.5% | 0hPa | 2.5V | 00:00:00 | 00:00:00 | 00:00:00 | |
| 9A1FER-3 | 2026-09-04 01:09:57 | 45.09874 | 16.41609 | 203° | 11km/h | 33409m | 5.0m/s | -38.1°C | 2.1% | 0hPa | 2.5V | 00:00:00 | 02:09:59 | 00:00:00 | |
| PETON7-10 | 2026-09-04 01:09:53 | 45.09879 | 16.41601 | 136° | 13km/h | 33387m | 4.9m/s | -38.1°C | 2.1% | 0hPa | 2.5V | 00:00:00 | 00:00:00 | 00:00:00 | |
| OE5DXL-15 | 2026-09-04 01:09:51 | 45.09884 | 16.41598 | 178° | 13km/h | 33376m | 5.6m/s | -38.1°C | 2.1% | 0hPa | 2.6V | 00:00:00 | 00:00:00 | 00:00:00 | |
| OE5DRO-10 | 2026-09-04 01:09:46 | 45.09901 | 16.41599 | 155° | 13km/h | 33349m | 5.2m/s | -38.2°C | 2.1% | 0hPa | 2.5V | 00:00:00 | 00:00:00 | 00:00:00 | |
| PG1ADW-2 | 2026-09-04 01:09:43 | 45.09907 | 16.41594 | 150° | 13km/h | 33334m | 5.5m/s | -38.3°C | 2.1% | 0hPa | 2.5V | 00:00:00 | 00:00:00 | 08:30:00 | |
| OM5KV | 2026-09-04 01:09:42 | 45.09909 | 16.41592 | 163° | 11km/h | 33328m | 5.4m/s | -38.4°C | 0.5% | 0hPa | 2.6V | 00:00:00 | 00:00:00 | 00:00:00 | |
| PETON7-10 | 2026-09-04 01:09:38 | 45.09922 | 16.41586 | 138° | 13km/h | 33309m | 5.3m/s | -38.4°C | 2.1% | 0hPa | 2.6V | 00:00:00 | 00:00:00 | 00:00:00 | |
| OM5KV | 2026-09-04 01:09:37 | 45.09921 | 16.41586 | 139° | 15km/h | 33309m | 5.4m/s | -38.5°C | 0.5% | 0hPa | 2.6V | 00:00:00 | 00:00:00 | 00:00:00 | |
| OM5KV | 2026-09-04 01:09:34 | 45.09925 | 16.41573 | 85° | 11km/h | 33293m | 5.1m/s | -38.5°C | 0.5% | 0hPa | 2.6V | 00:00:00 | 00:00:00 | 00:00:00 | |
| OM5KV | 2026-09-04 01:09:32 | 45.09925 | 16.41566 | 145° | 5km/h | 33277m | 5.2m/s | -38.5°C | 0.5% | 0hPa | 2.6V | 00:00:00 | 00:00:00 | 00:00:00 | |
| OM5KV | 2026-09-04 01:09:31 | 45.09925 | 16.41566 | 145° | 5km/h | 33277m | 5.2m/s | -38.5°C | 0.5% | 0hPa | 2.6V | 00:00:00 | 00:00:00 | 00:00:00 | |
| 9A1FER-10 | 2026-09-04 01:09:27 | 45.09938 | 16.41551 | 118° | 11km/h | 33252m | 5.3m/s | -38.5°C | 2.2% | 0hPa | 2.6V | 00:00:00 | 02:09:29 | 00:00:00 | |
| OE5DRO-10 | 2026-09-04 01:09:26 | 45.09940 | 16.41545 | 105° | 11km/h | 33246m | 5.0m/s | -38.5°C | 2.2% | 0hPa | 2.6V | 00:00:00 | 00:00:00 | 00:00:00 | |
| OM5KV | 2026-09-04 01:09:24 | 45.09940 | 16.41540 | 93° | 15km/h | 33241m | 5.1m/s | -38.6°C | 0.5% | 0hPa | 2.5V | 00:00:00 | 00:00:00 | 00:00:00 | |
| PG1ADW-2 | 2026-09-04 01:09:23 | 45.09940 | 16.41532 | 75° | 13km/h | 33231m | 5.4m/s | -38.6°C | 2.2% | 0hPa | 2.5V | 00:00:00 | 00:00:00 | 00:00:00 | |
| OE5DXL-15 | 2026-09-04 01:09:21 | 45.09939 | 16.41529 | 88° | 13km/h | 33220m | 5.5m/s | -38.7°C | 2.2% | 0hPa | 2.5V | 00:00:00 | 00:00:00 | 00:00:00 | |
| LZ4TU-5 | 2026-09-04 01:09:15 | 45.09938 | 16.41509 | 76° | 16km/h | 33192m | 4.8m/s | -38.8°C | 0% | 0hPa | 2.5V | 00:00:00 | 00:00:00 | 00:00:00 | |
| 9A1FER-3 | 2026-09-04 01:09:12 | 45.09933 | 16.41494 | 52° | 13km/h | 33171m | 5.1m/s | -38.7°C | 2.2% | 0hPa | 2.5V | 00:00:00 | 02:09:14 | 00:00:00 | |
| LZ4TU-5 | 2026-09-04 01:09:10 | 45.09932 | 16.41492 | 69° | 5km/h | 33166m | 4.9m/s | -38.7°C | 0% | 0hPa | 2.5V | 00:00:00 | 00:00:00 | 00:00:00 | |
| PETON7-10 | 2026-09-04 01:09:07 | 45.09927 | 16.41472 | 64° | 11km/h | 33147m | 4.7m/s | -38.7°C | 2.2% | 0hPa | 2.5V | 00:00:00 | 00:00:00 | 08:30:00 | |
| PG1ADW-2 | 2026-09-04 01:09:03 | 45.09912 | 16.41451 | 14° | 7km/h | 33126m | 5.3m/s | -38.6°C | 2.2% | 0hPa | 2.5V | 00:00:00 | 02:09:05 | 00:00:00 | |
| 9A1FER-3 | 2026-09-04 01:08:57 | 45.09912 | 16.41448 | 105° | 7km/h | 33095m | 5.0m/s | -38.6°C | 2.2% | 0hPa | 2.5V | 00:00:00 | 02:08:59 | 00:00:00 | |
| OM5KV | 2026-09-04 01:08:55 | 45.09912 | 16.41444 | 88° | 13km/h | 33089m | 5.2m/s | -38.7°C | 0.5% | 0hPa | 2.6V | 00:00:00 | 00:00:00 | 00:00:00 | |
| OM5KV | 2026-09-04 01:08:54 | 45.09910 | 16.41435 | 58° | 13km/h | 33079m | 5.4m/s | -38.8°C | 0.5% | 0hPa | 2.6V | 00:00:00 | 00:00:00 | 00:00:00 | |
| OE5DXL-15 | 2026-09-04 01:08:52 | 45.09905 | 16.41430 | 24° | 11km/h | 33063m | 5.2m/s | -38.8°C | 2.2% | 0hPa | 2.6V | 00:00:00 | 00:00:00 | 00:00:00 | |
| PETON7-10 | 2026-09-04 01:08:51 | 45.09905 | 16.41430 | 24° | 7km/h | 33063m | 5.2m/s | -38.8°C | 2.2% | 0hPa | 2.6V | 00:00:00 | 00:00:00 | 00:00:00 | |
| OE5DRO-10 | 2026-09-04 01:08:48 | 45.09905 | 16.41429 | 126° | 9km/h | 33048m | 4.6m/s | -38.9°C | 2.2% | 0hPa | 2.6V | 00:00:00 | 00:00:00 | 00:00:00 | |
| OM5KV | 2026-09-04 01:08:45 | 45.09906 | 16.41429 | 229° | 2km/h | 33038m | 5.3m/s | -39.0°C | 0.5% | 0hPa | 2.6V | 00:00:00 | 00:00:00 | 00:00:00 | |
| PG1ADW-2 | 2026-09-04 01:08:43 | 45.09910 | 16.41433 | 206° | 13km/h | 33022m | 4.8m/s | -38.9°C | 2.2% | 0hPa | 2.6V | 00:00:00 | 00:00:00 | 00:00:00 | |
| 9A1FER-10 | 2026-09-04 01:08:42 | 45.09912 | 16.41434 | 188° | 13km/h | 33017m | 5.1m/s | -38.9°C | 2.2% | 0hPa | 2.5V | 00:00:00 | 02:08:44 | 00:00:00 | |
| OM5KV | 2026-09-04 01:08:40 | 45.09916 | 16.41434 | 169° | 15km/h | 33012m | 5.4m/s | -39.0°C | 0.5% | 0hPa | 2.5V | 00:00:00 | 00:00:00 | 00:00:00 | |
| OM5KV | 2026-09-04 01:08:39 | 45.09919 | 16.41432 | 148° | 15km/h | 33006m | 5.3m/s | -39.0°C | 0.5% | 0hPa | 2.5V | 00:00:00 | 00:00:00 | 00:00:00 | |
| OM5KV | 2026-09-04 01:08:37 | 45.09924 | 16.41424 | 111° | 15km/h | 32996m | 4.6m/s | -39.1°C | 0.5% | 0hPa | 2.5V | 00:00:00 | 00:00:00 | 00:00:00 | |
| PETON7-10 | 2026-09-04 01:08:36 | 45.09925 | 16.41417 | 85° | 15km/h | 32987m | 5.0m/s | -39.1°C | 2.2% | 0hPa | 2.5V | 00:00:00 | 02:08:38 | 00:00:00 | |
| OM5KV | 2026-09-04 01:08:34 | 45.09925 | 16.41416 | 0° | 0km/h | 32982m | 5.1m/s | -39.2°C | 0.5% | 0hPa | 2.5V | 00:00:00 | 00:00:00 | 00:00:00 | |
| OM5KV | 2026-09-04 01:08:30 | 45.09933 | 16.41421 | 182° | 16km/h | 32961m | 5.6m/s | -39.4°C | 0.5% | 0hPa | 2.5V | 00:00:00 | 00:00:00 | 00:00:00 | |
| OE5DRO-10 | 2026-09-04 01:08:29 | 45.09941 | 16.41418 | 152° | 13km/h | 32949m | 5.5m/s | -39.4°C | 2.2% | 0hPa | 2.5V | 00:00:00 | 00:00:00 | 08:30:00 | |
| 9A1FER-3 | 2026-09-04 01:08:27 | 45.09948 | 16.41410 | 131° | 11km/h | 32939m | 5.1m/s | -39.5°C | 2.2% | 0hPa | 2.6V | 00:00:00 | 02:08:29 | 00:00:00 | |
| OM5KV | 2026-09-04 01:08:25 | 45.09951 | 16.41405 | 129° | 16km/h | 32933m | 5.2m/s | -39.6°C | 0.5% | 0hPa | 2.6V | 00:00:00 | 00:00:00 | 00:00:00 | |
| OM5KV | 2026-09-04 01:08:24 | 45.09953 | 16.41401 | 129° | 15km/h | 32928m | 5.3m/s | -39.7°C | 0.5% | 0hPa | 2.6V | 00:00:00 | 00:00:00 | 00:00:00 | |
| PG1ADW-2 | 2026-09-04 01:08:23 | 45.09957 | 16.41393 | 123° | 11km/h | 32918m | 4.5m/s | -39.7°C | 2.3% | 0hPa | 2.6V | 00:00:00 | 00:00:00 | 00:00:00 | |
| PETON7-10 | 2026-09-04 01:08:20 | 45.09960 | 16.41380 | 89° | 11km/h | 32902m | 5.5m/s | -39.9°C | 2.3% | 0hPa | 2.6V | 00:00:00 | 00:00:00 | 00:00:00 | |
| OM5KV | 2026-09-04 01:08:18 | 45.09959 | 16.41376 | 85° | 13km/h | 32897m | 4.7m/s | -40.0°C | 0.6% | 0hPa | 2.5V | 00:00:00 | 00:00:00 | 00:00:00 | |
| OM5KV | 2026-09-04 01:08:13 | 45.09961 | 16.41364 | 125° | 7km/h | 32871m | 4.9m/s | -40.0°C | 0.6% | 0hPa | 2.5V | 00:00:00 | 00:00:00 | 00:00:00 | |
| 9A1FER-10 | 2026-09-04 01:08:12 | 45.09962 | 16.41357 | 87° | 9km/h | 32859m | 5.6m/s | -39.9°C | 2.3% | 0hPa | 2.5V | 00:00:00 | 02:08:14 | 00:00:00 | |
| OE5DRO-10 | 2026-09-04 01:08:10 | 45.09960 | 16.41347 | 72° | 9km/h | 32849m | 4.8m/s | -39.8°C | 2.3% | 0hPa | 2.6V | 00:00:00 | 00:00:00 | 00:00:00 | |
| PETON7-10 | 2026-09-04 01:08:05 | 45.09951 | 16.41329 | 36° | 9km/h | 32823m | 5.6m/s | -39.6°C | 2.2% | 0hPa | 2.6V | 00:00:00 | 00:00:00 | 00:00:00 | |
| PG1ADW-2 | 2026-09-04 01:08:03 | 45.09946 | 16.41324 | 42° | 7km/h | 32811m | 5.0m/s | -39.6°C | 2.2% | 0hPa | 2.6V | 00:00:00 | 00:00:00 | 00:00:00 | |
| 9A1FER-10 | 2026-09-04 01:07:57 | 45.09942 | 16.41318 | 89° | 9km/h | 32779m | 5.3m/s | -39.8°C | 2.2% | 0hPa | 2.6V | 00:00:00 | 02:07:59 | 00:00:00 | |
| OM5KV | 2026-09-04 01:07:54 | 45.09941 | 16.41313 | 68° | 11km/h | 32768m | 5.2m/s | -39.8°C | 0.5% | 0hPa | 2.6V | 00:00:00 | 00:00:00 | 00:00:00 | |
| LZ4TU-5 | 2026-09-04 01:07:53 | 45.09939 | 16.41309 | 59° | 13km/h | 32763m | 4.6m/s | -39.8°C | 0% | 0hPa | 2.6V | 00:00:00 | 00:00:00 | 00:00:00 | |
| OE5DRO-10 | 2026-09-04 01:07:51 | 45.09932 | 16.41302 | 1° | 7km/h | 32746m | 5.4m/s | -39.9°C | 2.2% | 0hPa | 2.6V | 00:00:00 | 00:00:00 | 00:00:00 | |
| PETON7-10 | 2026-09-04 01:07:50 | 45.09930 | 16.41303 | 340° | 7km/h | 32742m | 4.7m/s | -39.9°C | 2.3% | 0hPa | 2.6V | 00:00:00 | 02:07:52 | 00:00:00 | |
| OM5KV | 2026-09-04 01:07:46 | 45.09923 | 16.41307 | 346° | 9km/h | 32726m | 5.5m/s | -40.2°C | 0.5% | 0hPa | 2.6V | 00:00:00 | 00:00:00 | 00:00:00 | |
| PG1ADW-2 | 2026-09-04 01:07:43 | 45.09919 | 16.41311 | 252° | 7km/h | 32705m | 5.9m/s | -40.3°C | 2.3% | 0hPa | 2.6V | 00:00:00 | 02:07:45 | 00:00:00 | |
| 9A1FER-3 | 2026-09-04 01:07:42 | 45.09920 | 16.41314 | 240° | 7km/h | 32700m | 5.0m/s | -40.3°C | 2.3% | 0hPa | 2.5V | 00:00:00 | 02:07:44 | 00:00:00 | |
| OM5KV | 2026-09-04 01:07:40 | 45.09921 | 16.41316 | 238° | 9km/h | 32695m | 4.5m/s | -40.4°C | 0.6% | 0hPa | 2.5V | 00:00:00 | 00:00:00 | 00:00:00 | |
| PETON7-10 | 2026-09-04 01:07:35 | 45.09919 | 16.41325 | 287° | 9km/h | 32664m | 5.9m/s | -40.5°C | 2.4% | 0hPa | 2.5V | 00:00:00 | 00:00:00 | 00:00:00 | |
| OM5KV | 2026-09-04 01:07:34 | 45.09919 | 16.41325 | 287° | 9km/h | 32664m | 6.0m/s | -40.5°C | 0.5% | 0hPa | 2.6V | 00:00:00 | 00:00:00 | 00:00:00 | |
| OE5DRO-10 | 2026-09-04 01:07:32 | 45.09921 | 16.41338 | 246° | 13km/h | 32649m | 4.5m/s | -40.5°C | 2.3% | 0hPa | 2.6V | 00:00:00 | 00:00:00 | 00:00:00 | |
| 9A1FER-10 | 2026-09-04 01:07:27 | 45.09927 | 16.41342 | 167° | 13km/h | 32623m | 4.9m/s | -40.5°C | 2.4% | 0hPa | 2.5V | 00:00:00 | 02:07:29 | 08:30:00 | |
| PG1ADW-2 | 2026-09-04 01:07:23 | 45.09935 | 16.41350 | 231° | 15km/h | 32602m | 4.7m/s | -40.5°C | 2.4% | 0hPa | 2.6V | 00:00:00 | 00:00:00 | 00:00:00 | |
| OE5DXL-15 | 2026-09-04 01:07:21 | 45.09939 | 16.41356 | 221° | 13km/h | 32591m | 5.9m/s | -40.5°C | 2.4% | 0hPa | 2.6V | 00:00:00 | 00:00:00 | 00:00:00 | |
| PETON7-10 | 2026-09-04 01:07:20 | 45.09941 | 16.41358 | 210° | 15km/h | 32586m | 4.9m/s | -40.4°C | 2.3% | 0hPa | 2.6V | 00:00:00 | 00:00:00 | 00:00:00 | |
| OM5KV | 2026-09-04 01:07:16 | 45.09949 | 16.41363 | 201° | 16km/h | 32570m | 5.4m/s | -40.5°C | 0.6% | 0hPa | 2.6V | 00:00:00 | 00:00:00 | 00:00:00 | |
| OE5DRO-10 | 2026-09-04 01:07:13 | 45.09966 | 16.41369 | 184° | 13km/h | 32550m | 6.0m/s | -40.5°C | 2.4% | 0hPa | 2.6V | 00:00:00 | 00:00:00 | 00:00:00 | |
| 9A1FER-3 | 2026-09-04 01:07:12 | 45.09969 | 16.41369 | 179° | 13km/h | 32544m | 5.2m/s | -40.5°C | 2.4% | 0hPa | 2.6V | 00:00:00 | 02:07:14 | 00:00:00 | |
| OM5KV | 2026-09-04 01:07:11 | 45.09969 | 16.41369 | 179° | 11km/h | 32544m | 5.2m/s | -40.5°C | 0.6% | 0hPa | 2.6V | 00:00:00 | 00:00:00 | 00:00:00 | |
| OM5KV | 2026-09-04 01:07:07 | 45.09980 | 16.41376 | 220° | 18km/h | 32523m | 5.2m/s | -40.6°C | 0.5% | 0hPa | 2.6V | 00:00:00 | 00:00:00 | 00:00:00 | |
| PG1ADW-2 | 2026-09-04 01:07:03 | 45.09999 | 16.41391 | 189° | 11km/h | 32497m | 5.1m/s | -40.7°C | 2.4% | 0hPa | 2.6V | 00:00:00 | 00:00:00 | 00:00:00 | |
| OM5KV | 2026-09-04 01:06:59 | 45.10009 | 16.41392 | 180° | 11km/h | 32481m | 4.3m/s | -40.7°C | 0.6% | 0hPa | 2.6V | 00:00:00 | 00:00:00 | 00:00:00 | |
| 9A1FER-3 | 2026-09-04 01:06:57 | 45.10014 | 16.41389 | 115° | 11km/h | 32465m | 5.6m/s | -40.6°C | 2.4% | 0hPa | 2.6V | 00:00:00 | 02:06:59 | 00:00:00 | |
| OM5KV | 2026-09-04 01:06:54 | 45.10015 | 16.41386 | 143° | 4km/h | 32455m | 4.6m/s | -40.7°C | 0.6% | 0hPa | 2.6V | 00:00:00 | 00:00:00 | 00:00:00 | |
| OE5DRO-10 | 2026-09-04 01:06:53 | 45.10018 | 16.41388 | 214° | 11km/h | 32444m | 5.8m/s | -40.6°C | 2.4% | 0hPa | 2.6V | 00:00:00 | 00:00:00 | 00:00:00 | |
| OE5DXL-15 | 2026-09-04 01:06:51 | 45.10025 | 16.41393 | 206° | 9km/h | 32434m | 4.2m/s | -40.7°C | 2.4% | 0hPa | 2.6V | 00:00:00 | 00:00:00 | 00:00:00 | |
| PETON7-10 | 2026-09-04 01:06:50 | 45.10028 | 16.41395 | 193° | 11km/h | 32430m | 5.5m/s | -40.7°C | 2.4% | 0hPa | 2.5V | 00:00:00 | 00:00:00 | 08:30:00 | |
| OM5KV | 2026-09-04 01:06:47 | 45.10034 | 16.41393 | 136° | 13km/h | 32418m | 5.0m/s | -40.8°C | 0.6% | 0hPa | 2.5V | 00:00:00 | 00:00:00 | 00:00:00 | |
| OM5KV | 2026-09-04 01:06:44 | 45.10039 | 16.41380 | 114° | 15km/h | 32403m | 5.8m/s | -40.8°C | 0.6% | 0hPa | 2.5V | 00:00:00 | 00:00:00 | 00:00:00 | |
| PG1ADW-2 | 2026-09-04 01:06:43 | 45.10042 | 16.41372 | 123° | 9km/h | 32392m | 4.8m/s | -40.8°C | 2.4% | 0hPa | 2.5V | 00:00:00 | 00:00:00 | 08:30:00 | |
| 9A1FER-10 | 2026-09-04 01:06:42 | 45.10043 | 16.41370 | 117° | 9km/h | 32387m | 4.6m/s | -40.8°C | 2.4% | 0hPa | 2.5V | 00:00:00 | 02:06:44 | 00:00:00 | |
| PETON7-10 | 2026-09-04 01:06:35 | 45.10036 | 16.41355 | 87° | 9km/h | 32349m | 5.5m/s | -40.7°C | 2.4% | 0hPa | 2.6V | 00:00:00 | 00:00:00 | 00:00:00 | |
| OE5DRO-10 | 2026-09-04 01:06:34 | 45.10036 | 16.41354 | 116° | 7km/h | 32344m | 4.5m/s | -40.7°C | 2.4% | 0hPa | 2.6V | 00:00:00 | 00:00:00 | 00:00:00 | |
| OM5KV | 2026-09-04 01:06:32 | 45.10036 | 16.41352 | 105° | 7km/h | 32339m | 4.5m/s | -40.8°C | 0.6% | 0hPa | 2.6V | 00:00:00 | 00:00:00 | 00:00:00 | |
| OM5KV | 2026-09-04 01:06:31 | 45.10037 | 16.41349 | 91° | 9km/h | 32334m | 6.1m/s | -40.8°C | 0.6% | 0hPa | 2.6V | 00:00:00 | 00:00:00 | 00:00:00 | |
| 9A1FER-3 | 2026-09-04 01:06:27 | 45.10034 | 16.41327 | 85° | 5km/h | 32306m | 5.1m/s | -40.6°C | 2.4% | 0hPa | 2.6V | 00:00:00 | 02:06:29 | 00:00:00 | |
| OM5KV | 2026-09-04 01:06:26 | 45.10034 | 16.41327 | 85° | 9km/h | 32306m | 5.2m/s | -40.6°C | 0.6% | 0hPa | 2.6V | 00:00:00 | 00:00:00 | 00:00:00 | |
| OM5KV | 2026-09-04 01:06:25 | 45.10034 | 16.41325 | 83° | 5km/h | 32301m | 4.6m/s | -40.6°C | 0.6% | 0hPa | 2.6V | 00:00:00 | 00:00:00 | 00:00:00 | |
| PG1ADW-2 | 2026-09-04 01:06:23 | 45.10031 | 16.41318 | 52° | 4km/h | 32285m | 5.3m/s | -40.4°C | 2.4% | 0hPa | 2.6V | 00:00:00 | 02:06:25 | 00:00:00 | |
| OE5DXL-15 | 2026-09-04 01:06:21 | 45.10029 | 16.41313 | 49° | 4km/h | 32275m | 5.4m/s | -40.4°C | 2.3% | 0hPa | 2.6V | 00:00:00 | 00:00:00 | 00:00:00 | |
| PETON7-10 | 2026-09-04 01:06:20 | 45.10028 | 16.41312 | 47° | 4km/h | 32269m | 5.9m/s | -40.3°C | 2.3% | 0hPa | 2.6V | 00:00:00 | 02:06:22 | 00:00:00 | |
| OM5KV | 2026-09-04 01:06:19 | 45.10028 | 16.41312 | 47° | 4km/h | 32269m | 6.0m/s | -40.4°C | 0.6% | 0hPa | 2.6V | 00:00:00 | 00:00:00 | 00:00:00 | |
| OE5DRO-10 | 2026-09-04 01:06:15 | 45.10025 | 16.41307 | 50° | 4km/h | 32242m | 4.8m/s | -40.3°C | 2.3% | 0hPa | 2.6V | 00:00:00 | 00:00:00 | 00:00:00 | |
| OM5KV | 2026-09-04 01:06:14 | 45.10025 | 16.41307 | 51° | 7km/h | 32242m | 4.9m/s | -40.4°C | 0.5% | 0hPa | 2.6V | 00:00:00 | 00:00:00 | 00:00:00 | |
| OM5KV | 2026-09-04 01:06:13 | 45.10024 | 16.41306 | 48° | 7km/h | 32237m | 4.8m/s | -40.4°C | 0.5% | 0hPa | 2.6V | 00:00:00 | 00:00:00 | 00:00:00 | |
| 9A1FER-3 | 2026-09-04 01:06:12 | 45.10023 | 16.41304 | 348° | 4km/h | 32226m | 5.6m/s | -40.4°C | 2.3% | 0hPa | 2.6V | 00:00:00 | 02:06:14 | 00:00:00 | |
| OM5KV | 2026-09-04 01:06:08 | 45.10022 | 16.41304 | 37° | 2km/h | 32211m | 5.9m/s | -40.5°C | 0.5% | 0hPa | 2.6V | 00:00:00 | 00:00:00 | 00:00:00 | |
| OM5KV | 2026-09-04 01:06:07 | 45.10021 | 16.41303 | 50° | 5km/h | 32205m | 5.2m/s | -40.6°C | 0.5% | 0hPa | 2.6V | 00:00:00 | 00:00:00 | 00:00:00 | |
| PETON7-10 | 2026-09-04 01:06:05 | 45.10019 | 16.41300 | 331° | 5km/h | 32190m | 6.1m/s | -40.7°C | 2.3% | 0hPa | 2.6V | 00:00:00 | 00:00:00 | 00:00:00 | |
| PG1ADW-2 | 2026-09-04 01:06:03 | 45.10019 | 16.41302 | 249° | 4km/h | 32179m | 5.1m/s | -40.9°C | 2.4% | 0hPa | 2.5V | 00:00:00 | 00:00:00 | 00:00:00 | |
| OM5KV | 2026-09-04 01:06:02 | 45.10020 | 16.41302 | 250° | 4km/h | 32179m | 5.1m/s | -40.9°C | 0.6% | 0hPa | 2.5V | 00:00:00 | 00:00:00 | 00:00:00 | |
| OM5KV | 2026-09-04 01:06:01 | 45.10020 | 16.41303 | 260° | 2km/h | 32173m | 5.8m/s | -41.0°C | 0.6% | 0hPa | 2.5V | 00:00:00 | 00:00:00 | 00:00:00 | |
| 9A1FER-10 | 2026-09-04 01:05:57 | 45.10020 | 16.41310 | 268° | 5km/h | 32147m | 5.5m/s | -41.1°C | 2.4% | 0hPa | 2.5V | 00:00:00 | 02:05:59 | 00:00:00 | |
| OM5KV | 2026-09-04 01:05:56 | 45.10020 | 16.41314 | 271° | 11km/h | 32141m | 5.0m/s | -41.2°C | 0.6% | 0hPa | 2.6V | 00:00:00 | 00:00:00 | 00:00:00 | |
| OE5DXL-15 | 2026-09-04 01:05:51 | 45.10015 | 16.41322 | 336° | 11km/h | 32115m | 5.6m/s | -41.3°C | 2.4% | 0hPa | 2.6V | 00:00:00 | 00:00:00 | 00:00:00 | |
| PETON7-10 | 2026-09-04 01:05:50 | 45.10014 | 16.41323 | 310° | 7km/h | 32109m | 5.7m/s | -41.4°C | 2.4% | 0hPa | 2.6V | 00:00:00 | 00:00:00 | 00:00:00 | |
| OM5KV | 2026-09-04 01:05:45 | 45.10014 | 16.41325 | 94° | 2km/h | 32088m | 5.8m/s | -41.4°C | 0.6% | 0hPa | 2.6V | 00:00:00 | 00:00:00 | 00:00:00 | |
| OM5KV | 2026-09-04 01:05:44 | 45.10014 | 16.41325 | 83° | 4km/h | 32083m | 4.7m/s | -41.4°C | 0.6% | 0hPa | 2.6V | 00:00:00 | 00:00:00 | 00:00:00 | |
| PG1ADW-2 | 2026-09-04 01:05:43 | 45.10014 | 16.41324 | 281° | 13km/h | 32073m | 5.7m/s | -41.4°C | 2.4% | 0hPa | 2.6V | 00:00:00 | 00:00:00 | 00:00:00 | |
| 9A1FER-3 | 2026-09-04 01:05:42 | 45.10013 | 16.41326 | 278° | 13km/h | 32067m | 5.6m/s | -41.4°C | 2.4% | 0hPa | 2.6V | 00:00:00 | 02:05:44 | 00:00:00 | |
| OE5DRO-10 | 2026-09-04 01:05:37 | 45.10003 | 16.41342 | 334° | 15km/h | 32040m | 4.7m/s | -41.4°C | 2.4% | 0hPa | 2.6V | 00:00:00 | 00:00:00 | 08:30:00 | |
| PETON7-10 | 2026-09-04 01:05:35 | 45.09995 | 16.41349 | 324° | 15km/h | 32030m | 5.8m/s | -41.5°C | 2.4% | 0hPa | 2.5V | 00:00:00 | 02:05:37 | 00:00:00 | |
| OM5KV | 2026-09-04 01:05:33 | 45.09991 | 16.41353 | 318° | 16km/h | 32024m | 5.0m/s | -41.6°C | 0.6% | 0hPa | 2.5V | 00:00:00 | 00:00:00 | 00:00:00 | |
| OM5KV | 2026-09-04 01:05:30 | 45.09983 | 16.41362 | 339° | 11km/h | 32009m | 6.2m/s | -41.7°C | 0.6% | 0hPa | 2.5V | 00:00:00 | 00:00:00 | 00:00:00 | |
| 9A1FER-10 | 2026-09-04 01:05:27 | 45.09974 | 16.41364 | 326° | 13km/h | 31989m | 5.6m/s | -41.9°C | 2.5% | 0hPa | 2.5V | 00:00:00 | 02:05:29 | 00:00:00 | |
| OM5KV | 2026-09-04 01:05:25 | 45.09972 | 16.41367 | 304° | 15km/h | 31983m | 5.9m/s | -41.9°C | 0.6% | 0hPa | 2.5V | 00:00:00 | 00:00:00 | 00:00:00 | |
| OM5KV | 2026-09-04 01:05:24 | 45.09970 | 16.41373 | 294° | 18km/h | 31978m | 5.2m/s | -42.0°C | 0.6% | 0hPa | 2.5V | 00:00:00 | 00:00:00 | 00:00:00 | |
| PG1ADW-2 | 2026-09-04 01:05:23 | 45.09966 | 16.41386 | 298° | 11km/h | 31968m | 5.5m/s | -42.0°C | 2.5% | 0hPa | 2.5V | 00:00:00 | 00:00:00 | 00:00:00 | |
| OE5DXL-15 | 2026-09-04 01:05:21 | 45.09961 | 16.41396 | 317° | 9km/h | 31956m | 5.2m/s | -42.0°C | 2.6% | 0hPa | 2.5V | 00:00:00 | 00:00:00 | 00:00:00 | |
| PETON7-10 | 2026-09-04 01:05:19 | 45.09956 | 16.41401 | 323° | 9km/h | 31946m | 5.4m/s | -42.1°C | 2.6% | 0hPa | 2.6V | 00:00:00 | 00:00:00 | 00:00:00 | |
| OE5DRO-10 | 2026-09-04 01:05:18 | 45.09954 | 16.41403 | 309° | 7km/h | 31940m | 6.0m/s | -42.1°C | 2.6% | 0hPa | 2.6V | 00:00:00 | 00:00:00 | 00:00:00 | |
| OM5KV | 2026-09-04 01:05:14 | 45.09952 | 16.41411 | 297° | 7km/h | 31925m | 5.2m/s | -42.1°C | 0.6% | 0hPa | 2.6V | 00:00:00 | 00:00:00 | 00:00:00 | |
| OM5KV | 2026-09-04 01:05:13 | 45.09951 | 16.41413 | 318° | 5km/h | 31919m | 6.2m/s | -42.1°C | 0.6% | 0hPa | 2.6V | 00:00:00 | 00:00:00 | 00:00:00 | |
| 9A1FER-3 | 2026-09-04 01:05:12 | 45.09948 | 16.41416 | 328° | 9km/h | 31909m | 4.8m/s | -42.0°C | 2.5% | 0hPa | 2.6V | 00:00:00 | 02:05:14 | 08:30:00 | |
| OM5KV | 2026-09-04 01:05:09 | 45.09944 | 16.41422 | 302° | 15km/h | 31898m | 6.1m/s | -42.0°C | 0.6% | 0hPa | 2.6V | 00:00:00 | 00:00:00 | 00:00:00 | |
| OM5KV | 2026-09-04 01:05:07 | 45.09940 | 16.41432 | 291° | 16km/h | 31887m | 4.5m/s | -42.0°C | 0.6% | 0hPa | 2.6V | 00:00:00 | 00:00:00 | 00:00:00 | |
| PETON7-10 | 2026-09-04 01:05:04 | 45.09936 | 16.41441 | 56° | 9km/h | 31866m | 4.6m/s | -41.9°C | 2.5% | 0hPa | 2.6V | 00:00:00 | 00:00:00 | 00:00:00 | |
| PG1ADW-2 | 2026-09-04 01:05:03 | 45.09936 | 16.41439 | 70° | 9km/h | 31861m | 4.9m/s | -42.0°C | 2.4% | 0hPa | 2.6V | 00:00:00 | 02:05:05 | 00:00:00 | |
| OE5DRO-10 | 2026-09-04 01:04:58 | 45.09932 | 16.41442 | 323° | 11km/h | 31835m | 6.0m/s | -42.1°C | 2.5% | 0hPa | 2.6V | 00:00:00 | 00:00:00 | 00:00:00 | |
| 9A1FER-3 | 2026-09-04 01:04:57 | 45.09930 | 16.41444 | 335° | 11km/h | 31829m | 5.6m/s | -42.2°C | 2.5% | 0hPa | 2.6V | 00:00:00 | 02:04:59 | 00:00:00 | |
| OM5KV | 2026-09-04 01:04:54 | 45.09924 | 16.41448 | 330° | 15km/h | 31818m | 5.4m/s | -42.3°C | 0.6% | 0hPa | 2.6V | 00:00:00 | 00:00:00 | 00:00:00 | |
| OE5DXL-15 | 2026-09-04 01:04:51 | 45.09914 | 16.41460 | 337° | 9km/h | 31797m | 5.7m/s | -42.4°C | 2.5% | 0hPa | 2.6V | 00:00:00 | 00:00:00 | 00:00:00 | |
| PETON7-10 | 2026-09-04 01:04:48 | 45.09908 | 16.41456 | 61° | 9km/h | 31781m | 4.4m/s | -42.6°C | 2.6% | 0hPa | 2.6V | 00:00:00 | 02:04:50 | 00:00:00 | |
| OM5KV | 2026-09-04 01:04:46 | 45.09908 | 16.41454 | 59° | 7km/h | 31776m | 4.8m/s | -42.7°C | 0.6% | 0hPa | 2.6V | 00:00:00 | 00:00:00 | 00:00:00 | |
| PG1ADW-2 | 2026-09-04 01:04:43 | 45.09902 | 16.41456 | 318° | 9km/h | 31756m | 3.9m/s | -42.7°C | 2.6% | 0hPa | 2.6V | 00:00:00 | 00:00:00 | 00:00:00 | |
| 9A1FER-10 | 2026-09-04 01:04:42 | 45.09899 | 16.41459 | 331° | 7km/h | 31751m | 4.8m/s | -42.7°C | 2.6% | 0hPa | 2.6V | 00:00:00 | 02:04:44 | 00:00:00 | |
| OM5KV | 2026-09-04 01:04:40 | 45.09897 | 16.41460 | 356° | 11km/h | 31746m | 5.6m/s | -42.7°C | 0.6% | 0hPa | 2.6V | 00:00:00 | 00:00:00 | 00:00:00 | |
| OE5DRO-10 | 2026-09-04 01:04:39 | 45.09893 | 16.41457 | 61° | 9km/h | 31735m | 5.0m/s | -42.7°C | 2.6% | 0hPa | 2.6V | 00:00:00 | 00:00:00 | 00:00:00 | |
| OM5KV | 2026-09-04 01:04:36 | 45.09893 | 16.41446 | 124° | 9km/h | 31720m | 5.4m/s | -42.8°C | 0.6% | 0hPa | 2.6V | 00:00:00 | 00:00:00 | 00:00:00 | |
| PETON7-10 | 2026-09-04 01:04:33 | 45.09895 | 16.41441 | 80° | 9km/h | 31704m | 5.4m/s | -42.8°C | 2.7% | 0hPa | 2.6V | 00:00:00 | 00:00:00 | 08:30:00 | |
| OM5KV | 2026-09-04 01:04:29 | 45.09892 | 16.41435 | 37° | 7km/h | 31689m | 4.2m/s | -43.0°C | 0.6% | 0hPa | 2.5V | 00:00:00 | 00:00:00 | 00:00:00 | |
| 9A1FER-3 | 2026-09-04 01:04:27 | 45.09889 | 16.41436 | 282° | 13km/h | 31674m | 5.6m/s | -43.0°C | 2.7% | 0hPa | 2.5V | 00:00:00 | 02:04:29 | 00:00:00 | |
| OM5KV | 2026-09-04 01:04:26 | 45.09889 | 16.41436 | 282° | 7km/h | 31674m | 5.6m/s | -43.0°C | 0.6% | 0hPa | 2.5V | 00:00:00 | 00:00:00 | 00:00:00 | |
| PG1ADW-2 | 2026-09-04 01:04:23 | 45.09884 | 16.41448 | 343° | 15km/h | 31653m | 5.1m/s | -43.0°C | 2.7% | 0hPa | 2.5V | 00:00:00 | 00:00:00 | 00:00:00 | |
| OE5DXL-15 | 2026-09-04 01:04:21 | 45.09880 | 16.41446 | 42° | 20km/h | 31643m | 5.6m/s | -42.9°C | 2.7% | 0hPa | 2.5V | 00:00:00 | 00:00:00 | 00:00:00 | |
| OE5DRO-10 | 2026-09-04 01:04:20 | 45.09878 | 16.41443 | 59° | 16km/h | 31637m | 5.9m/s | -42.9°C | 2.7% | 0hPa | 2.5V | 00:00:00 | 00:00:00 | 00:00:00 | |
| PETON7-10 | 2026-09-04 01:04:18 | 45.09876 | 16.41439 | 33° | 16km/h | 31625m | 5.3m/s | -42.9°C | 2.7% | 0hPa | 2.5V | 00:00:00 | 00:00:00 | 00:00:00 | |
| OM5KV | 2026-09-04 01:04:17 | 45.09876 | 16.41439 | 33° | 4km/h | 31625m | 5.3m/s | -43.0°C | 0.6% | 0hPa | 2.5V | 00:00:00 | 00:00:00 | 00:00:00 | |
| 9A1FER-10 | 2026-09-04 01:04:12 | 45.09853 | 16.41458 | 329° | 20km/h | 31592m | 4.7m/s | -42.8°C | 2.7% | 0hPa | 2.5V | 00:00:00 | 02:04:14 | 00:00:00 | |
| OM5KV | 2026-09-04 01:04:11 | 45.09853 | 16.41458 | 329° | 27km/h | 31592m | 4.7m/s | -42.9°C | 0.7% | 0hPa | 2.5V | 00:00:00 | 00:00:00 | 00:00:00 | |
| OM5KV | 2026-09-04 01:04:06 | 45.09837 | 16.41479 | 310° | 11km/h | 31565m | 4.6m/s | 0°C | 0% | 0hPa | 2.5V | 00:00:00 | 00:00:00 | 00:00:00 | |
| LZ4TU-5 | 2026-09-04 01:04:04 | 45.09832 | 16.41484 | 337° | 16km/h | 31554m | 5.7m/s | -42.9°C | 0% | 0hPa | 2.5V | 00:00:00 | 00:00:00 | 00:00:00 | |
| PETON7-10 | 2026-09-04 01:04:03 | 45.09822 | 16.41490 | 337° | 26km/h | 31543m | 5.6m/s | -42.9°C | 2.6% | 0hPa | 2.5V | 00:00:00 | 02:04:05 | 00:00:00 | |
| OE5DRO-10 | 2026-09-04 01:04:01 | 45.09811 | 16.41498 | 330° | 26km/h | 31531m | 5.7m/s | -42.9°C | 2.7% | 0hPa | 2.5V | 00:00:00 | 00:00:00 | 00:00:00 | |
| LZ4TU-5 | 2026-09-04 01:03:59 | 45.09806 | 16.41503 | 328° | 26km/h | 31526m | 5.1m/s | -43.0°C | 0% | 0hPa | 2.5V | 00:00:00 | 00:00:00 | 00:00:00 | |
| 9A1FER-3 | 2026-09-04 01:03:57 | 45.09788 | 16.41518 | 329° | 26km/h | 31509m | 5.7m/s | -42.9°C | 2.7% | 0hPa | 2.5V | 00:00:00 | 02:03:59 | 00:00:00 | |
| OM5KV | 2026-09-04 01:03:55 | 45.09782 | 16.41523 | 328° | 27km/h | 31504m | 4.7m/s | 0°C | 0% | 0hPa | 2.5V | 00:00:00 | 00:00:00 | 00:00:00 | |
| OE5DXL-15 | 2026-09-04 01:03:51 | 45.09765 | 16.41554 | 295° | 20km/h | 31478m | 5.3m/s | -42.8°C | 2.7% | 0hPa | 2.5V | 00:00:00 | 00:00:00 | 08:30:00 | |
| OM5KV | 2026-09-04 01:03:50 | 45.09765 | 16.41554 | 296° | 24km/h | 31478m | 5.3m/s | 0°C | 0% | 0hPa | 2.5V | 00:00:00 | 00:00:00 | 00:00:00 | |
| PETON7-10 | 2026-09-04 01:03:48 | 45.09754 | 16.41581 | 305° | 22km/h | 31461m | 4.7m/s | -42.7°C | 2.7% | 0hPa | 2.5V | 00:00:00 | 00:00:00 | 00:00:00 | |
| OM5KV | 2026-09-04 01:03:44 | 45.09741 | 16.41608 | 300° | 24km/h | 31445m | 6.0m/s | -42.7°C | 0.6% | 0hPa | 2.5V | 00:00:00 | 00:00:00 | 00:00:00 | |
| PG1ADW-2 | 2026-09-04 01:03:43 | 45.09737 | 16.41620 | 293° | 18km/h | 31435m | 4.9m/s | -42.7°C | 2.7% | 0hPa | 2.5V | 00:00:00 | 02:03:45 | 08:30:00 | |
| 9A1FER-3 | 2026-09-04 01:03:42 | 45.09736 | 16.41625 | 298° | 20km/h | 31430m | 4.8m/s | -42.7°C | 2.7% | 0hPa | 2.5V | 00:00:00 | 02:03:44 | 00:00:00 | |
| OM5KV | 2026-09-04 01:03:37 | 45.09723 | 16.41645 | 316° | 24km/h | 31408m | 4.3m/s | 0°C | 0% | 0hPa | 2.5V | 00:00:00 | 00:00:00 | 00:00:00 | |
| PETON7-10 | 2026-09-04 01:03:33 | 45.09715 | 16.41675 | 261° | 18km/h | 31380m | 5.4m/s | -42.6°C | 2.7% | 0hPa | 2.5V | 00:00:00 | 00:00:00 | 00:00:00 | |
| OM5KV | 2026-09-04 01:03:32 | 45.09715 | 16.41675 | 262° | 20km/h | 31380m | 5.4m/s | 0°C | 0% | 0hPa | 2.5V | 00:00:00 | 00:00:00 | 00:00:00 | |
| OM5KV | 2026-09-04 01:03:28 | 45.09716 | 16.41709 | 274° | 24km/h | 31358m | 4.8m/s | -42.5°C | 0% | 0hPa | 2.5V | 00:00:00 | 00:00:00 | 00:00:00 | |
| 9A1FER-10 | 2026-09-04 01:03:27 | 45.09716 | 16.41722 | 272° | 18km/h | 31347m | 6.3m/s | -42.4°C | 2.6% | 0hPa | 2.5V | 00:00:00 | 02:03:29 | 00:00:00 | |
| PG1ADW-2 | 2026-09-04 01:03:23 | 45.09713 | 16.41736 | 300° | 16km/h | 31324m | 6.1m/s | -42.4°C | 2.6% | 0hPa | 2.5V | 00:00:00 | 00:00:00 | 00:00:00 | |
| OE5DXL-15 | 2026-09-04 01:03:21 | 45.09710 | 16.41747 | 285° | 16km/h | 31314m | 4.9m/s | -42.4°C | 2.6% | 0hPa | 2.5V | 00:00:00 | 00:00:00 | 00:00:00 | |
| OM5KV | 2026-09-04 01:03:20 | 45.09710 | 16.41747 | 285° | 18km/h | 31314m | 5.0m/s | 0°C | 0% | 0hPa | 2.5V | 00:00:00 | 00:00:00 | 00:00:00 | |
| PETON7-10 | 2026-09-04 01:03:18 | 45.09710 | 16.41770 | 257° | 16km/h | 31296m | 5.3m/s | -42.4°C | 2.6% | 0hPa | 2.5V | 00:00:00 | 02:03:20 | 00:00:00 | |
| OM5KV | 2026-09-04 01:03:17 | 45.09710 | 16.41770 | 258° | 26km/h | 31296m | 5.4m/s | 0°C | 0% | 0hPa | 2.5V | 00:00:00 | 00:00:00 | 00:00:00 | |
| OM5KV | 2026-09-04 01:03:16 | 45.09712 | 16.41779 | 260° | 27km/h | 31291m | 6.0m/s | 0°C | 0% | 0hPa | 2.5V | 00:00:00 | 00:00:00 | 00:00:00 | |
| 9A1FER-3 | 2026-09-04 01:03:12 | 45.09711 | 16.41819 | 295° | 16km/h | 31264m | 6.3m/s | -42.7°C | 2.7% | 0hPa | 2.5V | 00:00:00 | 02:03:14 | 00:00:00 | |
| OM5KV | 2026-09-04 01:03:09 | 45.09708 | 16.41823 | 354° | 7km/h | 31253m | 4.8m/s | 0°C | 0% | 0hPa | 2.5V | 00:00:00 | 00:00:00 | 00:00:00 | |
| OM5KV | 2026-09-04 01:03:07 | 45.09704 | 16.41825 | 328° | 11km/h | 31242m | 5.9m/s | 0°C | 0% | 0hPa | 2.5V | 00:00:00 | 00:00:00 | 00:00:00 | |
| OE5DRO-10 | 2026-09-04 01:03:04 | 45.09701 | 16.41843 | 248° | 18km/h | 31220m | 6.3m/s | -42.6°C | 2.6% | 0hPa | 2.5V | 00:00:00 | 00:00:00 | 00:00:00 | |
| OM5KV | 2026-09-04 01:03:03 | 45.09704 | 16.41849 | 233° | 20km/h | 31214m | 5.4m/s | 0°C | 0% | 0hPa | 2.5V | 00:00:00 | 00:00:00 | 00:00:00 | |
| OM5KV | 2026-09-04 01:03:01 | 45.09708 | 16.41855 | 225° | 24km/h | 31209m | 4.9m/s | 0°C | 0% | 0hPa | 2.5V | 00:00:00 | 00:00:00 | 00:00:00 | |
| OM5KV | 2026-09-04 01:02:58 | 45.09719 | 16.41873 | 237° | 20km/h | 31192m | 5.6m/s | 0°C | 0% | 0hPa | 2.5V | 00:00:00 | 00:00:00 | 00:00:00 | |
| 9A1FER-3 | 2026-09-04 01:02:57 | 45.09723 | 16.41883 | 245° | 16km/h | 31182m | 5.9m/s | -42.5°C | 2.6% | 0hPa | 2.5V | 00:00:00 | 02:02:59 | 08:30:00 | |
| OM5KV | 2026-09-04 01:02:55 | 45.09725 | 16.41887 | 246° | 9km/h | 31176m | 6.3m/s | 0°C | 0% | 0hPa | 2.5V | 00:00:00 | 00:00:00 | 00:00:00 | |
| OM5KV | 2026-09-04 01:02:52 | 45.09724 | 16.41895 | 296° | 11km/h | 31159m | 6.3m/s | 0°C | 0% | 0hPa | 2.5V | 00:00:00 | 00:00:00 | 00:00:00 | |
| OE5DXL-15 | 2026-09-04 01:02:51 | 45.09722 | 16.41905 | 281° | 15km/h | 31148m | 4.5m/s | -42.5°C | 2.6% | 0hPa | 2.5V | 00:00:00 | 00:00:00 | 00:00:00 | |
| PETON7-10 | 2026-09-04 01:02:48 | 45.09726 | 16.41924 | 233° | 16km/h | 31131m | 5.7m/s | -42.5°C | 2.6% | 0hPa | 2.5V | 00:00:00 | 00:00:00 | 00:00:00 | |
| OE5DRO-10 | 2026-09-04 01:02:45 | 45.09738 | 16.41943 | 229° | 15km/h | 31113m | 5.3m/s | -42.5°C | 2.6% | 0hPa | 2.5V | 00:00:00 | 00:00:00 | 08:30:00 | |
| PG1ADW-2 | 2026-09-04 01:02:43 | 45.09745 | 16.41953 | 226° | 13km/h | 31103m | 5.1m/s | -42.5°C | 2.6% | 0hPa | 2.6V | 00:00:00 | 00:00:00 | 00:00:00 | |
| 9A1FER-10 | 2026-09-04 01:02:42 | 45.09747 | 16.41957 | 218° | 15km/h | 31097m | 6.6m/s | -42.5°C | 2.6% | 0hPa | 2.5V | 00:00:00 | 02:02:44 | 00:00:00 | |
| PETON7-10 | 2026-09-04 01:02:33 | 45.09756 | 16.41991 | 222° | 11km/h | 31047m | 5.5m/s | -42.5°C | 2.6% | 0hPa | 2.5V | 00:00:00 | 02:02:35 | 00:00:00 | |
| 9A1FER-3 | 2026-09-04 01:02:27 | 45.09776 | 16.42008 | 182° | 9km/h | 31013m | 6.4m/s | -42.6°C | 2.6% | 0hPa | 2.5V | 00:00:00 | 02:02:29 | 00:00:00 | |
| OE5DRO-10 | 2026-09-04 01:02:26 | 45.09778 | 16.42008 | 164° | 9km/h | 31007m | 5.4m/s | -42.6°C | 2.6% | 0hPa | 2.5V | 00:00:00 | 00:00:00 | 00:00:00 | |
| PG1ADW-2 | 2026-09-04 01:02:23 | 45.09782 | 16.42007 | 237° | 9km/h | 30991m | 5.3m/s | -42.6°C | 2.6% | 0hPa | 2.5V | 00:00:00 | 02:02:25 | 00:00:00 | |
| OE5DXL-15 | 2026-09-04 01:02:21 | 45.09783 | 16.42010 | 216° | 13km/h | 30980m | 5.4m/s | -42.7°C | 2.6% | 0hPa | 2.5V | 00:00:00 | 00:00:00 | 00:00:00 | |
| PETON7-10 | 2026-09-04 01:02:18 | 45.09792 | 16.42015 | 196° | 9km/h | 30963m | 5.3m/s | -42.7°C | 2.6% | 0hPa | 2.6V | 00:00:00 | 00:00:00 | 08:30:00 | |
| LZ4TU-5 | 2026-09-04 01:02:17 | 45.09792 | 16.42015 | 196° | 16km/h | 30963m | 5.3m/s | -42.8°C | 0% | 0hPa | 2.6V | 00:00:00 | 00:00:00 | 00:00:00 | |
| LZ4TU-5 | 2026-09-04 01:02:13 | 45.09805 | 16.42023 | 207° | 11km/h | 30942m | 4.6m/s | -42.8°C | 0% | 0hPa | 2.6V | 00:00:00 | 00:00:00 | 00:00:00 | |
| 9A1FER-3 | 2026-09-04 01:02:12 | 45.09810 | 16.42024 | 165° | 9km/h | 30931m | 5.8m/s | -42.8°C | 2.6% | 0hPa | 2.6V | 00:00:00 | 02:02:14 | 00:00:00 | |
| OE5DRO-10 | 2026-09-04 01:02:07 | 45.09817 | 16.42018 | 170° | 13km/h | 30904m | 4.3m/s | -43.1°C | 2.7% | 0hPa | 2.5V | 00:00:00 | 00:00:00 | 00:00:00 | |
| PETON7-10 | 2026-09-04 01:02:03 | 45.09827 | 16.42016 | 172° | 15km/h | 30882m | 5.2m/s | -43.3°C | 2.7% | 0hPa | 2.5V | 00:00:00 | 00:00:00 | 00:00:00 | |
| 9A1FER-10 | 2026-09-04 01:01:57 | 45.09841 | 16.42000 | 107° | 11km/h | 30849m | 6.1m/s | -43.2°C | 2.7% | 0hPa | 2.5V | 00:00:00 | 02:01:59 | 00:00:00 | |
| OE5DXL-15 | 2026-09-04 01:01:51 | 45.09840 | 16.41958 | 68° | 11km/h | 30816m | 5.1m/s | -43.1°C | 2.7% | 0hPa | 2.5V | 00:00:00 | 00:00:00 | 00:00:00 | |
| PETON7-10 | 2026-09-04 01:01:48 | 45.09841 | 16.41952 | 161° | 9km/h | 30799m | 4.8m/s | -43.1°C | 2.7% | 0hPa | 2.5V | 00:00:00 | 02:01:50 | 00:00:00 | |
| PG1ADW-2 | 2026-09-04 01:01:43 | 45.09841 | 16.41948 | 76° | 13km/h | 30772m | 6.1m/s | -43.1°C | 2.7% | 0hPa | 2.5V | 00:00:00 | 00:00:00 | 00:00:00 | |
| 9A1FER-3 | 2026-09-04 01:01:42 | 45.09840 | 16.41943 | 82° | 11km/h | 30766m | 5.9m/s | -43.2°C | 2.7% | 0hPa | 2.6V | 00:00:00 | 02:01:44 | 00:00:00 | |
| PETON7-10 | 2026-09-04 01:01:33 | 45.09830 | 16.41908 | 200° | 11km/h | 30718m | 4.7m/s | -43.2°C | 2.7% | 0hPa | 2.6V | 00:00:00 | 00:00:00 | 00:00:00 | |
| OE5DRO-10 | 2026-09-04 01:01:29 | 45.09823 | 16.41909 | 7° | 16km/h | 30696m | 4.9m/s | -43.3°C | 2.7% | 0hPa | 2.6V | 00:00:00 | 00:00:00 | 00:00:00 | |
| 9A1FER-10 | 2026-09-04 01:01:27 | 45.09815 | 16.41905 | 30° | 15km/h | 30685m | 6.4m/s | -43.4°C | 2.7% | 0hPa | 2.6V | 00:00:00 | 02:01:29 | 00:00:00 | |
| PG1ADW-2 | 2026-09-04 01:01:23 | 45.09803 | 16.41890 | 35° | 13km/h | 30663m | 6.1m/s | -43.4°C | 2.8% | 0hPa | 2.5V | 00:00:00 | 00:00:00 | 00:00:00 | |
| OE5DXL-15 | 2026-09-04 01:01:21 | 45.09798 | 16.41889 | 340° | 16km/h | 30652m | 4.9m/s | -43.4°C | 2.8% | 0hPa | 2.5V | 00:00:00 | 00:00:00 | 00:00:00 | |
| PETON7-10 | 2026-09-04 01:01:18 | 45.09792 | 16.41894 | 337° | 15km/h | 30635m | 4.8m/s | -43.4°C | 2.8% | 0hPa | 2.5V | 00:00:00 | 00:00:00 | 00:00:00 | |
| 9A1FER-3 | 2026-09-04 01:01:12 | 45.09765 | 16.41904 | 355° | 18km/h | 30603m | 6.0m/s | -43.4°C | 2.8% | 0hPa | 2.5V | 00:00:00 | 02:01:14 | 00:00:00 | |
| PETON7-10 | 2026-09-04 01:01:03 | 45.09737 | 16.41922 | 332° | 18km/h | 30553m | 4.8m/s | -43.0°C | 2.7% | 0hPa | 2.5V | 00:00:00 | 02:01:05 | 00:00:00 | |
| 9A1FER-3 | 2026-09-04 01:00:57 | 45.09705 | 16.41945 | 331° | 18km/h | 30520m | 6.1m/s | -42.8°C | 2.7% | 0hPa | 2.5V | 00:00:00 | 02:00:59 | 00:00:00 | |
| OE5DXL-15 | 2026-09-04 01:00:51 | 45.09687 | 16.41973 | 307° | 18km/h | 30487m | 4.5m/s | -42.6°C | 2.7% | 0hPa | 2.5V | 00:00:00 | 00:00:00 | 00:00:00 | |
| PETON7-10 | 2026-09-04 01:00:48 | 45.09680 | 16.41982 | 334° | 18km/h | 30470m | 4.9m/s | -42.5°C | 2.7% | 0hPa | 2.6V | 00:00:00 | 00:00:00 | 00:00:00 | |
| LZ4TU-5 | 2026-09-04 01:00:44 | 45.09668 | 16.41992 | 325° | 24km/h | 30453m | 5.5m/s | -42.4°C | 0% | 0hPa | 2.5V | 00:00:00 | 00:00:00 | 00:00:00 | |
| PG1ADW-2 | 2026-09-04 01:00:43 | 45.09658 | 16.42004 | 315° | 18km/h | 30442m | 5.5m/s | -42.3°C | 2.7% | 0hPa | 2.5V | 00:00:00 | 00:00:00 | 08:30:00 | |
| 9A1FER-10 | 2026-09-04 01:00:42 | 45.09654 | 16.42010 | 310° | 18km/h | 30436m | 6.1m/s | -42.3°C | 2.6% | 0hPa | 2.5V | 00:00:00 | 02:00:44 | 08:30:00 | |
| PETON7-10 | 2026-09-04 01:00:33 | 45.09637 | 16.42061 | 297° | 18km/h | 30386m | 4.8m/s | -42.1°C | 2.6% | 0hPa | 2.5V | 00:00:00 | 00:00:00 | 00:00:00 | |
| OE5DRO-10 | 2026-09-04 01:00:32 | 45.09635 | 16.42065 | 301° | 20km/h | 30380m | 6.1m/s | -42.0°C | 2.6% | 0hPa | 2.5V | 00:00:00 | 00:00:00 | 00:00:00 | |
| 9A1FER-3 | 2026-09-04 01:00:27 | 45.09621 | 16.42095 | 301° | 20km/h | 30352m | 5.4m/s | -42.0°C | 2.6% | 0hPa | 2.5V | 00:00:00 | 02:00:29 | 00:00:00 | |
| PG1ADW-2 | 2026-09-04 01:00:23 | 45.09615 | 16.42124 | 278° | 18km/h | 30330m | 4.7m/s | -42.1°C | 2.5% | 0hPa | 2.5V | 00:00:00 | 00:00:00 | 00:00:00 | |
| OE5DXL-15 | 2026-09-04 01:00:21 | 45.09615 | 16.42140 | 259° | 18km/h | 30320m | 6.1m/s | -42.2°C | 2.6% | 0hPa | 2.5V | 00:00:00 | 00:00:00 | 00:00:00 | |
| PETON7-10 | 2026-09-04 01:00:18 | 45.09618 | 16.42155 | 262° | 18km/h | 30304m | 4.9m/s | -42.2°C | 2.6% | 0hPa | 2.5V | 00:00:00 | 02:00:20 | 00:00:00 | |
| OE5DRO-10 | 2026-09-04 01:00:13 | 45.09612 | 16.42189 | 279° | 18km/h | 30277m | 5.0m/s | -42.3°C | 2.6% | 0hPa | 2.5V | 00:00:00 | 00:00:00 | 00:00:00 | |
| 9A1FER-10 | 2026-09-04 01:00:12 | 45.09612 | 16.42198 | 272° | 18km/h | 30272m | 5.7m/s | -42.3°C | 2.6% | 0hPa | 2.5V | 00:00:00 | 02:00:14 | 00:00:00 | |
| 9A1FER-10 | 2026-09-04 00:59:57 | 45.09641 | 16.42280 | 267° | 15km/h | 30184m | 6.4m/s | -42.3°C | 2.5% | 0hPa | 2.5V | 00:00:00 | 01:59:59 | 00:00:00 | |
| OE5DRO-10 | 2026-09-04 00:59:54 | 45.09642 | 16.42295 | 257° | 15km/h | 30167m | 6.2m/s | -42.3°C | 2.6% | 0hPa | 2.6V | 00:00:00 | 00:00:00 | 08:30:00 | |
| OE5DXL-15 | 2026-09-04 00:59:51 | 45.09648 | 16.42311 | 230° | 13km/h | 30150m | 5.4m/s | -42.4°C | 2.6% | 0hPa | 2.6V | 00:00:00 | 00:00:00 | 00:00:00 | |
| PETON7-10 | 2026-09-04 00:59:48 | 45.09658 | 16.42320 | 205° | 15km/h | 30133m | 4.4m/s | -42.6°C | 2.6% | 0hPa | 2.6V | 00:00:00 | 00:00:00 | 00:00:00 | |
| PG1ADW-2 | 2026-09-04 00:59:43 | 45.09666 | 16.42342 | 273° | 11km/h | 30104m | 6.6m/s | -42.8°C | 2.6% | 0hPa | 2.6V | 00:00:00 | 01:59:45 | 00:00:00 | |
| 9A1FER-3 | 2026-09-04 00:59:42 | 45.09665 | 16.42347 | 280° | 11km/h | 30097m | 6.1m/s | -42.8°C | 2.6% | 0hPa | 2.6V | 00:00:00 | 01:59:44 | 00:00:00 | |
| OE5DRO-10 | 2026-09-04 00:59:35 | 45.09672 | 16.42371 | 184° | 13km/h | 30057m | 5.7m/s | -43.0°C | 2.7% | 0hPa | 2.6V | 00:00:00 | 00:00:00 | 00:00:00 | |
| PETON7-10 | 2026-09-04 00:59:33 | 45.09680 | 16.42371 | 180° | 13km/h | 30046m | 5.4m/s | -43.0°C | 2.7% | 0hPa | 2.6V | 00:00:00 | 01:59:35 | 00:00:00 | |
| 9A1FER-10 | 2026-09-04 00:59:27 | 45.09686 | 16.42375 | 22° | 13km/h | 30012m | 4.9m/s | -43.0°C | 2.7% | 0hPa | 2.6V | 00:00:00 | 01:59:29 | 00:00:00 | |
| PG1ADW-2 | 2026-09-04 00:59:23 | 45.09691 | 16.42381 | 213° | 13km/h | 29990m | 5.0m/s | -43.0°C | 2.7% | 0hPa | 2.6V | 00:00:00 | 00:00:00 | 00:00:00 | |
| OE5DXL-15 | 2026-09-04 00:59:21 | 45.09700 | 16.42386 | 193° | 11km/h | 29979m | 6.9m/s | -43.1°C | 2.7% | 0hPa | 2.6V | 00:00:00 | 01:59:23 | 08:30:00 | |
| PETON7-10 | 2026-09-04 00:59:18 | 45.09717 | 16.42386 | 172° | 11km/h | 29962m | 5.0m/s | -43.1°C | 2.7% | 0hPa | 2.5V | 00:00:00 | 00:00:00 | 00:00:00 | |
| OE5DRO-10 | 2026-09-04 00:59:16 | 45.09725 | 16.42385 | 181° | 9km/h | 29950m | 5.0m/s | -43.1°C | 2.7% | 0hPa | 2.5V | 00:00:00 | 00:00:00 | 00:00:00 | |
| 9A1FER-10 | 2026-09-04 00:59:13 | 45.09726 | 16.42381 | 67° | 9km/h | 29927m | 5.1m/s | -43.0°C | 2.7% | 0hPa | 2.5V | 00:00:00 | 01:59:14 | 00:00:00 | |
| 9A1FER-3 | 2026-09-04 00:59:12 | 45.09726 | 16.42381 | 67° | 9km/h | 29927m | 5.1m/s | -43.0°C | 2.7% | 0hPa | 2.5V | 00:00:00 | 01:59:14 | 00:00:00 | |
| PETON7-10 | 2026-09-04 00:59:03 | 45.09751 | 16.42371 | 150° | 9km/h | 29877m | 5.8m/s | -42.8°C | 2.6% | 0hPa | 2.5V | 00:00:00 | 00:00:00 | 00:00:00 | |
| 9A1FER-3 | 2026-09-04 00:58:57 | 45.09758 | 16.42369 | 149° | 11km/h | 29844m | 5.0m/s | -42.7°C | 2.6% | 0hPa | 2.5V | 00:00:00 | 01:58:59 | 00:00:00 | |
| OE5DXL-15 | 2026-09-04 00:58:51 | 45.09776 | 16.42372 | 208° | 15km/h | 29811m | 5.4m/s | -42.8°C | 2.6% | 0hPa | 2.5V | 00:00:00 | 00:00:00 | 00:00:00 | |
| PETON7-10 | 2026-09-04 00:58:48 | 45.09782 | 16.42374 | 184° | 15km/h | 29795m | 4.8m/s | -42.8°C | 2.6% | 0hPa | 2.5V | 00:00:00 | 01:58:50 | 00:00:00 | |
| LZ4TU-5 | 2026-09-04 00:58:47 | 45.09782 | 16.42374 | 184° | 7km/h | 29795m | 4.8m/s | -42.9°C | 0% | 0hPa | 2.5V | 00:00:00 | 00:00:00 | 00:00:00 | |
| PG1ADW-2 | 2026-09-04 00:58:43 | 45.09792 | 16.42386 | 238° | 16km/h | 29767m | 5.0m/s | -43.2°C | 2.6% | 0hPa | 2.5V | 00:00:00 | 00:00:00 | 00:00:00 | |
| 9A1FER-10 | 2026-09-04 00:58:42 | 45.09793 | 16.42389 | 218° | 16km/h | 29762m | 5.1m/s | -43.3°C | 2.7% | 0hPa | 2.6V | 00:00:00 | 01:58:44 | 00:00:00 | |
| OE5DRO-10 | 2026-09-04 00:58:38 | 45.09810 | 16.42390 | 179° | 16km/h | 29739m | 5.5m/s | -43.5°C | 2.7% | 0hPa | 2.6V | 00:00:00 | 00:00:00 | 00:00:00 | |
| PETON7-10 | 2026-09-04 00:58:33 | 45.09836 | 16.42393 | 199° | 16km/h | 29711m | 5.9m/s | -43.5°C | 2.7% | 0hPa | 2.6V | 00:00:00 | 00:00:00 | 00:00:00 | |
| 9A1FER-3 | 2026-09-04 00:58:27 | 45.09855 | 16.42394 | 139° | 15km/h | 29677m | 5.5m/s | -43.5°C | 2.7% | 0hPa | 2.5V | 00:00:00 | 01:58:29 | 08:30:00 | |
| PG1ADW-2 | 2026-09-04 00:58:23 | 45.09868 | 16.42384 | 162° | 11km/h | 29654m | 5.4m/s | -43.7°C | 2.7% | 0hPa | 2.6V | 00:00:00 | 01:58:25 | 00:00:00 | |
| OE5DXL-15 | 2026-09-04 00:58:21 | 45.09877 | 16.42379 | 159° | 11km/h | 29641m | 5.5m/s | -43.8°C | 2.7% | 0hPa | 2.6V | 00:00:00 | 00:00:00 | 00:00:00 | |
| OE5DRO-10 | 2026-09-04 00:58:19 | 45.09886 | 16.42376 | 172° | 11km/h | 29630m | 6.4m/s | -43.9°C | 2.8% | 0hPa | 2.6V | 00:00:00 | 00:00:00 | 00:00:00 | |
| PETON7-10 | 2026-09-04 00:58:18 | 45.09890 | 16.42375 | 181° | 11km/h | 29624m | 5.7m/s | -44.0°C | 2.8% | 0hPa | 2.6V | 00:00:00 | 00:00:00 | 00:00:00 | |
| 9A1FER-10 | 2026-09-04 00:58:12 | 45.09901 | 16.42370 | 107° | 11km/h | 29590m | 6.3m/s | -44.2°C | 2.8% | 0hPa | 2.6V | 00:00:00 | 01:58:14 | 00:00:00 | |
| PG1ADW-2 | 2026-09-04 00:58:03 | 45.09919 | 16.42351 | 163° | 11km/h | 29539m | 4.7m/s | -44.2°C | 2.9% | 0hPa | 2.6V | 00:00:00 | 00:00:00 | 00:00:00 | |
| OE5DRO-10 | 2026-09-04 00:57:59 | 45.09932 | 16.42339 | 104° | 9km/h | 29517m | 5.3m/s | -44.4°C | 2.9% | 0hPa | 2.6V | 00:00:00 | 00:00:00 | 00:00:00 | |
| 9A1FER-3 | 2026-09-04 00:57:57 | 45.09932 | 16.42334 | 93° | 9km/h | 29505m | 6.4m/s | -44.5°C | 2.9% | 0hPa | 2.5V | 00:00:00 | 01:57:59 | 00:00:00 | |
| OE5DXL-15 | 2026-09-04 00:57:51 | 45.09935 | 16.42327 | 167° | 20km/h | 29471m | 6.6m/s | -44.1°C | 2.8% | 0hPa | 2.5V | 00:00:00 | 00:00:00 | 00:00:00 | |
| PETON7-10 | 2026-09-04 00:57:48 | 45.09948 | 16.42326 | 180° | 16km/h | 29453m | 5.0m/s | -44.2°C | 2.8% | 0hPa | 2.6V | 00:00:00 | 00:00:00 | 08:30:00 | |
| PG1ADW-2 | 2026-09-04 00:57:43 | 45.09959 | 16.42318 | 120° | 22km/h | 29425m | 5.4m/s | -44.1°C | 2.8% | 0hPa | 2.6V | 00:00:00 | 00:00:00 | 08:30:00 | |
| 9A1FER-3 | 2026-09-04 00:57:42 | 45.09961 | 16.42315 | 140° | 20km/h | 29420m | 5.7m/s | -44.1°C | 2.8% | 0hPa | 2.6V | 00:00:00 | 01:57:44 | 00:00:00 | |
| OE5DRO-10 | 2026-09-04 00:57:40 | 45.09968 | 16.42309 | 149° | 24km/h | 29410m | 5.0m/s | -44.1°C | 2.8% | 0hPa | 2.5V | 00:00:00 | 00:00:00 | 00:00:00 | |
| PETON7-10 | 2026-09-04 00:57:32 | 45.10004 | 16.42282 | 154° | 26km/h | 29362m | 6.1m/s | -44.2°C | 2.9% | 0hPa | 2.5V | 00:00:00 | 00:00:00 | 00:00:00 | |
| 9A1FER-10 | 2026-09-04 00:57:27 | 45.10028 | 16.42262 | 145° | 29km/h | 29334m | 5.0m/s | -44.3°C | 2.9% | 0hPa | 2.5V | 00:00:00 | 01:57:29 | 00:00:00 | |
| PG1ADW-2 | 2026-09-04 00:57:23 | 45.10050 | 16.42232 | 135° | 26km/h | 29310m | 5.9m/s | -44.3°C | 2.9% | 0hPa | 2.5V | 00:00:00 | 00:00:00 | 00:00:00 | |
| OE5DXL-15 | 2026-09-04 00:57:21 | 45.10060 | 16.42219 | 142° | 24km/h | 29298m | 5.1m/s | -44.4°C | 2.9% | 0hPa | 2.5V | 00:00:00 | 00:00:00 | 00:00:00 | |
| LZ4TU-5 | 2026-09-04 00:57:20 | 45.10064 | 16.42214 | 144° | 24km/h | 29293m | 4.8m/s | 0°C | 0% | 0hPa | 2.5V | 00:00:00 | 00:00:00 | 00:00:00 | |
| PETON7-10 | 2026-09-04 00:57:17 | 45.10081 | 16.42196 | 144° | 26km/h | 29276m | 5.4m/s | -44.3°C | 2.9% | 0hPa | 2.5V | 00:00:00 | 01:57:19 | 00:00:00 | |
| 9A1FER-3 | 2026-09-04 00:57:12 | 45.10119 | 16.42167 | 148° | 22km/h | 29247m | 6.5m/s | -44.2°C | 2.8% | 0hPa | 2.5V | 00:00:00 | 01:57:14 | 00:00:00 | |
| PG1ADW-2 | 2026-09-04 00:57:03 | 45.10147 | 16.42117 | 137° | 20km/h | 29195m | 6.2m/s | -44.1°C | 2.8% | 0hPa | 2.5V | 00:00:00 | 01:57:05 | 00:00:00 | |
| PETON7-10 | 2026-09-04 00:57:02 | 45.10152 | 16.42113 | 151° | 20km/h | 29189m | 6.3m/s | -44.1°C | 2.8% | 0hPa | 2.5V | 00:00:00 | 00:00:00 | 00:00:00 | |
| OE5DXL-15 | 2026-09-04 00:56:51 | 45.10196 | 16.42063 | 104° | 13km/h | 29127m | 5.9m/s | -44.1°C | 2.8% | 0hPa | 2.6V | 00:00:00 | 00:00:00 | 00:00:00 | |
| PETON7-10 | 2026-09-04 00:56:47 | 45.10204 | 16.42045 | 149° | 13km/h | 29105m | 5.5m/s | -44.1°C | 2.8% | 0hPa | 2.6V | 00:00:00 | 00:00:00 | 00:00:00 | |
| PG1ADW-2 | 2026-09-04 00:56:43 | 45.10223 | 16.42028 | 130° | 11km/h | 29083m | 5.2m/s | -44.3°C | 2.8% | 0hPa | 2.6V | 00:00:00 | 00:00:00 | 00:00:00 | |
| 9A1FER-10 | 2026-09-04 00:56:42 | 45.10225 | 16.42023 | 115° | 11km/h | 29078m | 4.5m/s | -44.4°C | 2.8% | 0hPa | 2.5V | 00:00:00 | 01:56:44 | 00:00:00 | |
| PETON7-10 | 2026-09-04 00:56:32 | 45.10228 | 16.41997 | 148° | 15km/h | 29021m | 4.5m/s | -44.7°C | 2.9% | 0hPa | 2.5V | 00:00:00 | 01:56:34 | 00:00:00 | |
| 9A1FER-10 | 2026-09-04 00:56:27 | 45.10234 | 16.41974 | 72° | 20km/h | 28994m | 6.1m/s | -44.9°C | 2.9% | 0hPa | 2.5V | 00:00:00 | 01:56:29 | 00:00:00 | |
| OE5DRO-10 | 2026-09-04 00:56:24 | 45.10229 | 16.41965 | 54° | 24km/h | 28978m | 4.2m/s | -45.1°C | 2.9% | 0hPa | 2.5V | 00:00:00 | 00:00:00 | 00:00:00 | |
| PG1ADW-2 | 2026-09-04 00:56:23 | 45.10228 | 16.41962 | 69° | 24km/h | 28973m | 5.5m/s | -45.1°C | 3.0% | 0hPa | 2.5V | 00:00:00 | 00:00:00 | 00:00:00 | |
| OE5DXL-15 | 2026-09-04 00:56:21 | 45.10228 | 16.41951 | 99° | 26km/h | 28961m | 5.7m/s | -45.2°C | 3.0% | 0hPa | 2.5V | 00:00:00 | 00:00:00 | 00:00:00 | |
| PETON7-10 | 2026-09-04 00:56:17 | 45.10238 | 16.41917 | 126° | 27km/h | 28938m | 5.6m/s | -45.2°C | 3.0% | 0hPa | 2.6V | 00:00:00 | 00:00:00 | 00:00:00 | |
| 9A1FER-3 | 2026-09-04 00:56:12 | 45.10254 | 16.41873 | 102° | 26km/h | 28912m | 4.8m/s | -45.1°C | 3.0% | 0hPa | 2.6V | 00:00:00 | 01:56:14 | 08:30:00 | |
| OE5DRO-10 | 2026-09-04 00:56:05 | 45.10254 | 16.41805 | 94° | 22km/h | 28873m | 4.9m/s | -45.0°C | 3.0% | 0hPa | 2.6V | 00:00:00 | 00:00:00 | 00:00:00 | |
| PG1ADW-2 | 2026-09-04 00:56:03 | 45.10255 | 16.41787 | 98° | 20km/h | 28861m | 5.4m/s | -45.0°C | 2.9% | 0hPa | 2.5V | 00:00:00 | 00:00:00 | 00:00:00 | |
| PETON7-10 | 2026-09-04 00:56:02 | 45.10256 | 16.41780 | 103° | 20km/h | 28856m | 4.6m/s | -45.0°C | 2.9% | 0hPa | 2.5V | 00:00:00 | 00:00:00 | 00:00:00 | |
| 9A1FER-10 | 2026-09-04 00:55:57 | 45.10262 | 16.41740 | 92° | 18km/h | 28830m | 6.2m/s | -44.9°C | 2.9% | 0hPa | 2.5V | 00:00:00 | 01:55:59 | 00:00:00 | |
| OE5DXL-15 | 2026-09-04 00:55:51 | 45.10257 | 16.41698 | 81° | 15km/h | 28796m | 5.8m/s | -44.9°C | 2.9% | 0hPa | 2.5V | 00:00:00 | 00:00:00 | 00:00:00 | |
| PETON7-10 | 2026-09-04 00:55:46 | 45.10254 | 16.41665 | 93° | 16km/h | 28769m | 4.8m/s | -45.2°C | 2.9% | 0hPa | 2.5V | 00:00:00 | 01:55:48 | 00:00:00 | |
| 9A1FER-3 | 2026-09-04 00:55:42 | 45.10249 | 16.41642 | 45° | 15km/h | 28748m | 5.1m/s | -45.4°C | 3.0% | 0hPa | 2.5V | 00:00:00 | 01:55:44 | 00:00:00 | |
| LZ4TU-5 | 2026-09-04 00:55:35 | 45.10226 | 16.41610 | 38° | 18km/h | 28716m | 5.4m/s | 0°C | 0% | 0hPa | 2.5V | 00:00:00 | 00:00:00 | 00:00:00 | |
| PETON7-10 | 2026-09-04 00:55:31 | 45.10219 | 16.41596 | 102° | 11km/h | 28690m | 5.0m/s | -45.5°C | 3.0% | 0hPa | 2.5V | 00:00:00 | 00:00:00 | 08:30:00 | |
| 9A1FER-3 | 2026-09-04 00:55:28 | 45.10218 | 16.41586 | 83° | 13km/h | 28668m | 6.3m/s | -45.5°C | 3.0% | 0hPa | 2.6V | 00:00:00 | 01:55:29 | 00:00:00 | |
| 9A1FER-10 | 2026-09-04 00:55:27 | 45.10218 | 16.41586 | 83° | 13km/h | 28668m | 6.3m/s | -45.5°C | 3.0% | 0hPa | 2.6V | 00:00:00 | 01:55:29 | 00:00:00 | |
| PG1ADW-2 | 2026-09-04 00:55:22 | 45.10215 | 16.41563 | 80° | 15km/h | 28641m | 4.1m/s | -45.5°C | 3.0% | 0hPa | 2.5V | 00:00:00 | 00:00:00 | 00:00:00 | |
| OE5DXL-15 | 2026-09-04 00:55:21 | 45.10215 | 16.41558 | 94° | 16km/h | 28635m | 6.3m/s | -45.5°C | 3.0% | 0hPa | 2.5V | 00:00:00 | 00:00:00 | 00:00:00 | |
| PETON7-10 | 2026-09-04 00:55:16 | 45.10220 | 16.41541 | 114° | 16km/h | 28608m | 4.4m/s | -45.5°C | 3.0% | 0hPa | 2.5V | 00:00:00 | 00:00:00 | 00:00:00 | |
| 9A1FER-3 | 2026-09-04 00:55:12 | 45.10223 | 16.41520 | 91° | 18km/h | 28587m | 5.3m/s | -45.5°C | 3.0% | 0hPa | 2.5V | 00:00:00 | 01:55:14 | 00:00:00 | |
| OE5DRO-10 | 2026-09-04 00:55:08 | 45.10221 | 16.41496 | 90° | 20km/h | 28565m | 6.3m/s | -45.5°C | 3.0% | 0hPa | 2.5V | 00:00:00 | 00:00:00 | 00:00:00 | |
| PG1ADW-2 | 2026-09-04 00:55:02 | 45.10229 | 16.41466 | 129° | 22km/h | 28532m | 6.1m/s | -45.6°C | 3.0% | 0hPa | 2.5V | 00:00:00 | 00:00:00 | 00:00:00 | |
| PETON7-10 | 2026-09-04 00:55:01 | 45.10232 | 16.41461 | 130° | 22km/h | 28527m | 5.6m/s | -45.7°C | 3.0% | 0hPa | 2.5V | 00:00:00 | 01:55:03 | 00:00:00 | |
| 9A1FER-3 | 2026-09-04 00:54:57 | 45.10240 | 16.41434 | 86° | 22km/h | 28506m | 5.2m/s | -45.8°C | 3.0% | 0hPa | 2.5V | 00:00:00 | 01:54:59 | 00:00:00 | |
| OE5DXL-15 | 2026-09-04 00:54:51 | 45.10238 | 16.41384 | 104° | 26km/h | 28472m | 5.6m/s | -45.8°C | 3.1% | 0hPa | 2.5V | 00:00:00 | 00:00:00 | 08:30:00 | |
| OE5DRO-10 | 2026-09-04 00:54:49 | 45.10242 | 16.41372 | 128° | 26km/h | 28462m | 5.5m/s | -45.7°C | 3.0% | 0hPa | 2.5V | 00:00:00 | 00:00:00 | 00:00:00 | |
| PETON7-10 | 2026-09-04 00:54:46 | 45.10254 | 16.41353 | 130° | 27km/h | 28445m | 5.5m/s | -45.6°C | 3.0% | 0hPa | 2.5V | 00:00:00 | 00:00:00 | 00:00:00 | |
| 9A1FER-10 | 2026-09-04 00:54:42 | 45.10262 | 16.41322 | 94° | 26km/h | 28423m | 6.8m/s | -45.7°C | 3.0% | 0hPa | 2.6V | 00:00:00 | 01:54:44 | 00:00:00 | |
| PETON7-10 | 2026-09-04 00:54:30 | 45.10268 | 16.41212 | 108° | 27km/h | 28359m | 4.9m/s | -45.9°C | 3.0% | 0hPa | 2.5V | 00:00:00 | 00:00:00 | 00:00:00 | |
| 9A1FER-3 | 2026-09-04 00:54:27 | 45.10273 | 16.41184 | 103° | 29km/h | 28343m | 6.2m/s | -46.0°C | 3.0% | 0hPa | 2.5V | 00:00:00 | 01:54:29 | 00:00:00 | |
| OE5DXL-15 | 2026-09-04 00:54:21 | 45.10274 | 16.41116 | 82° | 26km/h | 28310m | 6.1m/s | -46.3°C | 3.0% | 0hPa | 2.5V | 00:00:00 | 00:00:00 | 00:00:00 | |
| PETON7-10 | 2026-09-04 00:54:15 | 45.10271 | 16.41066 | 96° | 29km/h | 28277m | 6.3m/s | -46.5°C | 3.0% | 0hPa | 2.5V | 00:00:00 | 01:54:17 | 00:00:00 | |
| 9A1FER-3 | 2026-09-04 00:54:12 | 45.10275 | 16.41032 | 100° | 26km/h | 28262m | 5.0m/s | -46.6°C | 3.1% | 0hPa | 2.5V | 00:00:00 | 01:54:14 | 00:00:00 | |
| OE5DRO-10 | 2026-09-04 00:54:11 | 45.10276 | 16.41020 | 98° | 24km/h | 28256m | 6.1m/s | -46.7°C | 3.1% | 0hPa | 2.5V | 00:00:00 | 00:00:00 | 08:30:00 | |
| PETON7-10 | 2026-09-04 00:54:00 | 45.10282 | 16.40921 | 99° | 22km/h | 28194m | 4.5m/s | -46.8°C | 3.2% | 0hPa | 2.5V | 00:00:00 | 00:00:00 | 00:00:00 | |
| 9A1FER-10 | 2026-09-04 00:53:57 | 45.10283 | 16.40895 | 86° | 20km/h | 28178m | 4.7m/s | -46.9°C | 3.2% | 0hPa | 2.6V | 00:00:00 | 01:53:59 | 08:30:00 | |
| OE5DRO-10 | 2026-09-04 00:53:52 | 45.10276 | 16.40858 | 71° | 18km/h | 28152m | 5.4m/s | -47.0°C | 3.2% | 0hPa | 2.5V | 00:00:00 | 00:00:00 | 00:00:00 | |
| OE5DXL-15 | 2026-09-04 00:53:51 | 45.10274 | 16.40851 | 69° | 16km/h | 28146m | 6.0m/s | -47.0°C | 3.2% | 0hPa | 2.5V | 00:00:00 | 00:00:00 | 00:00:00 | |
| PG1ADW-2 | 2026-09-04 00:53:49 | 45.10272 | 16.40840 | 82° | 18km/h | 28136m | 4.9m/s | -47.0°C | 3.2% | 0hPa | 2.5V | 00:00:00 | 00:00:00 | 00:00:00 | |
| PETON7-10 | 2026-09-04 00:53:45 | 45.10271 | 16.40811 | 86° | 18km/h | 28114m | 6.0m/s | -47.0°C | 3.2% | 0hPa | 2.5V | 00:00:00 | 00:00:00 | 00:00:00 | |
| 9A1FER-3 | 2026-09-04 00:53:42 | 45.10267 | 16.40793 | 61° | 18km/h | 28096m | 6.3m/s | -47.0°C | 3.2% | 0hPa | 2.5V | 00:00:00 | 01:53:44 | 00:00:00 | |
| OE5DRO-10 | 2026-09-04 00:53:33 | 45.10255 | 16.40746 | 103° | 18km/h | 28045m | 5.4m/s | -47.0°C | 3.2% | 0hPa | 2.5V | 00:00:00 | 00:00:00 | 00:00:00 | |
| PG1ADW-2 | 2026-09-04 00:53:29 | 45.10259 | 16.40720 | 98° | 20km/h | 28022m | 6.6m/s | -46.9°C | 3.2% | 0hPa | 2.5V | 00:00:00 | 00:00:00 | 00:00:00 | |
| 9A1FER-10 | 2026-09-04 00:53:27 | 45.10260 | 16.40707 | 85° | 18km/h | 28011m | 4.7m/s | -46.8°C | 3.1% | 0hPa | 2.5V | 00:00:00 | 01:53:29 | 00:00:00 | |
| OE5DXL-15 | 2026-09-04 00:53:21 | 45.10255 | 16.40675 | 83° | 22km/h | 27977m | 5.0m/s | -47.1°C | 3.2% | 0hPa | 2.5V | 00:00:00 | 00:00:00 | 00:00:00 | |
| OE5DRO-10 | 2026-09-04 00:53:15 | 45.10259 | 16.40622 | 97° | 24km/h | 27937m | 6.5m/s | -47.2°C | 3.3% | 0hPa | 2.6V | 00:00:00 | 00:00:00 | 00:00:00 | |
| 9A1FER-3 | 2026-09-04 00:53:12 | 45.10259 | 16.40608 | 77° | 22km/h | 27925m | 5.2m/s | -47.2°C | 3.3% | 0hPa | 2.5V | 00:00:00 | 01:53:14 | 00:00:00 | |
| PG1ADW-2 | 2026-09-04 00:53:09 | 45.10254 | 16.40584 | 72° | 24km/h | 27908m | 4.7m/s | -47.2°C | 3.3% | 0hPa | 2.6V | 00:00:00 | 00:00:00 | 00:00:00 | |
| PETON7-10 | 2026-09-04 00:52:57 | 45.10231 | 16.40492 | 67° | 24km/h | 27839m | 5.0m/s | -47.2°C | 3.3% | 0hPa | 2.6V | 00:00:00 | 00:00:00 | 00:00:00 | |
| OE5DRO-10 | 2026-09-04 00:52:55 | 45.10225 | 16.40475 | 62° | 22km/h | 27828m | 6.6m/s | -47.2°C | 3.3% | 0hPa | 2.6V | 00:00:00 | 00:00:00 | 00:00:00 | |
| OE5DXL-15 | 2026-09-04 00:52:51 | 45.10213 | 16.40449 | 57° | 26km/h | 27804m | 5.4m/s | -47.1°C | 3.3% | 0hPa | 2.6V | 00:00:00 | 00:00:00 | 00:00:00 | |
| PG1ADW-2 | 2026-09-04 00:52:49 | 45.10208 | 16.40436 | 63° | 24km/h | 27793m | 6.8m/s | -47.1°C | 3.2% | 0hPa | 2.6V | 00:00:00 | 01:52:51 | 00:00:00 | |
| 9A1FER-10 | 2026-09-04 00:52:42 | 45.10188 | 16.40386 | 49° | 24km/h | 27753m | 5.9m/s | -47.1°C | 3.2% | 0hPa | 2.6V | 00:00:00 | 01:52:44 | 00:00:00 | |
| LZ4TU-5 | 2026-09-04 00:52:41 | 45.10184 | 16.40380 | 49° | 18km/h | 27748m | 5.0m/s | 0°C | 0% | 0hPa | 2.6V | 00:00:00 | 00:00:00 | 00:00:00 | |
| LZ4TU-5 | 2026-09-04 00:52:36 | 45.10171 | 16.40347 | 68° | 24km/h | 27719m | 5.5m/s | 0°C | 0% | 0hPa | 2.6V | 00:00:00 | 00:00:00 | 00:00:00 | |
| PG1ADW-2 | 2026-09-04 00:52:29 | 45.10141 | 16.40297 | 36° | 31km/h | 27679m | 6.2m/s | -47.1°C | 3.3% | 0hPa | 2.6V | 00:00:00 | 00:00:00 | 00:00:00 | |
| 9A1FER-3 | 2026-09-04 00:52:27 | 45.10129 | 16.40285 | 38° | 31km/h | 27668m | 5.2m/s | -47.1°C | 3.3% | 0hPa | 2.5V | 00:00:00 | 01:52:29 | 00:00:00 | |
| OE5DXL-15 | 2026-09-04 00:52:21 | 45.10103 | 16.40239 | 49° | 29km/h | 27634m | 4.8m/s | -47.1°C | 3.3% | 0hPa | 2.5V | 00:00:00 | 00:00:00 | 00:00:00 | |
| OE5DRO-10 | 2026-09-04 00:52:17 | 45.10077 | 16.40208 | 36° | 31km/h | 27611m | 6.2m/s | -47.0°C | 3.2% | 0hPa | 2.5V | 00:00:00 | 00:00:00 | 00:00:00 | |
| 9A1FER-10 | 2026-09-04 00:52:12 | 45.10043 | 16.40174 | 41° | 29km/h | 27583m | 4.9m/s | -46.9°C | 3.2% | 0hPa | 2.6V | 00:00:00 | 01:52:14 | 00:00:00 | |
| PG1ADW-2 | 2026-09-04 00:52:09 | 45.10030 | 16.40156 | 50° | 27km/h | 27566m | 5.2m/s | -46.9°C | 3.2% | 0hPa | 2.6V | 00:00:00 | 00:00:00 | 00:00:00 | |
| OE5DRO-10 | 2026-09-04 00:51:58 | 45.09960 | 16.40094 | 48° | 24km/h | 27509m | 5.7m/s | -47.1°C | 3.2% | 0hPa | 2.6V | 00:00:00 | 00:00:00 | 00:00:00 | |
| 9A1FER-10 | 2026-09-04 00:51:57 | 45.09956 | 16.40087 | 56° | 24km/h | 27504m | 5.4m/s | -47.2°C | 3.3% | 0hPa | 2.6V | 00:00:00 | 01:51:59 | 00:00:00 | |
| OE5DXL-15 | 2026-09-04 00:51:51 | 45.09937 | 16.40049 | 47° | 24km/h | 27469m | 4.2m/s | -47.3°C | 3.3% | 0hPa | 2.6V | 00:00:00 | 00:00:00 | 00:00:00 | |
| PG1ADW-2 | 2026-09-04 00:51:49 | 45.09926 | 16.40037 | 28° | 26km/h | 27458m | 6.2m/s | -47.3°C | 3.3% | 0hPa | 2.5V | 00:00:00 | 00:00:00 | 00:00:00 | |
| PETON7-10 | 2026-09-04 00:51:42 | 45.09887 | 16.40008 | 35° | 26km/h | 27418m | 5.0m/s | -47.3°C | 3.3% | 0hPa | 2.5V | 00:00:00 | 00:00:00 | 00:00:00 | |
| OE5DRO-10 | 2026-09-04 00:51:39 | 45.09879 | 16.39996 | 51° | 26km/h | 27402m | 4.8m/s | -47.3°C | 3.3% | 0hPa | 2.5V | 00:00:00 | 00:00:00 | 00:00:00 | |
| 9A1FER-10 | 2026-09-04 00:51:27 | 45.09808 | 16.39949 | 34° | 24km/h | 27333m | 5.7m/s | -47.4°C | 3.3% | 0hPa | 2.5V | 00:00:00 | 01:51:29 | 00:00:00 | |
| OE5DXL-15 | 2026-09-04 00:51:21 | 45.09776 | 16.39929 | 26° | 18km/h | 27300m | 6.1m/s | -47.3°C | 3.4% | 0hPa | 2.5V | 00:00:00 | 00:00:00 | 00:00:00 | |
| OE5DRO-10 | 2026-09-04 00:51:20 | 45.09771 | 16.39925 | 32° | 22km/h | 27294m | 5.0m/s | -47.3°C | 3.3% | 0hPa | 2.5V | 00:00:00 | 00:00:00 | 08:30:00 | |
| 9A1FER-3 | 2026-09-04 00:51:12 | 45.09728 | 16.39906 | 3° | 20km/h | 27249m | 6.4m/s | -47.1°C | 3.3% | 0hPa | 2.6V | 00:00:00 | 01:51:14 | 00:00:00 | |
| PG1ADW-2 | 2026-09-04 00:51:08 | 45.09709 | 16.39905 | 12° | 13km/h | 27228m | 5.5m/s | -47.0°C | 3.3% | 0hPa | 2.6V | 00:00:00 | 00:00:00 | 00:00:00 | |
| OE5DRO-10 | 2026-09-04 00:51:01 | 45.09673 | 16.39906 | 347° | 16km/h | 27189m | 4.8m/s | -46.9°C | 3.2% | 0hPa | 2.6V | 00:00:00 | 00:00:00 | 00:00:00 | |
| 9A1FER-3 | 2026-09-04 00:50:57 | 45.09658 | 16.39918 | 324° | 16km/h | 27167m | 5.5m/s | -46.8°C | 3.2% | 0hPa | 2.6V | 00:00:00 | 01:50:59 | 00:00:00 | |
| OE5DXL-15 | 2026-09-04 00:50:51 | 45.09641 | 16.39923 | 341° | 15km/h | 27133m | 4.8m/s | -46.9°C | 3.2% | 0hPa | 2.6V | 00:00:00 | 00:00:00 | 00:00:00 | |
| 9A1FER-10 | 2026-09-04 00:50:42 | 45.09608 | 16.39956 | 298° | 13km/h | 27083m | 5.7m/s | -46.9°C | 3.2% | 0hPa | 2.6V | 00:00:00 | 01:50:44 | 00:00:00 | |
| PG1ADW-2 | 2026-09-04 00:50:34 | 45.09595 | 16.39973 | 350° | 13km/h | 27041m | 4.8m/s | -47.2°C | 3.3% | 0hPa | 2.6V | 00:00:00 | 00:00:00 | 00:00:00 | |
| 9A1FER-3 | 2026-09-04 00:50:27 | 45.09569 | 16.39987 | 359° | 13km/h | 27004m | 5.3m/s | -47.3°C | 3.3% | 0hPa | 2.6V | 00:00:00 | 01:50:29 | 00:00:00 | |
| OE5DRO-10 | 2026-09-04 00:50:23 | 45.09561 | 16.39987 | 333° | 13km/h | 26982m | 5.3m/s | -47.4°C | 3.3% | 0hPa | 2.6V | 00:00:00 | 00:00:00 | 00:00:00 | |
| OE5DXL-15 | 2026-09-04 00:50:21 | 45.09556 | 16.39989 | 350° | 15km/h | 26971m | 6.4m/s | -47.4°C | 3.3% | 0hPa | 2.5V | 00:00:00 | 00:00:00 | 08:30:00 | |
| PG1ADW-2 | 2026-09-04 00:50:14 | 45.09530 | 16.40005 | 333° | 13km/h | 26932m | 5.3m/s | -47.3°C | 3.3% | 0hPa | 2.5V | 00:00:00 | 00:00:00 | 00:00:00 | |
| PETON7-10 | 2026-09-04 00:50:12 | 45.09525 | 16.40010 | 312° | 15km/h | 26921m | 6.5m/s | -47.3°C | 3.3% | 0hPa | 2.6V | 00:00:00 | 00:00:00 | 00:00:00 | |
| OE5DRO-10 | 2026-09-04 00:50:04 | 45.09512 | 16.40033 | 314° | 15km/h | 26875m | 5.1m/s | -47.3°C | 3.3% | 0hPa | 2.6V | 00:00:00 | 00:00:00 | 00:00:00 | |
| 9A1FER-10 | 2026-09-04 00:49:57 | 45.09503 | 16.40066 | 260° | 16km/h | 26836m | 6.4m/s | -47.2°C | 3.3% | 0hPa | 2.6V | 00:00:00 | 01:49:59 | 00:00:00 | |
| PETON7-10 | 2026-09-04 00:49:54 | 45.09505 | 16.40083 | 265° | 18km/h | 26819m | 5.3m/s | -47.2°C | 3.3% | 0hPa | 2.6V | 00:00:00 | 00:00:00 | 00:00:00 | |
| OE5DXL-15 | 2026-09-04 00:49:51 | 45.09505 | 16.40099 | 276° | 18km/h | 26802m | 5.0m/s | -47.1°C | 3.2% | 0hPa | 2.6V | 00:00:00 | 00:00:00 | 00:00:00 | |
| OE5DRO-10 | 2026-09-04 00:49:45 | 45.09501 | 16.40129 | 262° | 18km/h | 26768m | 4.9m/s | -47.2°C | 3.2% | 0hPa | 2.6V | 00:00:00 | 00:00:00 | 00:00:00 | |
| 9A1FER-3 | 2026-09-04 00:49:42 | 45.09504 | 16.40151 | 257° | 18km/h | 26751m | 5.2m/s | -47.2°C | 3.2% | 0hPa | 2.6V | 00:00:00 | 01:49:44 | 00:00:00 | |
| PETON7-10 | 2026-09-04 00:49:39 | 45.09508 | 16.40175 | 257° | 18km/h | 26734m | 4.6m/s | -47.3°C | 3.2% | 0hPa | 2.6V | 00:00:00 | 01:49:41 | 00:00:00 | |
| PG1ADW-2 | 2026-09-04 00:49:33 | 45.09509 | 16.40213 | 259° | 15km/h | 26702m | 4.9m/s | -47.7°C | 3.4% | 0hPa | 2.6V | 00:00:00 | 00:00:00 | 00:00:00 | |
| 9A1FER-10 | 2026-09-04 00:49:27 | 45.09518 | 16.40249 | 256° | 15km/h | 26668m | 6.2m/s | -47.7°C | 3.4% | 0hPa | 2.6V | 00:00:00 | 01:49:29 | 08:30:00 | |
| OE5DRO-10 | 2026-09-04 00:49:26 | 45.09519 | 16.40255 | 260° | 13km/h | 26662m | 4.7m/s | -47.7°C | 3.4% | 0hPa | 2.5V | 00:00:00 | 00:00:00 | 00:00:00 | |
| PETON7-10 | 2026-09-04 00:49:24 | 45.09519 | 16.40267 | 269° | 13km/h | 26651m | 5.6m/s | -47.7°C | 3.4% | 0hPa | 2.5V | 00:00:00 | 00:00:00 | 00:00:00 | |
| OE5DXL-15 | 2026-09-04 00:49:21 | 45.09521 | 16.40281 | 245° | 13km/h | 26635m | 6.4m/s | -47.6°C | 3.4% | 0hPa | 2.6V | 00:00:00 | 00:00:00 | 00:00:00 | |
| 9A1FER-3 | 2026-09-04 00:49:12 | 45.09547 | 16.40311 | 221° | 11km/h | 26587m | 5.5m/s | -47.5°C | 3.3% | 0hPa | 2.6V | 00:00:00 | 01:49:14 | 00:00:00 | |
| PG1ADW-2 | 2026-09-04 00:49:10 | 45.09550 | 16.40315 | 232° | 11km/h | 26576m | 5.2m/s | -47.5°C | 3.3% | 0hPa | 2.6V | 00:00:00 | 00:00:00 | 00:00:00 | |
| PETON7-10 | 2026-09-04 00:49:09 | 45.09551 | 16.40317 | 240° | 13km/h | 26570m | 5.6m/s | -47.5°C | 3.4% | 0hPa | 2.5V | 00:00:00 | 00:00:00 | 00:00:00 | |
| OE5DRO-10 | 2026-09-04 00:49:07 | 45.09554 | 16.40323 | 239° | 11km/h | 26559m | 4.4m/s | -47.5°C | 3.3% | 0hPa | 2.5V | 00:00:00 | 00:00:00 | 00:00:00 | |
| 9A1FER-3 | 2026-09-04 00:48:57 | 45.09582 | 16.40340 | 156° | 11km/h | 26506m | 4.8m/s | -47.4°C | 3.3% | 0hPa | 2.5V | 00:00:00 | 01:48:59 | 00:00:00 | |
| PETON7-10 | 2026-09-04 00:48:53 | 45.09592 | 16.40338 | 216° | 11km/h | 26486m | 4.6m/s | -47.4°C | 3.3% | 0hPa | 2.5V | 00:00:00 | 01:48:55 | 00:00:00 | |
| OE5DXL-15 | 2026-09-04 00:48:51 | 45.09595 | 16.40342 | 222° | 7km/h | 26475m | 5.3m/s | -47.3°C | 3.2% | 0hPa | 2.5V | 00:00:00 | 00:00:00 | 00:00:00 | |
| PG1ADW-2 | 2026-09-04 00:48:49 | 45.09598 | 16.40343 | 178° | 9km/h | 26465m | 4.4m/s | -47.3°C | 3.3% | 0hPa | 2.6V | 00:00:00 | 00:00:00 | 00:00:00 | |
| OE5DRO-10 | 2026-09-04 00:48:48 | 45.09600 | 16.40343 | 180° | 9km/h | 26460m | 6.0m/s | -47.3°C | 3.2% | 0hPa | 2.6V | 00:00:00 | 00:00:00 | 00:00:00 | |
| 9A1FER-10 | 2026-09-04 00:48:42 | 45.09619 | 16.40337 | 165° | 7km/h | 26426m | 5.0m/s | -47.4°C | 3.3% | 0hPa | 2.6V | 00:00:00 | 01:48:44 | 00:00:00 | |
| PETON7-10 | 2026-09-04 00:48:36 | 45.09624 | 16.40330 | 187° | 7km/h | 26395m | 5.6m/s | -47.6°C | 3.3% | 0hPa | 2.6V | 00:00:00 | 00:00:00 | 08:30:00 | |
| OE5DRO-10 | 2026-09-04 00:48:29 | 45.09637 | 16.40326 | 150° | 7km/h | 26358m | 4.0m/s | -47.9°C | 3.3% | 0hPa | 2.5V | 00:00:00 | 00:00:00 | 08:30:00 | |
| 9A1FER-3 | 2026-09-04 00:48:27 | 45.09638 | 16.40322 | 89° | 5km/h | 26348m | 5.9m/s | -47.9°C | 3.3% | 0hPa | 2.6V | 00:00:00 | 01:48:29 | 00:00:00 | |
| PETON7-10 | 2026-09-04 00:48:21 | 45.09633 | 16.40317 | 328° | 9km/h | 26316m | 6.1m/s | -48.0°C | 3.3% | 0hPa | 2.6V | 00:00:00 | 00:00:00 | 00:00:00 | |
| 9A1FER-10 | 2026-09-04 00:48:13 | 45.09621 | 16.40325 | 358° | 16km/h | 26268m | 6.1m/s | -48.4°C | 3.5% | 0hPa | 2.6V | 00:00:00 | 01:48:14 | 00:00:00 | |
| 9A1FER-3 | 2026-09-04 00:48:12 | 45.09621 | 16.40325 | 358° | 16km/h | 26268m | 6.1m/s | -48.4°C | 3.5% | 0hPa | 2.6V | 00:00:00 | 01:48:14 | 00:00:00 | |
| OE5DRO-10 | 2026-09-04 00:48:10 | 45.09617 | 16.40327 | 345° | 15km/h | 26258m | 4.7m/s | -48.4°C | 3.4% | 0hPa | 2.6V | 00:00:00 | 00:00:00 | 00:00:00 | |
| PG1ADW-2 | 2026-09-04 00:48:09 | 45.09614 | 16.40328 | 349° | 15km/h | 26252m | 6.1m/s | -48.4°C | 3.4% | 0hPa | 2.6V | 00:00:00 | 00:00:00 | 08:30:00 | |
| PETON7-10 | 2026-09-04 00:48:06 | 45.09600 | 16.40336 | 326° | 15km/h | 26236m | 6.1m/s | -48.4°C | 3.4% | 0hPa | 2.6V | 00:00:00 | 01:48:08 | 00:00:00 | |
| 9A1FER-10 | 2026-09-04 00:47:57 | 45.09571 | 16.40375 | 314° | 9km/h | 26190m | 4.8m/s | -48.4°C | 3.4% | 0hPa | 2.6V | 00:00:00 | 01:47:59 | 00:00:00 | |
| OE5DRO-10 | 2026-09-04 00:47:51 | 45.09563 | 16.40388 | 276° | 11km/h | 26159m | 4.2m/s | -48.3°C | 3.4% | 0hPa | 2.5V | 00:00:00 | 00:00:00 | 00:00:00 | |
| PETON7-10 | 2026-09-04 00:47:50 | 45.09563 | 16.40392 | 283° | 11km/h | 26155m | 4.6m/s | -48.3°C | 3.3% | 0hPa | 2.5V | 00:00:00 | 00:00:00 | 00:00:00 | |
| PG1ADW-2 | 2026-09-04 00:47:49 | 45.09562 | 16.40397 | 293° | 11km/h | 26149m | 5.6m/s | -48.3°C | 3.3% | 0hPa | 2.5V | 00:00:00 | 00:00:00 | 00:00:00 | |
| 9A1FER-3 | 2026-09-04 00:47:42 | 45.09558 | 16.40420 | 275° | 11km/h | 26114m | 6.0m/s | -48.5°C | 3.3% | 0hPa | 2.5V | 00:00:00 | 01:47:44 | 00:00:00 | |
| PETON7-10 | 2026-09-04 00:47:35 | 45.09563 | 16.40442 | 235° | 7km/h | 26079m | 5.3m/s | -48.8°C | 3.4% | 0hPa | 2.5V | 00:00:00 | 00:00:00 | 00:00:00 | |
| OE5DRO-10 | 2026-09-04 00:47:32 | 45.09566 | 16.40452 | 251° | 16km/h | 26063m | 6.1m/s | -48.9°C | 3.4% | 0hPa | 2.5V | 00:00:00 | 00:00:00 | 00:00:00 | |
| PG1ADW-2 | 2026-09-04 00:47:30 | 45.09573 | 16.40469 | 215° | 15km/h | 26043m | 4.8m/s | -49.1°C | 3.5% | 0hPa | 2.5V | 00:00:00 | 00:00:00 | 00:00:00 | |
| 9A1FER-10 | 2026-09-04 00:47:27 | 45.09576 | 16.40471 | 196° | 16km/h | 26038m | 4.5m/s | -49.2°C | 3.5% | 0hPa | 2.5V | 00:00:00 | 01:47:29 | 00:00:00 | |
| OE5DXL-15 | 2026-09-04 00:47:21 | 45.09605 | 16.40470 | 172° | 9km/h | 26006m | 4.7m/s | -49.4°C | 3.6% | 0hPa | 2.5V | 00:00:00 | 00:00:00 | 00:00:00 | |
| OE5DRO-10 | 2026-09-04 00:47:13 | 45.09633 | 16.40472 | 170° | 7km/h | 25963m | 4.4m/s | -49.4°C | 3.5% | 0hPa | 2.6V | 00:00:00 | 00:00:00 | 00:00:00 | |
| 9A1FER-3 | 2026-09-04 00:47:12 | 45.09636 | 16.40470 | 155° | 7km/h | 25959m | 5.6m/s | -49.4°C | 3.5% | 0hPa | 2.6V | 00:00:00 | 01:47:14 | 08:30:00 | |
| PG1ADW-2 | 2026-09-04 00:47:07 | 45.09647 | 16.40454 | 152° | 7km/h | 25932m | 4.9m/s | 0°C | 0% | 0hPa | 2.5V | 00:00:00 | 01:47:09 | 00:00:00 | |
| 9A1FER-3 | 2026-09-04 00:46:57 | 45.09649 | 16.40443 | 83° | 15km/h | 25880m | 4.9m/s | -49.8°C | 3.6% | 0hPa | 2.5V | 00:00:00 | 01:46:59 | 00:00:00 | |
| PETON7-10 | 2026-09-04 00:46:55 | 45.09649 | 16.40435 | 86° | 13km/h | 25869m | 5.2m/s | -49.8°C | 3.6% | 0hPa | 2.5V | 00:00:00 | 01:46:57 | 00:00:00 | |
| OE5DRO-10 | 2026-09-04 00:46:54 | 45.09649 | 16.40432 | 76° | 16km/h | 25864m | 4.1m/s | -49.8°C | 3.6% | 0hPa | 2.5V | 00:00:00 | 00:00:00 | 00:00:00 | |
| OE5DXL-15 | 2026-09-04 00:46:51 | 45.09643 | 16.40423 | 35° | 20km/h | 25850m | 5.1m/s | -49.8°C | 3.6% | 0hPa | 2.5V | 00:00:00 | 00:00:00 | 00:00:00 | |
| PG1ADW-2 | 2026-09-04 00:46:47 | 45.09629 | 16.40415 | 8° | 20km/h | 25829m | 5.0m/s | 0°C | 0% | 0hPa | 2.5V | 00:00:00 | 00:00:00 | 00:00:00 | |
| 9A1FER-10 | 2026-09-04 00:46:42 | 45.09610 | 16.40420 | 333° | 22km/h | 25802m | 5.6m/s | -49.9°C | 3.7% | 0hPa | 2.5V | 00:00:00 | 01:46:44 | 00:00:00 | |
| OE5DRO-10 | 2026-09-04 00:46:35 | 45.09580 | 16.40438 | 347° | 24km/h | 25766m | 4.9m/s | -50.1°C | 3.7% | 0hPa | 2.5V | 00:00:00 | 00:00:00 | 00:00:00 | |
| 9A1FER-3 | 2026-09-04 00:46:27 | 45.09532 | 16.40453 | 329° | 24km/h | 25725m | 4.6m/s | -50.1°C | 3.7% | 0hPa | 2.6V | 00:00:00 | 01:46:29 | 00:00:00 | |
| OE5DXL-15 | 2026-09-04 00:46:21 | 45.09498 | 16.40479 | 330° | 18km/h | 25693m | 5.4m/s | -50.2°C | 3.8% | 0hPa | 2.5V | 00:00:00 | 00:00:00 | 00:00:00 | |
| OE5DRO-10 | 2026-09-04 00:46:16 | 45.09476 | 16.40497 | 328° | 20km/h | 25666m | 6.4m/s | -50.2°C | 3.7% | 0hPa | 2.5V | 00:00:00 | 00:00:00 | 00:00:00 | |
| 9A1FER-3 | 2026-09-04 00:46:12 | 45.09457 | 16.40516 | 330° | 18km/h | 25643m | 5.4m/s | -50.2°C | 3.7% | 0hPa | 2.5V | 00:00:00 | 01:46:14 | 00:00:00 | |
| PG1ADW-2 | 2026-09-04 00:46:07 | 45.09437 | 16.40536 | 311° | 15km/h | 25618m | 5.4m/s | 0°C | 0% | 0hPa | 2.5V | 00:00:00 | 00:00:00 | 00:00:00 | |
| 9A1FER-3 | 2026-09-04 00:45:57 | 45.09410 | 16.40584 | 300° | 15km/h | 25564m | 6.3m/s | -50.2°C | 3.8% | 0hPa | 2.5V | 00:00:00 | 01:45:59 | 00:00:00 | |
| OE5DXL-15 | 2026-09-04 00:45:51 | 45.09405 | 16.40610 | 267° | 16km/h | 25532m | 5.6m/s | -50.1°C | 3.7% | 0hPa | 2.5V | 00:00:00 | 00:00:00 | 08:30:00 | |
| PG1ADW-2 | 2026-09-04 00:45:47 | 45.09407 | 16.40632 | 277° | 16km/h | 25511m | 5.5m/s | 0°C | 0% | 0hPa | 2.6V | 00:00:00 | 01:45:49 | 00:00:00 | |
| 9A1FER-3 | 2026-09-04 00:45:42 | 45.09407 | 16.40661 | 252° | 16km/h | 25484m | 5.4m/s | -50.1°C | 3.8% | 0hPa | 2.6V | 00:00:00 | 01:45:44 | 00:00:00 | |
| OE5DRO-10 | 2026-09-04 00:45:38 | 45.09411 | 16.40680 | 237° | 16km/h | 25462m | 6.0m/s | -50.3°C | 3.8% | 0hPa | 2.6V | 00:00:00 | 00:00:00 | 08:30:00 | |
| 9A1FER-10 | 2026-09-04 00:45:27 | 45.09443 | 16.40728 | 217° | 18km/h | 25403m | 4.3m/s | -50.0°C | 3.8% | 0hPa | 2.6V | 00:00:00 | 01:45:29 | 00:00:00 | |
| OE5DXL-15 | 2026-09-04 00:45:21 | 45.09469 | 16.40740 | 201° | 13km/h | 25371m | 4.5m/s | -49.9°C | 3.8% | 0hPa | 2.6V | 00:00:00 | 00:00:00 | 00:00:00 | |
| OE5DRO-10 | 2026-09-04 00:45:19 | 45.09478 | 16.40744 | 200° | 15km/h | 25360m | 4.8m/s | -49.8°C | 3.8% | 0hPa | 2.6V | 00:00:00 | 00:00:00 | 00:00:00 | |
| 9A1FER-3 | 2026-09-04 00:45:12 | 45.09500 | 16.40770 | 211° | 13km/h | 25322m | 5.2m/s | -49.6°C | 3.7% | 0hPa | 2.6V | 00:00:00 | 01:45:14 | 00:00:00 | |
| OE5DRO-10 | 2026-09-04 00:45:00 | 45.09536 | 16.40789 | 234° | 9km/h | 25258m | 5.1m/s | -49.5°C | 3.6% | 0hPa | 2.6V | 00:00:00 | 00:00:00 | 00:00:00 | |
| 9A1FER-3 | 2026-09-04 00:44:57 | 45.09538 | 16.40800 | 251° | 9km/h | 25241m | 5.7m/s | -49.4°C | 3.6% | 0hPa | 2.6V | 00:00:00 | 01:44:59 | 08:30:00 | |
| PETON7-10 | 2026-09-04 00:44:54 | 45.09542 | 16.40803 | 177° | 11km/h | 25225m | 5.5m/s | -49.4°C | 3.6% | 0hPa | 2.5V | 00:00:00 | 00:00:00 | 00:00:00 | |
| 9A1FER-10 | 2026-09-04 00:44:42 | 45.09570 | 16.40819 | 161° | 11km/h | 25162m | 5.4m/s | -49.5°C | 3.6% | 0hPa | 2.6V | 00:00:00 | 01:44:44 | 00:00:00 | |
| OE5DRO-10 | 2026-09-04 00:44:41 | 45.09571 | 16.40818 | 155° | 13km/h | 25157m | 4.9m/s | -49.6°C | 3.5% | 0hPa | 2.6V | 00:00:00 | 00:00:00 | 00:00:00 | |
| PETON7-10 | 2026-09-04 00:44:39 | 45.09575 | 16.40817 | 173° | 15km/h | 25146m | 4.6m/s | -49.6°C | 3.6% | 0hPa | 2.6V | 00:00:00 | 00:00:00 | 00:00:00 | |
| 9A1FER-3 | 2026-09-04 00:44:27 | 45.09605 | 16.40790 | 99° | 13km/h | 25081m | 5.2m/s | -50.2°C | 3.7% | 0hPa | 2.6V | 00:00:00 | 01:44:29 | 00:00:00 | |
| OE5DRO-10 | 2026-09-04 00:44:22 | 45.09618 | 16.40778 | 162° | 15km/h | 25054m | 6.1m/s | -50.3°C | 3.7% | 0hPa | 2.6V | 00:00:00 | 00:00:00 | 00:00:00 | |
| OE5DXL-15 | 2026-09-04 00:44:21 | 45.09622 | 16.40776 | 164° | 13km/h | 25048m | 5.0m/s | -50.4°C | 3.7% | 0hPa | 2.6V | 00:00:00 | 00:00:00 | 00:00:00 | |
| PETON7-10 | 2026-09-04 00:44:16 | 45.09639 | 16.40763 | 134° | 15km/h | 25023m | 6.3m/s | -50.6°C | 3.7% | 0hPa | 2.6V | 00:00:00 | 01:44:18 | 00:00:00 | |
| 9A1FER-10 | 2026-09-04 00:44:12 | 45.09642 | 16.40747 | 106° | 15km/h | 25000m | 4.9m/s | -50.8°C | 3.8% | 0hPa | 2.6V | 00:00:00 | 01:44:14 | 00:00:00 | |
| OE5DRO-10 | 2026-09-04 00:44:03 | 45.09673 | 16.40730 | 196° | 7km/h | 24951m | 5.4m/s | -50.8°C | 3.9% | 0hPa | 2.5V | 00:00:00 | 00:00:00 | 00:00:00 | |
| PETON7-10 | 2026-09-04 00:44:01 | 45.09679 | 16.40731 | 173° | 7km/h | 24940m | 6.2m/s | -50.7°C | 3.9% | 0hPa | 2.5V | 00:00:00 | 00:00:00 | 08:30:00 | |
| 9A1FER-3 | 2026-09-04 00:43:57 | 45.09684 | 16.40723 | 86° | 7km/h | 24919m | 5.4m/s | -50.6°C | 3.8% | 0hPa | 2.6V | 00:00:00 | 01:43:59 | 00:00:00 | |
| OE5DXL-15 | 2026-09-04 00:43:51 | 45.09690 | 16.40719 | 211° | 9km/h | 24887m | 5.6m/s | -50.5°C | 3.8% | 0hPa | 2.6V | 00:00:00 | 00:00:00 | 00:00:00 | |
| PETON7-10 | 2026-09-04 00:43:46 | 45.09701 | 16.40726 | 203° | 9km/h | 24860m | 6.2m/s | -50.5°C | 3.8% | 0hPa | 2.6V | 00:00:00 | 00:00:00 | 00:00:00 | |
| OE5DRO-10 | 2026-09-04 00:43:44 | 45.09701 | 16.40727 | 339° | 7km/h | 24849m | 5.0m/s | -50.5°C | 3.8% | 0hPa | 2.6V | 00:00:00 | 00:00:00 | 00:00:00 | |
| 9A1FER-3 | 2026-09-04 00:43:42 | 45.09700 | 16.40727 | 20° | 7km/h | 24838m | 4.6m/s | -50.5°C | 3.7% | 0hPa | 2.6V | 00:00:00 | 01:43:44 | 00:00:00 | |
| PETON7-10 | 2026-09-04 00:43:28 | 45.09714 | 16.40760 | 262° | 15km/h | 24764m | 5.2m/s | -50.5°C | 3.7% | 0hPa | 2.6V | 00:00:00 | 01:43:30 | 00:00:00 | |
| 9A1FER-10 | 2026-09-04 00:43:27 | 45.09715 | 16.40763 | 265° | 15km/h | 24759m | 4.8m/s | -50.6°C | 3.7% | 0hPa | 2.6V | 00:00:00 | 01:43:29 | 00:00:00 | |
| OE5DRO-10 | 2026-09-04 00:43:25 | 45.09716 | 16.40771 | 243° | 15km/h | 24747m | 5.3m/s | -50.7°C | 3.8% | 0hPa | 2.6V | 00:00:00 | 00:00:00 | 00:00:00 | |
| OE5DXL-15 | 2026-09-04 00:43:21 | 45.09723 | 16.40786 | 235° | 11km/h | 24727m | 4.1m/s | -50.7°C | 3.8% | 0hPa | 2.6V | 00:00:00 | 00:00:00 | 00:00:00 | |
| PETON7-10 | 2026-09-04 00:43:13 | 45.09750 | 16.40816 | 240° | 13km/h | 24688m | 5.6m/s | -50.8°C | 3.7% | 0hPa | 2.6V | 00:00:00 | 00:00:00 | 00:00:00 | |
| 9A1FER-3 | 2026-09-04 00:43:12 | 45.09751 | 16.40820 | 235° | 11km/h | 24683m | 5.3m/s | -50.9°C | 3.8% | 0hPa | 2.6V | 00:00:00 | 01:43:14 | 00:00:00 | |
| OE5DRO-10 | 2026-09-04 00:43:06 | 45.09760 | 16.40838 | 221° | 9km/h | 24654m | 4.5m/s | -51.0°C | 3.7% | 0hPa | 2.6V | 00:00:00 | 00:00:00 | 00:00:00 | |
| PETON7-10 | 2026-09-04 00:42:58 | 45.09786 | 16.40847 | 166° | 5km/h | 24614m | 5.2m/s | -51.5°C | 3.9% | 0hPa | 2.6V | 00:00:00 | 00:00:00 | 00:00:00 | |
| 9A1FER-3 | 2026-09-04 00:42:57 | 45.09787 | 16.40847 | 250° | 5km/h | 24608m | 6.0m/s | -51.5°C | 3.9% | 0hPa | 2.6V | 00:00:00 | 01:42:59 | 00:00:00 | |
| OE5DXL-15 | 2026-09-04 00:42:51 | 45.09782 | 16.40852 | 291° | 5km/h | 24578m | 5.0m/s | -51.7°C | 3.9% | 0hPa | 2.6V | 00:00:00 | 00:00:00 | 00:00:00 | |
| OE5DRO-10 | 2026-09-04 00:42:47 | 45.09786 | 16.40862 | 220° | 5km/h | 24557m | 5.9m/s | -51.8°C | 4.0% | 0hPa | 2.6V | 00:00:00 | 00:00:00 | 08:30:00 | |
| PETON7-10 | 2026-09-04 00:42:43 | 45.09790 | 16.40866 | 259° | 5km/h | 24537m | 5.3m/s | -51.8°C | 4.0% | 0hPa | 2.5V | 00:00:00 | 01:42:45 | 00:00:00 | |
| 9A1FER-10 | 2026-09-04 00:42:42 | 45.09790 | 16.40869 | 253° | 5km/h | 24532m | 4.5m/s | -51.8°C | 4.1% | 0hPa | 2.5V | 00:00:00 | 01:42:44 | 08:30:00 | |
| PG1ADW-2 | 2026-09-04 00:42:41 | 45.09791 | 16.40871 | 237° | 7km/h | 24527m | 5.3m/s | 0°C | 0% | 0hPa | 2.6V | 00:00:00 | 00:00:00 | 00:00:00 | |
| PETON7-10 | 2026-09-04 00:42:28 | 45.09804 | 16.40887 | 245° | 5km/h | 24457m | 5.1m/s | -51.6°C | 4.0% | 0hPa | 2.6V | 00:00:00 | 00:00:00 | 00:00:00 | |
| 9A1FER-3 | 2026-09-04 00:42:27 | 45.09805 | 16.40889 | 250° | 5km/h | 24452m | 4.7m/s | -51.6°C | 3.9% | 0hPa | 2.5V | 00:00:00 | 01:42:29 | 00:00:00 | |
| OE5DXL-15 | 2026-09-04 00:42:21 | 45.09805 | 16.40893 | 93° | 7km/h | 24421m | 5.0m/s | -51.6°C | 3.9% | 0hPa | 2.5V | 00:00:00 | 00:00:00 | 00:00:00 | |
| 9A1FER-10 | 2026-09-04 00:42:12 | 45.09815 | 16.40896 | 156° | 9km/h | 24373m | 4.8m/s | -52.0°C | 4.0% | 0hPa | 2.5V | 00:00:00 | 01:42:14 | 00:00:00 | |
| OE5DRO-10 | 2026-09-04 00:42:09 | 45.09818 | 16.40888 | 97° | 9km/h | 24357m | 5.1m/s | -52.0°C | 4.0% | 0hPa | 2.5V | 00:00:00 | 00:00:00 | 00:00:00 | |
| PG1ADW-2 | 2026-09-04 00:42:06 | 45.09816 | 16.40878 | 65° | 7km/h | 24341m | 4.7m/s | 0°C | 0% | 0hPa | 2.5V | 00:00:00 | 00:00:00 | 00:00:00 | |
| PETON7-10 | 2026-09-04 00:41:57 | 45.09808 | 16.40851 | 49° | 5km/h | 24293m | 4.8m/s | -52.2°C | 4.0% | 0hPa | 2.5V | 00:00:00 | 01:41:59 | 00:00:00 | |
| OE5DXL-15 | 2026-09-04 00:41:51 | 45.09796 | 16.40841 | 21° | 7km/h | 24259m | 6.4m/s | -52.5°C | 4.1% | 0hPa | 2.5V | 00:00:00 | 00:00:00 | 00:00:00 | |
| OE5DRO-10 | 2026-09-04 00:41:50 | 45.09795 | 16.40841 | 339° | 7km/h | 24254m | 4.8m/s | -52.5°C | 4.2% | 0hPa | 2.5V | 00:00:00 | 00:00:00 | 00:00:00 | |
| 9A1FER-3 | 2026-09-04 00:41:42 | 45.09802 | 16.40839 | 92° | 9km/h | 24211m | 6.2m/s | -52.6°C | 4.1% | 0hPa | 2.6V | 00:00:00 | 01:41:44 | 00:00:00 | |
| OE5DRO-10 | 2026-09-04 00:41:31 | 45.09810 | 16.40857 | 226° | 9km/h | 24151m | 5.9m/s | -52.9°C | 4.1% | 0hPa | 2.6V | 00:00:00 | 00:00:00 | 00:00:00 | |
| 9A1FER-10 | 2026-09-04 00:41:27 | 45.09814 | 16.40857 | 51° | 9km/h | 24130m | 5.8m/s | -52.9°C | 4.1% | 0hPa | 2.6V | 00:00:00 | 01:41:29 | 00:00:00 | |
| PETON7-10 | 2026-09-04 00:41:26 | 45.09813 | 16.40856 | 36° | 9km/h | 24125m | 5.2m/s | -53.0°C | 4.1% | 0hPa | 2.6V | 00:00:00 | 00:00:00 | 00:00:00 | |
| OE5DXL-15 | 2026-09-04 00:41:21 | 45.09803 | 16.40849 | 314° | 7km/h | 24098m | 5.7m/s | -53.1°C | 4.2% | 0hPa | 2.6V | 00:00:00 | 00:00:00 | 08:30:00 | |
| 9A1FER-3 | 2026-09-04 00:41:12 | 45.09810 | 16.40876 | 230° | 7km/h | 24050m | 5.0m/s | -53.3°C | 4.3% | 0hPa | 2.6V | 00:00:00 | 01:41:14 | 00:00:00 | |
| PETON7-10 | 2026-09-04 00:41:11 | 45.09811 | 16.40877 | 265° | 7km/h | 24044m | 6.0m/s | -53.3°C | 4.3% | 0hPa | 2.6V | 00:00:00 | 01:41:13 | 00:00:00 | |
| 9A1FER-3 | 2026-09-04 00:40:57 | 45.09817 | 16.40912 | 303° | 7km/h | 23971m | 5.2m/s | -53.5°C | 4.3% | 0hPa | 2.6V | 00:00:00 | 01:40:59 | 00:00:00 | |
| PETON7-10 | 2026-09-04 00:40:56 | 45.09816 | 16.40914 | 303° | 7km/h | 23966m | 5.8m/s | -53.5°C | 4.3% | 0hPa | 2.6V | 00:00:00 | 00:00:00 | 00:00:00 | |
| OE5DRO-10 | 2026-09-04 00:40:53 | 45.09814 | 16.40919 | 313° | 9km/h | 23949m | 6.1m/s | -53.5°C | 4.3% | 0hPa | 2.5V | 00:00:00 | 00:00:00 | 00:00:00 | |
| OE5DXL-15 | 2026-09-04 00:40:51 | 45.09811 | 16.40922 | 326° | 11km/h | 23938m | 5.6m/s | -53.5°C | 4.4% | 0hPa | 2.6V | 00:00:00 | 00:00:00 | 00:00:00 | |
| 9A1FER-10 | 2026-09-04 00:40:42 | 45.09797 | 16.40934 | 314° | 13km/h | 23889m | 5.4m/s | -53.4°C | 4.3% | 0hPa | 2.6V | 00:00:00 | 01:40:44 | 00:00:00 | |
| PETON7-10 | 2026-09-04 00:40:40 | 45.09794 | 16.40939 | 321° | 13km/h | 23879m | 6.3m/s | -53.4°C | 4.3% | 0hPa | 2.6V | 00:00:00 | 00:00:00 | 00:00:00 | |
| OE5DRO-10 | 2026-09-04 00:40:34 | 45.09780 | 16.40953 | 306° | 13km/h | 23847m | 6.1m/s | -53.4°C | 4.3% | 0hPa | 2.6V | 00:00:00 | 00:00:00 | 00:00:00 | |
| 9A1FER-3 | 2026-09-04 00:40:27 | 45.09777 | 16.40988 | 270° | 11km/h | 23809m | 4.4m/s | -53.4°C | 4.3% | 0hPa | 2.6V | 00:00:00 | 01:40:29 | 08:30:00 | |
| PETON7-10 | 2026-09-04 00:40:25 | 45.09776 | 16.40998 | 287° | 11km/h | 23798m | 5.1m/s | -53.4°C | 4.3% | 0hPa | 2.6V | 00:00:00 | 01:40:27 | 00:00:00 | |
| OE5DXL-15 | 2026-09-04 00:40:21 | 45.09773 | 16.41015 | 289° | 13km/h | 23777m | 6.1m/s | -53.5°C | 4.4% | 0hPa | 2.6V | 00:00:00 | 00:00:00 | 00:00:00 | |
| OE5DRO-10 | 2026-09-04 00:40:15 | 45.09769 | 16.41039 | 272° | 13km/h | 23745m | 5.0m/s | -53.4°C | 4.3% | 0hPa | 2.6V | 00:00:00 | 00:00:00 | 00:00:00 | |
| 9A1FER-3 | 2026-09-04 00:40:12 | 45.09769 | 16.41047 | 259° | 13km/h | 23729m | 4.9m/s | -53.5°C | 4.4% | 0hPa | 2.6V | 00:00:00 | 01:40:14 | 00:00:00 | |
| PETON7-10 | 2026-09-04 00:40:10 | 45.09769 | 16.41051 | 296° | 13km/h | 23720m | 6.1m/s | -53.6°C | 4.5% | 0hPa | 2.6V | 00:00:00 | 00:00:00 | 00:00:00 | |
| 9A1FER-10 | 2026-09-04 00:39:57 | 45.09760 | 16.41112 | 295° | 13km/h | 23651m | 5.0m/s | -53.2°C | 4.4% | 0hPa | 2.6V | 00:00:00 | 01:39:59 | 00:00:00 | |
| OE5DRO-10 | 2026-09-04 00:39:56 | 45.09758 | 16.41118 | 298° | 13km/h | 23646m | 4.7m/s | -53.1°C | 4.4% | 0hPa | 2.6V | 00:00:00 | 00:00:00 | 08:30:00 | |
| PETON7-10 | 2026-09-04 00:39:55 | 45.09756 | 16.41123 | 292° | 11km/h | 23641m | 5.9m/s | -53.1°C | 4.4% | 0hPa | 2.6V | 00:00:00 | 00:00:00 | 00:00:00 | |
| OE5DXL-15 | 2026-09-04 00:39:51 | 45.09754 | 16.41145 | 275° | 9km/h | 23619m | 5.1m/s | -53.0°C | 4.3% | 0hPa | 2.6V | 00:00:00 | 00:00:00 | 00:00:00 | |
| 9A1FER-3 | 2026-09-04 00:39:42 | 45.09751 | 16.41176 | 279° | 9km/h | 23572m | 5.2m/s | -52.7°C | 4.2% | 0hPa | 2.6V | 00:00:00 | 01:39:44 | 00:00:00 | |
| PETON7-10 | 2026-09-04 00:39:40 | 45.09751 | 16.41183 | 279° | 9km/h | 23562m | 6.2m/s | -52.7°C | 4.2% | 0hPa | 2.6V | 00:00:00 | 01:39:42 | 00:00:00 | |
| OE5DRO-10 | 2026-09-04 00:39:37 | 45.09750 | 16.41196 | 257° | 7km/h | 23546m | 5.5m/s | -52.6°C | 4.2% | 0hPa | 2.6V | 00:00:00 | 00:00:00 | 00:00:00 | |
| PETON7-10 | 2026-09-04 00:39:25 | 45.09745 | 16.41224 | 321° | 4km/h | 23484m | 4.6m/s | -52.6°C | 4.0% | 0hPa | 2.6V | 00:00:00 | 00:00:00 | 08:30:00 | |
| OE5DXL-15 | 2026-09-04 00:39:21 | 45.09741 | 16.41232 | 263° | 5km/h | 23463m | 5.9m/s | 0°C | 0% | 0hPa | 2.7V | 00:00:00 | 00:00:00 | 00:00:00 | |
| OE5DRO-10 | 2026-09-04 00:39:18 | 45.09742 | 16.41234 | 196° | 4km/h | 23447m | 5.4m/s | -52.9°C | 4.2% | 0hPa | 2.7V | 00:00:00 | 00:00:00 | 00:00:00 | |
| 9A1FER-3 | 2026-09-04 00:39:12 | 45.09741 | 16.41226 | 23° | 4km/h | 23418m | 5.5m/s | -53.1°C | 4.2% | 0hPa | 2.7V | 00:00:00 | 01:39:14 | 00:00:00 | |
| PETON7-10 | 2026-09-04 00:39:07 | 45.09738 | 16.41227 | 303° | 13km/h | 23392m | 4.9m/s | -53.3°C | 4.3% | 0hPa | 2.7V | 00:00:00 | 00:00:00 | 00:00:00 | |
| OE5DRO-10 | 2026-09-04 00:38:59 | 45.09734 | 16.41234 | 357° | 13km/h | 23351m | 4.3m/s | -53.2°C | 4.3% | 0hPa | 2.7V | 00:00:00 | 00:00:00 | 00:00:00 | |
| 9A1FER-3 | 2026-09-04 00:38:57 | 45.09729 | 16.41234 | 7° | 13km/h | 23342m | 4.7m/s | -53.2°C | 4.2% | 0hPa | 2.6V | 00:00:00 | 01:38:59 | 00:00:00 | |
| OE5DXL-15 | 2026-09-04 00:38:50 | 45.09704 | 16.41242 | 348° | 15km/h | 23306m | 4.9m/s | 0°C | 0% | 0hPa | 2.6V | 00:00:00 | 00:00:00 | 00:00:00 | |
| 9A1FER-10 | 2026-09-04 00:38:42 | 45.09680 | 16.41257 | 322° | 13km/h | 23264m | 4.7m/s | -53.3°C | 4.2% | 0hPa | 2.6V | 00:00:00 | 01:38:44 | 00:00:00 | |
| OE5DRO-10 | 2026-09-04 00:38:40 | 45.09675 | 16.41263 | 325° | 15km/h | 23254m | 5.4m/s | -53.5°C | 4.3% | 0hPa | 2.6V | 00:00:00 | 00:00:00 | 00:00:00 | |
| 9A1FER-3 | 2026-09-04 00:38:27 | 45.09649 | 16.41310 | 273° | 16km/h | 23186m | 4.9m/s | -53.6°C | 4.4% | 0hPa | 2.6V | 00:00:00 | 01:38:29 | 00:00:00 | |
| OE5DRO-10 | 2026-09-04 00:38:21 | 45.09649 | 16.41353 | 282° | 20km/h | 23155m | 4.6m/s | -53.7°C | 4.4% | 0hPa | 2.6V | 00:00:00 | 00:00:00 | 00:00:00 | |
| OE5DXL-15 | 2026-09-04 00:38:20 | 45.09647 | 16.41359 | 281° | 26km/h | 23150m | 5.6m/s | 0°C | 0% | 0hPa | 2.6V | 00:00:00 | 00:00:00 | 00:00:00 | |
| PETON7-10 | 2026-09-04 00:38:12 | 45.09647 | 16.41398 | 269° | 26km/h | 23108m | 6.0m/s | -53.8°C | 4.4% | 0hPa | 2.6V | 00:00:00 | 01:38:14 | 00:00:00 | |
| OE5DRO-10 | 2026-09-04 00:38:02 | 45.09675 | 16.41477 | 227° | 31km/h | 23054m | 6.5m/s | -53.9°C | 4.4% | 0hPa | 2.6V | 00:00:00 | 00:00:00 | 00:00:00 | |
| 9A1FER-10 | 2026-09-04 00:37:57 | 45.09693 | 16.41504 | 231° | 35km/h | 23027m | 6.3m/s | -54.0°C | 4.6% | 0hPa | 2.6V | 00:00:00 | 01:37:59 | 00:00:00 | |
| PETON7-10 | 2026-09-04 00:37:54 | 45.09709 | 16.41529 | 230° | 37km/h | 23011m | 5.5m/s | -53.9°C | 4.5% | 0hPa | 2.6V | 00:00:00 | 00:00:00 | 00:00:00 | |
| OE5DXL-15 | 2026-09-04 00:37:50 | 45.09737 | 16.41567 | 216° | 35km/h | 22990m | 4.6m/s | 0°C | 0% | 0hPa | 2.7V | 00:00:00 | 00:00:00 | 00:00:00 | |
| OE5DRO-10 | 2026-09-04 00:37:43 | 45.09789 | 16.41620 | 224° | 37km/h | 22952m | 4.9m/s | -53.5°C | 4.3% | 0hPa | 2.7V | 00:00:00 | 00:00:00 | 00:00:00 | |
| 9A1FER-3 | 2026-09-04 00:37:42 | 45.09796 | 16.41629 | 224° | 37km/h | 22946m | 5.8m/s | -53.5°C | 4.3% | 0hPa | 2.7V | 00:00:00 | 01:37:44 | 00:00:00 | |
| PETON7-10 | 2026-09-04 00:37:39 | 45.09817 | 16.41656 | 222° | 37km/h | 22930m | 5.9m/s | -53.4°C | 4.3% | 0hPa | 2.7V | 00:00:00 | 00:00:00 | 00:00:00 | |
| 9A1FER-10 | 2026-09-04 00:37:27 | 45.09914 | 16.41737 | 220° | 31km/h | 22867m | 4.4m/s | -53.3°C | 4.2% | 0hPa | 2.7V | 00:00:00 | 01:37:29 | 00:00:00 | |
| PETON7-10 | 2026-09-04 00:37:24 | 45.09936 | 16.41760 | 211° | 27km/h | 22851m | 4.5m/s | -53.4°C | 4.3% | 0hPa | 2.6V | 00:00:00 | 01:37:26 | 00:00:00 | |
| 9A1FER-3 | 2026-09-04 00:37:12 | 45.10022 | 16.41804 | 208° | 22km/h | 22788m | 6.0m/s | -53.4°C | 4.2% | 0hPa | 2.6V | 00:00:00 | 01:37:14 | 00:00:00 | |
| PETON7-10 | 2026-09-04 00:37:08 | 45.10044 | 16.41819 | 199° | 22km/h | 22767m | 4.4m/s | -53.4°C | 4.2% | 0hPa | 2.6V | 00:00:00 | 00:00:00 | 00:00:00 | |
| OE5DRO-10 | 2026-09-04 00:37:04 | 45.10068 | 16.41829 | 198° | 20km/h | 22747m | 4.0m/s | -53.5°C | 4.3% | 0hPa | 2.6V | 00:00:00 | 00:00:00 | 08:30:00 | |
| 9A1FER-3 | 2026-09-04 00:36:57 | 45.10100 | 16.41852 | 205° | 20km/h | 22711m | 5.1m/s | -53.7°C | 4.3% | 0hPa | 2.6V | 00:00:00 | 01:36:59 | 00:00:00 | |
| PETON7-10 | 2026-09-04 00:36:53 | 45.10119 | 16.41859 | 186° | 20km/h | 22691m | 3.9m/s | -53.8°C | 4.3% | 0hPa | 2.6V | 00:00:00 | 00:00:00 | 00:00:00 | |
| OE5DRO-10 | 2026-09-04 00:36:45 | 45.10160 | 16.41862 | 179° | 18km/h | 22651m | 4.7m/s | -53.9°C | 4.3% | 0hPa | 2.6V | 00:00:00 | 00:00:00 | 00:00:00 | |
| 9A1FER-10 | 2026-09-04 00:36:42 | 45.10174 | 16.41860 | 166° | 18km/h | 22636m | 4.4m/s | -54.0°C | 4.3% | 0hPa | 2.6V | 00:00:00 | 01:36:44 | 00:00:00 | |
| PETON7-10 | 2026-09-04 00:36:38 | 45.10195 | 16.41846 | 146° | 18km/h | 22617m | 3.5m/s | -54.1°C | 4.3% | 0hPa | 2.6V | 00:00:00 | 01:36:40 | 00:00:00 | |
| 9A1FER-3 | 2026-09-04 00:36:27 | 45.10234 | 16.41835 | 127° | 13km/h | 22562m | 5.6m/s | -54.6°C | 4.5% | 0hPa | 2.6V | 00:00:00 | 01:36:29 | 00:00:00 | |
| OE5DRO-10 | 2026-09-04 00:36:26 | 45.10236 | 16.41832 | 120° | 13km/h | 22557m | 4.5m/s | -54.6°C | 4.5% | 0hPa | 2.6V | 00:00:00 | 00:00:00 | 00:00:00 | |
| PETON7-10 | 2026-09-04 00:36:23 | 45.10241 | 16.41818 | 124° | 11km/h | 22543m | 4.5m/s | -54.6°C | 4.4% | 0hPa | 2.6V | 00:00:00 | 00:00:00 | 08:30:00 | |
| 9A1FER-10 | 2026-09-04 00:36:12 | 45.10267 | 16.41800 | 187° | 9km/h | 22488m | 4.2m/s | -55.0°C | 4.5% | 0hPa | 2.6V | 00:00:00 | 01:36:14 | 00:00:00 | |
| PETON7-10 | 2026-09-04 00:36:07 | 45.10281 | 16.41792 | 146° | 11km/h | 22463m | 4.8m/s | -55.1°C | 4.5% | 0hPa | 2.6V | 00:00:00 | 00:00:00 | 00:00:00 | |
| 9A1FER-10 | 2026-09-04 00:35:57 | 45.10300 | 16.41785 | 187° | 16km/h | 22415m | 5.2m/s | -55.5°C | 4.7% | 0hPa | 2.6V | 00:00:00 | 01:35:59 | 08:30:00 | |
| OE5DRO-10 | 2026-09-04 00:35:47 | 45.10342 | 16.41770 | 128° | 18km/h | 22363m | 5.6m/s | -55.7°C | 4.7% | 0hPa | 2.7V | 00:00:00 | 00:00:00 | 00:00:00 | |
| PETON7-10 | 2026-09-04 00:35:43 | 45.10351 | 16.41757 | 148° | 18km/h | 22348m | 4.6m/s | -55.8°C | 4.8% | 0hPa | 2.7V | 00:00:00 | 01:35:45 | 00:00:00 | |
| 9A1FER-3 | 2026-09-04 00:35:42 | 45.10355 | 16.41754 | 159° | 18km/h | 22344m | 4.4m/s | -55.8°C | 4.8% | 0hPa | 2.7V | 00:00:00 | 01:35:44 | 00:00:00 | |
| 9A1FER-10 | 2026-09-04 00:35:27 | 45.10408 | 16.41701 | 153° | 13km/h | 22272m | 5.3m/s | -56.2°C | 4.8% | 0hPa | 2.7V | 00:00:00 | 01:35:29 | 00:00:00 | |
| PETON7-10 | 2026-09-04 00:35:23 | 45.10420 | 16.41691 | 136° | 13km/h | 22253m | 4.9m/s | -56.3°C | 4.9% | 0hPa | 2.7V | 00:00:00 | 00:00:00 | 00:00:00 | |
| 9A1FER-3 | 2026-09-04 00:35:12 | 45.10440 | 16.41654 | 129° | 15km/h | 22199m | 4.5m/s | -56.4°C | 4.9% | 0hPa | 2.7V | 00:00:00 | 01:35:14 | 00:00:00 | |
| PETON7-10 | 2026-09-04 00:35:08 | 45.10450 | 16.41637 | 124° | 13km/h | 22179m | 5.2m/s | -56.3°C | 4.9% | 0hPa | 2.7V | 00:00:00 | 00:00:00 | 00:00:00 | |
| 9A1FER-3 | 2026-09-04 00:34:57 | 45.10464 | 16.41587 | 110° | 9km/h | 22126m | 3.8m/s | -56.4°C | 5.0% | 0hPa | 2.7V | 00:00:00 | 01:34:59 | 00:00:00 | |
| PETON7-10 | 2026-09-04 00:34:53 | 45.10471 | 16.41575 | 130° | 7km/h | 22109m | 4.6m/s | -56.4°C | 5.0% | 0hPa | 2.7V | 00:00:00 | 01:34:55 | 00:00:00 | |
| 9A1FER-10 | 2026-09-04 00:34:42 | 45.10485 | 16.41551 | 143° | 11km/h | 22054m | 5.5m/s | -56.2°C | 4.9% | 0hPa | 2.7V | 00:00:00 | 01:34:44 | 00:00:00 | |
| PETON7-10 | 2026-09-04 00:34:38 | 45.10490 | 16.41540 | 130° | 11km/h | 22035m | 4.7m/s | -56.1°C | 4.9% | 0hPa | 2.7V | 00:00:00 | 00:00:00 | 00:00:00 | |
| 9A1FER-3 | 2026-09-04 00:34:27 | 45.10499 | 16.41499 | 130° | 15km/h | 21980m | 4.5m/s | -55.9°C | 4.8% | 0hPa | 2.6V | 00:00:00 | 01:34:29 | 00:00:00 | |
| PETON7-10 | 2026-09-04 00:34:23 | 45.10508 | 16.41481 | 121° | 15km/h | 21961m | 5.8m/s | -55.8°C | 4.8% | 0hPa | 2.6V | 00:00:00 | 00:00:00 | 00:00:00 | |
| 9A1FER-10 | 2026-09-04 00:34:13 | 45.10519 | 16.41431 | 137° | 13km/h | 21906m | 4.2m/s | -55.9°C | 4.9% | 0hPa | 2.6V | 00:00:00 | 01:34:14 | 00:00:00 | |
| 9A1FER-3 | 2026-09-04 00:34:12 | 45.10519 | 16.41431 | 137° | 13km/h | 21906m | 4.2m/s | -55.9°C | 4.9% | 0hPa | 2.6V | 00:00:00 | 01:34:14 | 00:00:00 | |
| PETON7-10 | 2026-09-04 00:34:08 | 45.10527 | 16.41415 | 90° | 13km/h | 21887m | 4.5m/s | -55.9°C | 4.8% | 0hPa | 2.6V | 00:00:00 | 01:34:10 | 00:00:00 | |
| OE5DRO-10 | 2026-09-04 00:34:04 | 45.10526 | 16.41398 | 90° | 11km/h | 21868m | 5.1m/s | -55.8°C | 4.8% | 0hPa | 2.6V | 00:00:00 | 00:00:00 | 00:00:00 | |
| 9A1FER-10 | 2026-09-04 00:33:57 | 45.10531 | 16.41367 | 96° | 16km/h | 21834m | 5.1m/s | -56.1°C | 4.9% | 0hPa | 2.6V | 00:00:00 | 01:33:59 | 00:00:00 | |
| PETON7-10 | 2026-09-04 00:33:53 | 45.10528 | 16.41351 | 72° | 16km/h | 21814m | 4.4m/s | -56.1°C | 5.0% | 0hPa | 2.6V | 00:00:00 | 00:00:00 | 08:30:00 | |
| 9A1FER-3 | 2026-09-04 00:33:42 | 45.10532 | 16.41280 | 105° | 15km/h | 21761m | 3.8m/s | -55.8°C | 4.9% | 0hPa | 2.6V | 00:00:00 | 01:33:44 | 08:30:00 | |
| PETON7-10 | 2026-09-04 00:33:38 | 45.10532 | 16.41260 | 81° | 13km/h | 21742m | 5.4m/s | -55.7°C | 4.9% | 0hPa | 2.6V | 00:00:00 | 00:00:00 | 00:00:00 | |
| 9A1FER-10 | 2026-09-04 00:33:27 | 45.10536 | 16.41200 | 82° | 11km/h | 21690m | 4.7m/s | -55.4°C | 4.7% | 0hPa | 2.6V | 00:00:00 | 01:33:29 | 00:00:00 | |
| PETON7-10 | 2026-09-04 00:33:23 | 45.10533 | 16.41189 | 53° | 11km/h | 21671m | 5.5m/s | -55.3°C | 4.7% | 0hPa | 2.6V | 00:00:00 | 01:33:25 | 00:00:00 | |
| 9A1FER-3 | 2026-09-04 00:33:12 | 45.10531 | 16.41148 | 101° | 7km/h | 21618m | 5.0m/s | -54.9°C | 4.6% | 0hPa | 2.6V | 00:00:00 | 01:33:14 | 00:00:00 | |
| PETON7-10 | 2026-09-04 00:33:07 | 45.10525 | 16.41137 | 28° | 7km/h | 21595m | 3.3m/s | -54.9°C | 4.5% | 0hPa | 2.6V | 00:00:00 | 00:00:00 | 00:00:00 | |
| OE5DRO-10 | 2026-09-04 00:33:02 | 45.10518 | 16.41125 | 75° | 7km/h | 21572m | 5.0m/s | -55.1°C | 4.7% | 0hPa | 2.6V | 00:00:00 | 00:00:00 | 08:30:00 | |
| 9A1FER-3 | 2026-09-04 00:32:57 | 45.10520 | 16.41115 | 121° | 7km/h | 21548m | 5.8m/s | -55.1°C | 4.6% | 0hPa | 2.6V | 00:00:00 | 01:32:59 | 00:00:00 | |
| PETON7-10 | 2026-09-04 00:32:52 | 45.10523 | 16.41101 | 84° | 7km/h | 21523m | 5.5m/s | -55.4°C | 4.8% | 0hPa | 2.6V | 00:00:00 | 00:00:00 | 00:00:00 | |
| 9A1FER-10 | 2026-09-04 00:32:42 | 45.10508 | 16.41096 | 76° | 5km/h | 21476m | 4.5m/s | -55.1°C | 4.6% | 0hPa | 2.6V | 00:00:00 | 01:32:44 | 00:00:00 | |
| PETON7-10 | 2026-09-04 00:32:37 | 45.10507 | 16.41081 | 60° | 5km/h | 21452m | 4.3m/s | -55.0°C | 4.5% | 0hPa | 2.6V | 00:00:00 | 01:32:39 | 00:00:00 | |
| 9A1FER-3 | 2026-09-04 00:32:27 | 45.10505 | 16.41078 | 141° | 5km/h | 21401m | 4.7m/s | -55.4°C | 4.6% | 0hPa | 2.6V | 00:00:00 | 01:32:29 | 00:00:00 | |
| OE5DRO-10 | 2026-09-04 00:32:23 | 45.10512 | 16.41071 | 120° | 5km/h | 21381m | 5.0m/s | -55.5°C | 4.7% | 0hPa | 2.6V | 00:00:00 | 00:00:00 | 00:00:00 | |
| PETON7-10 | 2026-09-04 00:32:22 | 45.10512 | 16.41069 | 110° | 5km/h | 21376m | 4.5m/s | -55.5°C | 4.6% | 0hPa | 2.6V | 00:00:00 | 00:00:00 | 00:00:00 | |
| 9A1FER-3 | 2026-09-04 00:32:12 | 45.10521 | 16.41062 | 200° | 4km/h | 21328m | 5.1m/s | -55.8°C | 4.7% | 0hPa | 2.7V | 00:00:00 | 01:32:14 | 00:00:00 | |
| PETON7-10 | 2026-09-04 00:32:07 | 45.10527 | 16.41065 | 196° | 4km/h | 21305m | 5.3m/s | -55.9°C | 4.8% | 0hPa | 2.6V | 00:00:00 | 00:00:00 | 00:00:00 | |
| OE5DRO-10 | 2026-09-04 00:32:04 | 45.10526 | 16.41066 | 316° | 4km/h | 21290m | 4.9m/s | -56.0°C | 4.8% | 0hPa | 2.6V | 00:00:00 | 00:00:00 | 00:00:00 | |
| 9A1FER-10 | 2026-09-04 00:31:57 | 45.10524 | 16.41073 | 223° | 5km/h | 21257m | 4.5m/s | -55.8°C | 4.8% | 0hPa | 2.7V | 00:00:00 | 01:31:59 | 00:00:00 | |
| PETON7-10 | 2026-09-04 00:31:52 | 45.10526 | 16.41080 | 217° | 7km/h | 21234m | 5.4m/s | -55.9°C | 4.8% | 0hPa | 2.7V | 00:00:00 | 01:31:54 | 00:00:00 | |
| OE5DRO-10 | 2026-09-04 00:31:45 | 45.10534 | 16.41081 | 202° | 11km/h | 21199m | 4.7m/s | 0°C | 0% | 0hPa | 2.7V | 00:00:00 | 00:00:00 | 00:00:00 | |
| 9A1FER-3 | 2026-09-04 00:31:42 | 45.10540 | 16.41086 | 213° | 11km/h | 21184m | 4.4m/s | -55.9°C | 4.9% | 0hPa | 2.7V | 00:00:00 | 01:31:44 | 00:00:00 | |
| PETON7-10 | 2026-09-04 00:31:37 | 45.10552 | 16.41097 | 203° | 13km/h | 21158m | 5.7m/s | 0°C | 0% | 0hPa | 2.7V | 00:00:00 | 00:00:00 | 08:30:00 | |
| 9A1FER-10 | 2026-09-04 00:31:27 | 45.10576 | 16.41116 | 211° | 15km/h | 21109m | 4.4m/s | -55.7°C | 4.8% | 0hPa | 2.7V | 00:00:00 | 01:31:29 | 08:30:00 | |
| OE5DRO-10 | 2026-09-04 00:31:26 | 45.10580 | 16.41120 | 215° | 16km/h | 21104m | 5.4m/s | 0°C | 0% | 0hPa | 2.6V | 00:00:00 | 00:00:00 | 00:00:00 | |
| PETON7-10 | 2026-09-04 00:31:22 | 45.10595 | 16.41133 | 194° | 15km/h | 21085m | 4.9m/s | 0°C | 0% | 0hPa | 2.6V | 00:00:00 | 00:00:00 | 00:00:00 | |
| 9A1FER-10 | 2026-09-04 00:31:12 | 45.10629 | 16.41132 | 179° | 20km/h | 21035m | 5.5m/s | -55.7°C | 4.7% | 0hPa | 2.6V | 00:00:00 | 01:31:14 | 00:00:00 | |
| PETON7-10 | 2026-09-04 00:31:07 | 45.10652 | 16.41132 | 190° | 22km/h | 21012m | 4.1m/s | 0°C | 0% | 0hPa | 2.6V | 00:00:00 | 01:31:09 | 00:00:00 | |
| 9A1FER-3 | 2026-09-04 00:30:57 | 45.10701 | 16.41106 | 152° | 20km/h | 20962m | 5.2m/s | -56.3°C | 4.9% | 0hPa | 2.6V | 00:00:00 | 01:30:59 | 00:00:00 | |
| PETON7-10 | 2026-09-04 00:30:52 | 45.10726 | 16.41087 | 147° | 18km/h | 20939m | 5.7m/s | 0°C | 0% | 0hPa | 2.6V | 00:00:00 | 00:00:00 | 00:00:00 | |
| OE5DRO-10 | 2026-09-04 00:30:48 | 45.10741 | 16.41065 | 127° | 15km/h | 20919m | 4.8m/s | 0°C | 0% | 0hPa | 2.6V | 00:00:00 | 00:00:00 | 00:00:00 | |
| PETON7-10 | 2026-09-04 00:30:35 | 45.10776 | 16.41012 | 123° | 7km/h | 20855m | 5.1m/s | 0°C | 0% | 0hPa | 2.6V | 00:00:00 | 00:00:00 | 00:00:00 | |
| OE5DRO-10 | 2026-09-04 00:30:29 | 45.10787 | 16.40992 | 137° | 5km/h | 20825m | 5.2m/s | 0°C | 0% | 0hPa | 2.6V | 00:00:00 | 00:00:00 | 00:00:00 | |
| 9A1FER-3 | 2026-09-04 00:30:27 | 45.10789 | 16.40990 | 153° | 5km/h | 20814m | 6.1m/s | -56.2°C | 4.9% | 0hPa | 2.6V | 00:00:00 | 01:30:29 | 00:00:00 | |
| PETON7-10 | 2026-09-04 00:30:19 | 45.10797 | 16.40974 | 112° | 5km/h | 20777m | 4.5m/s | 0°C | 0% | 0hPa | 2.6V | 00:00:00 | 01:30:21 | 00:00:00 | |
| 9A1FER-3 | 2026-09-04 00:30:12 | 45.10795 | 16.40964 | 354° | 7km/h | 20743m | 3.6m/s | -56.1°C | 4.8% | 0hPa | 2.6V | 00:00:00 | 01:30:14 | 00:00:00 | |
| OE5DRO-10 | 2026-09-04 00:30:10 | 45.10794 | 16.40964 | 54° | 5km/h | 20733m | 4.7m/s | 0°C | 0% | 0hPa | 2.6V | 00:00:00 | 00:00:00 | 00:00:00 | |
| PETON7-10 | 2026-09-04 00:30:04 | 45.10790 | 16.40954 | 48° | 5km/h | 20704m | 4.7m/s | 0°C | 0% | 0hPa | 2.6V | 00:00:00 | 00:00:00 | 00:00:00 | |
| 9A1FER-10 | 2026-09-04 00:29:57 | 45.10775 | 16.40946 | 26° | 7km/h | 20670m | 4.5m/s | -56.4°C | 5.0% | 0hPa | 2.6V | 00:00:00 | 01:29:59 | 00:00:00 | |
| 9A1FER-3 | 2026-09-04 00:29:42 | 45.10758 | 16.40944 | 285° | 5km/h | 20598m | 4.9m/s | -56.4°C | 5.0% | 0hPa | 2.6V | 00:00:00 | 01:29:44 | 00:00:00 | |
| PETON7-10 | 2026-09-04 00:29:34 | 45.10753 | 16.40962 | 270° | 2km/h | 20560m | 4.5m/s | 0°C | 0% | 0hPa | 2.6V | 00:00:00 | 00:00:00 | 00:00:00 | |
| 9A1FER-10 | 2026-09-04 00:29:27 | 45.10754 | 16.40966 | 251° | 2km/h | 20526m | 5.1m/s | -56.3°C | 4.8% | 0hPa | 2.6V | 00:00:00 | 01:29:29 | 00:00:00 | |
| PETON7-10 | 2026-09-04 00:29:19 | 45.10755 | 16.40968 | 241° | 7km/h | 20488m | 5.8m/s | 0°C | 0% | 0hPa | 2.6V | 00:00:00 | 01:29:21 | 00:00:00 | |
| 9A1FER-3 | 2026-09-04 00:29:12 | 45.10761 | 16.40965 | 142° | 9km/h | 20454m | 4.4m/s | -56.6°C | 4.9% | 0hPa | 2.6V | 00:00:00 | 01:29:14 | 08:30:00 | |
| PETON7-10 | 2026-09-04 00:28:58 | 45.10786 | 16.40949 | 144° | 16km/h | 20387m | 5.8m/s | 0°C | 0% | 0hPa | 2.6V | 00:00:00 | 00:00:00 | 00:00:00 | |
| 9A1FER-3 | 2026-09-04 00:28:57 | 45.10788 | 16.40947 | 144° | 13km/h | 20382m | 4.3m/s | -56.6°C | 5.0% | 0hPa | 2.6V | 00:00:00 | 01:28:59 | 00:00:00 | |
| 9A1FER-10 | 2026-09-04 00:28:42 | 45.10821 | 16.40902 | 123° | 16km/h | 20311m | 4.5m/s | -56.5°C | 4.8% | 0hPa | 2.6V | 00:00:00 | 01:28:44 | 00:00:00 | |
| 9A1FER-3 | 2026-09-04 00:28:27 | 45.10845 | 16.40824 | 99° | 16km/h | 20240m | 5.6m/s | -57.0°C | 5.1% | 0hPa | 2.6V | 00:00:00 | 01:28:29 | 00:00:00 | |
| 9A1FER-3 | 2026-09-04 00:28:12 | 45.10861 | 16.40738 | 107° | 18km/h | 20166m | 5.6m/s | -57.1°C | 5.2% | 0hPa | 2.6V | 00:00:00 | 01:28:14 | 00:00:00 | |
| 9A1FER-10 | 2026-09-04 00:27:57 | 45.10872 | 16.40641 | 65° | 18km/h | 20092m | 4.8m/s | -56.7°C | 5.0% | 0hPa | 2.6V | 00:00:00 | 01:27:59 | 00:00:00 | |
| 9A1FER-10 | 2026-09-04 00:27:43 | 45.10868 | 16.40545 | 72° | 20km/h | 20018m | 5.8m/s | -57.0°C | 5.3% | 0hPa | 2.6V | 00:00:00 | 01:27:44 | 00:00:00 | |
| 9A1FER-3 | 2026-09-04 00:27:42 | 45.10868 | 16.40545 | 72° | 20km/h | 20018m | 5.8m/s | -57.0°C | 5.3% | 0hPa | 2.6V | 00:00:00 | 01:27:44 | 00:00:00 | |
| 9A1FER-10 | 2026-09-04 00:27:27 | 45.10863 | 16.40442 | 62° | 16km/h | 19939m | 5.1m/s | -56.4°C | 5.0% | 0hPa | 2.7V | 00:00:00 | 01:27:29 | 00:00:00 | |
| 9A1FER-10 | 2026-09-04 00:27:12 | 45.10855 | 16.40361 | 92° | 13km/h | 19866m | 4.6m/s | -56.0°C | 4.9% | 0hPa | 2.7V | 00:00:00 | 01:27:14 | 00:00:00 | |
| 9A1FER-3 | 2026-09-04 00:26:57 | 45.10857 | 16.40290 | 117° | 9km/h | 19789m | 5.5m/s | -56.2°C | 4.9% | 0hPa | 2.7V | 00:00:00 | 01:26:59 | 08:30:00 | |
| 9A1FER-10 | 2026-09-04 00:26:42 | 45.10869 | 16.40241 | 117° | 13km/h | 19718m | 3.3m/s | -56.3°C | 4.9% | 0hPa | 2.7V | 00:00:00 | 01:26:44 | 00:00:00 | |
| 9A1FER-3 | 2026-09-04 00:26:27 | 45.10883 | 16.40173 | 100° | 11km/h | 19651m | 5.0m/s | -56.5°C | 5.1% | 0hPa | 2.7V | 00:00:00 | 01:26:29 | 00:00:00 | |
| 9A1FER-3 | 2026-09-04 00:26:12 | 45.10880 | 16.40114 | 90° | 7km/h | 19582m | 5.4m/s | -56.2°C | 5.0% | 0hPa | 2.7V | 00:00:00 | 01:26:14 | 00:00:00 | |
| 9A1FER-10 | 2026-09-04 00:25:57 | 45.10880 | 16.40078 | 137° | 9km/h | 19508m | 4.9m/s | -55.8°C | 4.9% | 0hPa | 2.7V | 00:00:00 | 01:25:59 | 00:00:00 | |
| 9A1FER-3 | 2026-09-04 00:25:42 | 45.10906 | 16.40043 | 153° | 11km/h | 19436m | 4.0m/s | -55.3°C | 4.8% | 0hPa | 2.7V | 00:00:00 | 01:25:44 | 00:00:00 | |
| 9A1FER-3 | 2026-09-04 00:25:27 | 45.10941 | 16.40013 | 155° | 13km/h | 19368m | 3.6m/s | -55.0°C | 4.6% | 0hPa | 2.7V | 00:00:00 | 01:25:29 | 00:00:00 | |
| 9A1FER-10 | 2026-09-04 00:25:12 | 45.10985 | 16.39990 | 175° | 16km/h | 19298m | 3.8m/s | -55.3°C | 4.7% | 0hPa | 2.7V | 00:00:00 | 01:25:14 | 00:00:00 | |
| 9A1FER-3 | 2026-09-04 00:24:57 | 45.11049 | 16.39967 | 161° | 18km/h | 19228m | 4.9m/s | -55.3°C | 4.7% | 0hPa | 2.7V | 00:00:00 | 01:24:59 | 00:00:00 | |
| 9A1FER-10 | 2026-09-04 00:24:42 | 45.11106 | 16.39921 | 154° | 16km/h | 19161m | 5.1m/s | -55.2°C | 4.6% | 0hPa | 2.7V | 00:00:00 | 01:24:44 | 08:30:00 | |
| 9A1FER-3 | 2026-09-04 00:24:27 | 45.11165 | 16.39880 | 155° | 20km/h | 19093m | 5.5m/s | -55.4°C | 4.6% | 0hPa | 2.7V | 00:00:00 | 01:24:29 | 00:00:00 | |
| 9A1FER-3 | 2026-09-04 00:24:12 | 45.11232 | 16.39829 | 142° | 20km/h | 19029m | 3.7m/s | -56.1°C | 4.9% | 0hPa | 2.7V | 00:00:00 | 01:24:14 | 00:00:00 | |
| 9A1FER-10 | 2026-09-04 00:23:57 | 45.11295 | 16.39769 | 156° | 18km/h | 18962m | 3.9m/s | -56.2°C | 4.9% | 0hPa | 2.7V | 00:00:00 | 01:23:59 | 00:00:00 | |
| 9A1FER-10 | 2026-09-04 00:23:27 | 45.11423 | 16.39653 | 142° | 24km/h | 18824m | 4.1m/s | -56.3°C | 4.9% | 0hPa | 2.7V | 00:00:00 | 01:23:29 | 00:00:00 | |
| 9A1FER-10 | 2026-09-04 00:23:12 | 45.11488 | 16.39567 | 135° | 26km/h | 18756m | 4.2m/s | -56.5°C | 4.9% | 0hPa | 2.7V | 00:00:00 | 01:23:14 | 00:00:00 | |
| 9A1FER-3 | 2026-09-04 00:22:57 | 45.11554 | 16.39463 | 120° | 26km/h | 18687m | 4.1m/s | -57.0°C | 5.1% | 0hPa | 2.7V | 00:00:00 | 01:22:59 | 00:00:00 | |
| 9A1FER-10 | 2026-09-04 00:22:42 | 45.11611 | 16.39361 | 138° | 24km/h | 18618m | 4.0m/s | -56.8°C | 5.1% | 0hPa | 2.7V | 00:00:00 | 01:22:44 | 00:00:00 | |
| 9A1FER-3 | 2026-09-04 00:22:27 | 45.11690 | 16.39293 | 147° | 29km/h | 18548m | 4.0m/s | -56.6°C | 4.9% | 0hPa | 2.7V | 00:00:00 | 01:22:29 | 08:30:00 | |
| 9A1FER-3 | 2026-09-04 00:22:12 | 45.11782 | 16.39202 | 138° | 31km/h | 18478m | 4.2m/s | -56.4°C | 4.8% | 0hPa | 2.7V | 00:00:00 | 01:22:14 | 00:00:00 | |
| 9A1FER-10 | 2026-09-04 00:21:57 | 45.11866 | 16.39090 | 124° | 27km/h | 18410m | 4.3m/s | -57.4°C | 5.2% | 0hPa | 2.7V | 00:00:00 | 01:21:59 | 00:00:00 | |
| 9A1FER-3 | 2026-09-04 00:21:42 | 45.11924 | 16.38971 | 138° | 22km/h | 18343m | 5.2m/s | -57.3°C | 5.2% | 0hPa | 2.7V | 00:00:00 | 01:21:44 | 00:00:00 | |
| 9A1FER-3 | 2026-09-04 00:21:13 | 45.12079 | 16.38832 | 159° | 29km/h | 18203m | 3.8m/s | -56.7°C | 5.1% | 0hPa | 2.7V | 00:00:00 | 01:21:14 | 00:00:00 | |
| 9A1FER-10 | 2026-09-04 00:21:12 | 45.12079 | 16.38832 | 159° | 29km/h | 18203m | 3.8m/s | -56.7°C | 5.1% | 0hPa | 2.7V | 00:00:00 | 01:21:14 | 00:00:00 | |
| 9A1FER-3 | 2026-09-04 00:20:57 | 45.12186 | 16.38784 | 167° | 37km/h | 18135m | 4.1m/s | -56.7°C | 5.0% | 0hPa | 2.7V | 00:00:00 | 01:20:59 | 00:00:00 | |
| 9A1FER-10 | 2026-09-04 00:20:42 | 45.12321 | 16.38728 | 168° | 44km/h | 18069m | 4.0m/s | -57.1°C | 5.1% | 0hPa | 2.7V | 00:00:00 | 01:20:44 | 00:00:00 | |
| 9A1FER-3 | 2026-09-04 00:20:27 | 45.12477 | 16.38642 | 154° | 46km/h | 18001m | 5.0m/s | -57.2°C | 5.1% | 0hPa | 2.7V | 00:00:00 | 01:20:29 | 00:00:00 | |
| 9A1FER-3 | 2026-09-04 00:20:12 | 45.12631 | 16.38523 | 150° | 46km/h | 17933m | 4.0m/s | -58.0°C | 5.4% | 0hPa | 2.7V | 00:00:00 | 01:20:14 | 08:30:00 | |
| 9A1FER-10 | 2026-09-04 00:19:57 | 45.12771 | 16.38391 | 129° | 35km/h | 17864m | 4.4m/s | -58.2°C | 5.3% | 0hPa | 2.6V | 00:00:00 | 01:19:59 | 00:00:00 | |
| 9A1FER-3 | 2026-09-04 00:19:42 | 45.12856 | 16.38248 | 123° | 31km/h | 17791m | 4.2m/s | -59.2°C | 5.8% | 0hPa | 2.6V | 00:00:00 | 01:19:44 | 00:00:00 | |
| 9A1FER-10 | 2026-09-04 00:19:27 | 45.12929 | 16.38116 | 127° | 31km/h | 17722m | 3.5m/s | -58.7°C | 5.7% | 0hPa | 2.6V | 00:00:00 | 01:19:29 | 00:00:00 | |
| 9A1FER-3 | 2026-09-04 00:19:12 | 45.13007 | 16.37993 | 132° | 38km/h | 17652m | 4.8m/s | -58.7°C | 5.7% | 0hPa | 2.6V | 00:00:00 | 01:19:14 | 00:00:00 | |
| 9A1FER-3 | 2026-09-04 00:18:57 | 45.13125 | 16.37878 | 152° | 40km/h | 17577m | 5.8m/s | -58.2°C | 5.6% | 0hPa | 2.6V | 00:00:00 | 01:18:59 | 00:00:00 | |
| 9A1FER-10 | 2026-09-04 00:18:42 | 45.13262 | 16.37790 | 158° | 44km/h | 17502m | 6.1m/s | -57.7°C | 5.5% | 0hPa | 2.6V | 00:00:00 | 01:18:44 | 00:00:00 | |
| 9A1FER-3 | 2026-09-04 00:18:27 | 45.13417 | 16.37694 | 156° | 49km/h | 17425m | 5.5m/s | -57.3°C | 5.3% | 0hPa | 2.6V | 00:00:00 | 01:18:29 | 00:00:00 | |
| 9A1FER-3 | 2026-09-04 00:18:12 | 45.13582 | 16.37579 | 150° | 57km/h | 17352m | 5.2m/s | -57.4°C | 5.3% | 0hPa | 2.6V | 00:00:00 | 01:18:14 | 00:00:00 | |
| 9A1FER-10 | 2026-09-04 00:17:57 | 45.13766 | 16.37409 | 141° | 62km/h | 17281m | 4.9m/s | -57.6°C | 5.4% | 0hPa | 2.6V | 00:00:00 | 01:17:59 | 08:30:00 | |
| 9A1FER-3 | 2026-09-04 00:17:42 | 45.13938 | 16.37178 | 139° | 58km/h | 17215m | 4.6m/s | -57.2°C | 5.3% | 0hPa | 2.6V | 00:00:00 | 01:17:44 | 00:00:00 | |
| 9A1FER-10 | 2026-09-04 00:17:27 | 45.14101 | 16.36962 | 141° | 58km/h | 17152m | 3.5m/s | -56.9°C | 5.3% | 0hPa | 2.6V | 00:00:00 | 01:17:29 | 00:00:00 | |
| 9A1FER-3 | 2026-09-04 00:17:12 | 45.14256 | 16.36739 | 139° | 58km/h | 17092m | 3.8m/s | -56.5°C | 5.1% | 0hPa | 2.6V | 00:00:00 | 01:17:14 | 00:00:00 | |
| 9A1FER-3 | 2026-09-04 00:16:57 | 45.14409 | 16.36514 | 133° | 57km/h | 17032m | 3.3m/s | -56.1°C | 5.1% | 0hPa | 2.7V | 00:00:00 | 01:16:59 | 00:00:00 | |
| 9A1FER-10 | 2026-09-04 00:16:42 | 45.14548 | 16.36288 | 128° | 53km/h | 16973m | 4.8m/s | -56.1°C | 5.1% | 0hPa | 2.7V | 00:00:00 | 01:16:44 | 00:00:00 | |
| 9A1FER-3 | 2026-09-04 00:16:27 | 45.14688 | 16.36089 | 130° | 55km/h | 16911m | 4.2m/s | -56.1°C | 5.1% | 0hPa | 2.7V | 00:00:00 | 01:16:29 | 00:00:00 | |
| 9A1FER-3 | 2026-09-04 00:16:12 | 45.14823 | 16.35868 | 132° | 51km/h | 16851m | 4.8m/s | -56.0°C | 5.0% | 0hPa | 2.6V | 00:00:00 | 01:16:14 | 00:00:00 | |
| 9A1FER-10 | 2026-09-04 00:15:57 | 45.14957 | 16.35665 | 130° | 55km/h | 16787m | 4.1m/s | -56.7°C | 5.2% | 0hPa | 2.6V | 00:00:00 | 01:15:59 | 00:00:00 | |
| 9A1FER-3 | 2026-09-04 00:15:42 | 45.15098 | 16.35445 | 132° | 51km/h | 16723m | 3.8m/s | -57.4°C | 5.5% | 0hPa | 2.6V | 00:00:00 | 01:15:44 | 08:30:00 | |
| 9A1FER-10 | 2026-09-04 00:15:27 | 45.15230 | 16.35240 | 138° | 44km/h | 16655m | 3.6m/s | -57.3°C | 5.7% | 0hPa | 2.6V | 00:00:00 | 01:15:29 | 00:00:00 | |
| 9A1FER-3 | 2026-09-04 00:15:12 | 45.15342 | 16.35068 | 132° | 38km/h | 16587m | 3.7m/s | -57.6°C | 5.8% | 0hPa | 2.6V | 00:00:00 | 01:15:14 | 00:00:00 | |
| 9A1FER-10 | 2026-09-04 00:14:57 | 45.15412 | 16.34890 | 120° | 38km/h | 16519m | 4.5m/s | -57.2°C | 5.6% | 0hPa | 2.6V | 00:00:00 | 01:14:59 | 00:00:00 | |
| 9A1FER-10 | 2026-09-04 00:14:42 | 45.15488 | 16.34713 | 126° | 42km/h | 16458m | 4.5m/s | -57.8°C | 5.8% | 0hPa | 2.6V | 00:00:00 | 01:14:44 | 00:00:00 | |
| 9A1FER-3 | 2026-09-04 00:14:27 | 45.15582 | 16.34532 | 120° | 44km/h | 16396m | 3.8m/s | -58.5°C | 6.1% | 0hPa | 2.6V | 00:00:00 | 01:14:29 | 00:00:00 | |
| 9A1FER-3 | 2026-09-04 00:14:12 | 45.15669 | 16.34330 | 121° | 42km/h | 16334m | 4.9m/s | -58.3°C | 6.1% | 0hPa | 2.6V | 00:00:00 | 01:14:14 | 00:00:00 | |
| 9A1FER-3 | 2026-09-04 00:13:42 | 45.15840 | 16.33956 | 130° | 46km/h | 16207m | 4.6m/s | -58.1°C | 6.1% | 0hPa | 2.7V | 00:00:00 | 01:13:44 | 00:00:00 | |
| 9A1FER-10 | 2026-09-04 00:13:27 | 45.15951 | 16.33762 | 127° | 47km/h | 16143m | 4.9m/s | -58.1°C | 6.2% | 0hPa | 2.7V | 00:00:00 | 01:13:29 | 08:30:00 | |
| 9A1FER-3 | 2026-09-04 00:13:12 | 45.16070 | 16.33577 | 134° | 47km/h | 16080m | 4.4m/s | -58.2°C | 6.4% | 0hPa | 2.7V | 00:00:00 | 01:13:14 | 00:00:00 | |
| 9A1FER-3 | 2026-09-04 00:12:57 | 45.16188 | 16.33386 | 128° | 55km/h | 16014m | 3.7m/s | -57.8°C | 6.1% | 0hPa | 2.7V | 00:00:00 | 01:12:59 | 00:00:00 | |
| 9A1FER-10 | 2026-09-04 00:12:42 | 45.16317 | 16.33151 | 120° | 57km/h | 15951m | 3.5m/s | -58.7°C | 6.5% | 0hPa | 2.7V | 00:00:00 | 01:12:44 | 00:00:00 | |
| 9A1FER-3 | 2026-09-04 00:12:27 | 45.16427 | 16.32887 | 123° | 51km/h | 15890m | 4.0m/s | -58.4°C | 6.4% | 0hPa | 2.6V | 00:00:00 | 01:12:29 | 00:00:00 | |
| 9A1FER-3 | 2026-09-04 00:12:12 | 45.16523 | 16.32647 | 124° | 47km/h | 15829m | 3.8m/s | -58.0°C | 6.3% | 0hPa | 2.6V | 00:00:00 | 01:12:14 | 00:00:00 | |
| 9A1FER-10 | 2026-09-04 00:11:57 | 45.16611 | 16.32427 | 125° | 44km/h | 15765m | 4.1m/s | -57.4°C | 6.1% | 0hPa | 2.6V | 00:00:00 | 01:11:59 | 00:00:00 | |
| 9A1FER-3 | 2026-09-04 00:11:42 | 45.16703 | 16.32229 | 125° | 44km/h | 15698m | 3.8m/s | -56.9°C | 5.9% | 0hPa | 2.7V | 00:00:00 | 01:11:44 | 00:00:00 | |
| 9A1FER-10 | 2026-09-04 00:11:27 | 45.16797 | 16.32041 | 135° | 38km/h | 15629m | 5.1m/s | -56.4°C | 5.8% | 0hPa | 2.7V | 00:00:00 | 01:11:29 | 00:00:00 | |
| 9A1FER-3 | 2026-09-04 00:11:12 | 45.16893 | 16.31882 | 140° | 37km/h | 15561m | 4.6m/s | -55.8°C | 5.6% | 0hPa | 2.7V | 00:00:00 | 01:11:14 | 08:30:00 | |
| 9A1FER-3 | 2026-09-04 00:10:57 | 45.16993 | 16.31744 | 140° | 37km/h | 15494m | 3.6m/s | -55.3°C | 5.5% | 0hPa | 2.7V | 00:00:00 | 01:10:59 | 00:00:00 | |
| 9A1FER-10 | 2026-09-04 00:10:42 | 45.17096 | 16.31617 | 138° | 37km/h | 15429m | 3.4m/s | -55.3°C | 5.4% | 0hPa | 2.7V | 00:00:00 | 01:10:44 | 00:00:00 | |
| 9A1FER-3 | 2026-09-04 00:10:27 | 45.17206 | 16.31503 | 148° | 35km/h | 15362m | 3.6m/s | -55.3°C | 5.5% | 0hPa | 2.7V | 00:00:00 | 01:10:29 | 00:00:00 | |
| 9A1FER-3 | 2026-09-04 00:10:12 | 45.17313 | 16.31394 | 135° | 35km/h | 15299m | 4.0m/s | -55.4°C | 5.5% | 0hPa | 2.6V | 00:00:00 | 01:10:14 | 00:00:00 | |
| 9A1FER-3 | 2026-09-04 00:09:42 | 45.17534 | 16.31170 | 156° | 42km/h | 15172m | 3.8m/s | -55.6°C | 5.5% | 0hPa | 2.6V | 00:00:00 | 01:09:44 | 00:00:00 | |
| 9A1FER-10 | 2026-09-04 00:09:27 | 45.17679 | 16.31068 | 150° | 40km/h | 15111m | 3.6m/s | -55.2°C | 5.3% | 0hPa | 2.7V | 00:00:00 | 01:09:29 | 00:00:00 | |
| 9A1FER-3 | 2026-09-04 00:09:12 | 45.17812 | 16.30965 | 147° | 49km/h | 15048m | 4.1m/s | -54.9°C | 5.5% | 0hPa | 2.7V | 00:00:00 | 01:09:14 | 00:00:00 | |
| 9A1FER-3 | 2026-09-04 00:08:57 | 45.17976 | 16.30832 | 153° | 51km/h | 14972m | 4.7m/s | -54.1°C | 5.2% | 0hPa | 2.7V | 00:00:00 | 01:08:59 | 08:30:00 | |
| 9A1FER-10 | 2026-09-04 00:08:42 | 45.18130 | 16.30673 | 156° | 60km/h | 14893m | 4.4m/s | -53.9°C | 4.8% | 0hPa | 2.7V | 00:00:00 | 01:08:44 | 00:00:00 | |
| 9A1FER-3 | 2026-09-04 00:08:27 | 45.18327 | 16.30510 | 148° | 64km/h | 14821m | 4.1m/s | -54.6°C | 5.1% | 0hPa | 2.7V | 00:00:00 | 01:08:29 | 00:00:00 | |
| 9A1FER-3 | 2026-09-04 00:08:12 | 45.18536 | 16.30337 | 151° | 75km/h | 14755m | 3.8m/s | -55.2°C | 5.3% | 0hPa | 2.7V | 00:00:00 | 01:08:14 | 00:00:00 | |
| 9A1FER-10 | 2026-09-04 00:07:57 | 45.18777 | 16.30130 | 150° | 88km/h | 14692m | 3.7m/s | -56.0°C | 5.6% | 0hPa | 2.7V | 00:00:00 | 01:07:59 | 00:00:00 | |
| 9A1FER-3 | 2026-09-04 00:07:42 | 45.19058 | 16.29884 | 146° | 82km/h | 14632m | 4.5m/s | -56.1°C | 5.7% | 0hPa | 2.7V | 00:00:00 | 01:07:44 | 00:00:00 | |
| 9A1FER-10 | 2026-09-04 00:07:27 | 45.19312 | 16.29625 | 146° | 88km/h | 14572m | 4.3m/s | -56.6°C | 5.8% | 0hPa | 2.7V | 00:00:00 | 01:07:29 | 00:00:00 | |
| 9A1FER-10 | 2026-09-04 00:07:12 | 45.19599 | 16.29377 | 150° | 104km/h | 14509m | 5.3m/s | -57.3°C | 6.1% | 0hPa | 2.7V | 00:00:00 | 01:07:14 | 00:00:00 | |
| 9A1FER-3 | 2026-09-04 00:06:57 | 45.19932 | 16.29084 | 147° | 99km/h | 14450m | 4.6m/s | -57.1°C | 6.2% | 0hPa | 2.7V | 00:00:00 | 01:06:59 | 00:00:00 | |
| 9A1FER-10 | 2026-09-04 00:06:42 | 45.20238 | 16.28777 | 143° | 91km/h | 14388m | 3.5m/s | -57.0°C | 6.1% | 0hPa | 2.7V | 00:00:00 | 01:06:44 | 08:30:00 | |
| 9A1FER-3 | 2026-09-04 00:06:27 | 45.20503 | 16.28460 | 136° | 91km/h | 14323m | 4.4m/s | -57.5°C | 6.3% | 0hPa | 2.7V | 00:00:00 | 01:06:29 | 00:00:00 | |
| 9A1FER-3 | 2026-09-04 00:06:12 | 45.20765 | 16.28145 | 138° | 91km/h | 14259m | 3.4m/s | -58.0°C | 6.8% | 0hPa | 2.7V | 00:00:00 | 01:06:14 | 00:00:00 | |
| 9A1FER-10 | 2026-09-04 00:05:57 | 45.21023 | 16.27815 | 139° | 86km/h | 14199m | 4.0m/s | -58.3°C | 7.4% | 0hPa | 2.7V | 00:00:00 | 01:05:59 | 00:00:00 | |
| 9A1FER-3 | 2026-09-04 00:05:42 | 45.21268 | 16.27516 | 145° | 84km/h | 14138m | 3.7m/s | -58.3°C | 7.7% | 0hPa | 2.7V | 00:00:00 | 01:05:44 | 00:00:00 | |
| 9A1FER-3 | 2026-09-04 00:05:27 | 45.21527 | 16.27260 | 149° | 88km/h | 14071m | 4.0m/s | -58.5°C | 8.2% | 0hPa | 2.7V | 00:00:00 | 01:05:29 | 00:00:00 | |
| 9A1FER-3 | 2026-09-04 00:05:13 | 45.21818 | 16.27040 | 157° | 104km/h | 13986m | 6.6m/s | -59.4°C | 9.4% | 0hPa | 2.7V | 00:00:00 | 01:05:14 | 00:00:00 | |
| 9A1FER-10 | 2026-09-04 00:05:12 | 45.21818 | 16.27040 | 157° | 104km/h | 13986m | 6.6m/s | -59.4°C | 9.4% | 0hPa | 2.7V | 00:00:00 | 01:05:14 | 00:00:00 | |
| 9A1FER-3 | 2026-09-04 00:04:57 | 45.22185 | 16.26825 | 161° | 113km/h | 13903m | 5.1m/s | -59.8°C | 10.8% | 0hPa | 2.7V | 00:00:00 | 01:04:59 | 00:00:00 | |
| 9A1FER-10 | 2026-09-04 00:04:43 | 45.22577 | 16.26586 | 158° | 117km/h | 13839m | 4.5m/s | -60.0°C | 12.0% | 0hPa | 2.7V | 00:00:00 | 01:04:44 | 00:00:00 | |
| 9A1FER-3 | 2026-09-04 00:04:27 | 45.22979 | 16.26320 | 154° | 117km/h | 13780m | 3.1m/s | -60.3°C | 13.3% | 0hPa | 2.7V | 00:00:00 | 01:04:29 | 08:30:00 | |
| OE3JTB-15 | 2026-09-04 00:04:16 | 45.23264 | 16.26108 | 152° | 115km/h | 13737m | 4.0m/s | -60.6°C | 14.2% | 0hPa | 2.7V | 00:00:00 | 01:04:18 | 00:00:00 | |
| 9A1FER-3 | 2026-09-04 00:04:12 | 45.23371 | 16.26026 | 152° | 115km/h | 13722m | 4.6m/s | -60.5°C | 14.3% | 0hPa | 2.7V | 00:00:00 | 01:04:14 | 00:00:00 | |
| 9A1FER-10 | 2026-09-04 00:03:57 | 45.23748 | 16.25715 | 151° | 113km/h | 13662m | 4.1m/s | -60.5°C | 15.2% | 0hPa | 2.7V | 00:00:00 | 01:03:59 | 00:00:00 | |
| OE3JTB-15 | 2026-09-04 00:03:47 | 45.23994 | 16.25511 | 147° | 111km/h | 13621m | 4.0m/s | 0°C | 0% | 0hPa | 2.7V | 00:00:00 | 00:00:00 | 00:00:00 | |
| 9A1FER-3 | 2026-09-04 00:03:42 | 45.24112 | 16.25401 | 148° | 110km/h | 13600m | 3.2m/s | -60.4°C | 17.1% | 0hPa | 2.7V | 00:00:00 | 01:03:44 | 00:00:00 | |
| 9A1FER-3 | 2026-09-04 00:03:27 | 45.24463 | 16.25084 | 147° | 108km/h | 13538m | 4.6m/s | -61.2°C | 21.3% | 0hPa | 2.7V | 00:00:00 | 01:03:29 | 00:00:00 | |
| OE3JTB-15 | 2026-09-04 00:03:18 | 45.24679 | 16.24897 | 149° | 110km/h | 13501m | 3.3m/s | 0°C | 0% | 0hPa | 2.7V | 00:00:00 | 00:00:00 | 00:00:00 | |
| 9A1FER-10 | 2026-09-04 00:03:12 | 45.24807 | 16.24774 | 146° | 102km/h | 13475m | 5.0m/s | -61.0°C | 24.9% | 0hPa | 2.7V | 00:00:00 | 01:03:14 | 00:00:00 | |
| 9A1FER-10 | 2026-09-04 00:02:15 | 45.26825 | 16.23864 | 165° | 120km/h | 13071m | 5.0m/s | -61.7°C | 37.0% | 0hPa | 2.7V | 00:00:00 | 01:01:59 | 00:00:00 | |
| 9A1FER-10 | 2026-09-04 00:01:56 | 45.27265 | 16.23695 | 166° | 117km/h | 13001m | 4.1m/s | -61.8°C | 38.9% | 0hPa | 2.7V | 00:00:00 | 01:01:44 | 00:00:00 | |
| 9A1FER-3 | 2026-09-04 00:01:55 | 45.27265 | 16.23695 | 166° | 117km/h | 13001m | 4.1m/s | -61.8°C | 38.9% | 0hPa | 2.7V | 00:00:00 | 01:01:44 | 00:00:00 | |
| OE3JTB-15 | 2026-09-04 00:01:40 | 45.27523 | 16.23603 | 166° | 119km/h | 12957m | 4.4m/s | 0°C | 0% | 0hPa | 2.7V | 00:00:00 | 01:01:35 | 00:00:00 | |
| 9A1FER-3 | 2026-09-04 00:01:34 | 45.27697 | 16.23548 | 168° | 117km/h | 12929m | 4.7m/s | -61.5°C | 37.7% | 0hPa | 2.7V | 00:00:00 | 01:01:29 | 00:00:00 | |
| 9A1FER-3 | 2026-09-04 00:01:15 | 45.28133 | 16.23422 | 171° | 120km/h | 12857m | 4.6m/s | -61.0°C | 36.6% | 0hPa | 2.7V | 00:00:00 | 01:01:14 | 00:00:00 | |
| 9A1FER-10 | 2026-09-04 00:01:14 | 45.28133 | 16.23422 | 171° | 120km/h | 12857m | 4.6m/s | -61.0°C | 36.6% | 0hPa | 2.7V | 00:00:00 | 01:01:14 | 00:00:00 | |
| 9A1FER-10 | 2026-09-04 00:00:58 | 45.28581 | 16.23318 | 173° | 124km/h | 12784m | 3.2m/s | -60.5°C | 36.2% | 0hPa | 2.7V | 00:00:00 | 01:00:59 | 00:00:00 | |
| 9A1FER-10 | 2026-09-04 00:00:42 | 45.29049 | 16.23223 | 172° | 128km/h | 12709m | 5.0m/s | -59.8°C | 34.9% | 0hPa | 2.7V | 00:00:00 | 01:00:44 | 00:00:00 | |
| 9A1FER-3 | 2026-09-04 00:00:32 | 45.29534 | 16.23143 | 172° | 130km/h | 12635m | 3.8m/s | -59.2°C | 36.4% | 0hPa | 2.7V | 00:00:00 | 01:00:29 | 00:00:00 | |
| 9A1FER-3 | 2026-09-04 00:00:12 | 45.30024 | 16.23063 | 173° | 131km/h | 12564m | 4.0m/s | -58.7°C | 40.5% | 0hPa | 2.7V | 00:00:00 | 01:00:14 | 00:00:00 | |
| 9A1FER-10 | 2026-09-03 23:59:57 | 45.30524 | 16.23005 | 175° | 144km/h | 12484m | 4.3m/s | -58.6°C | 46.8% | 0hPa | 2.7V | 00:00:00 | 00:59:59 | 08:30:00 | |
| 9A1FER-3 | 2026-09-03 23:59:42 | 45.31069 | 16.22933 | 174° | 162km/h | 12403m | 6.8m/s | -60.7°C | 55.8% | 0hPa | 2.7V | 00:00:00 | 00:59:44 | 00:00:00 | |
| 9A1FER-3 | 2026-09-03 23:59:27 | 45.31672 | 16.22782 | 169° | 155km/h | 12332m | 4.4m/s | -61.4°C | 62.5% | 0hPa | 2.7V | 00:00:00 | 00:59:29 | 00:00:00 | |
| 9A1FER-10 | 2026-09-03 23:59:12 | 45.32254 | 16.22633 | 172° | 153km/h | 12273m | 3.4m/s | -61.1°C | 64.2% | 0hPa | 2.7V | 00:00:00 | 00:59:14 | 00:00:00 | |
| 9A1FER-3 | 2026-09-03 23:58:57 | 45.32827 | 16.22522 | 174° | 151km/h | 12213m | 3.3m/s | -61.1°C | 64.4% | 0hPa | 2.7V | 00:00:00 | 00:58:59 | 00:00:00 | |
| 9A1FER-10 | 2026-09-03 23:58:42 | 45.33397 | 16.22438 | 175° | 150km/h | 12155m | 3.8m/s | -60.6°C | 66.9% | 0hPa | 2.7V | 00:00:00 | 00:58:44 | 00:00:00 | |
| 9A1FER-3 | 2026-09-03 23:58:27 | 45.33964 | 16.22380 | 177° | 151km/h | 12098m | 1.6m/s | -60.1°C | 66.9% | 0hPa | 2.7V | 00:00:00 | 00:58:29 | 00:00:00 | |
| 9A1FER-3 | 2026-09-03 23:58:12 | 45.34538 | 16.22325 | 177° | 153km/h | 12040m | 3.9m/s | -59.8°C | 66.1% | 0hPa | 2.7V | 00:00:00 | 00:58:14 | 00:00:00 | |
| 9A1FER-10 | 2026-09-03 23:57:57 | 45.35119 | 16.22289 | 180° | 155km/h | 11986m | 4.4m/s | -59.4°C | 66.4% | 0hPa | 2.7V | 00:00:00 | 00:57:59 | 00:00:00 | |
| 9A1FER-3 | 2026-09-03 23:57:42 | 45.35708 | 16.22270 | 179° | 155km/h | 11927m | 3.7m/s | -58.8°C | 67.4% | 0hPa | 2.7V | 00:00:00 | 00:57:44 | 08:30:00 | |
| 9A1FER-3 | 2026-09-03 23:57:27 | 45.36300 | 16.22244 | 179° | 157km/h | 11870m | 4.9m/s | -58.4°C | 68.3% | 0hPa | 2.7V | 00:00:00 | 00:57:29 | 00:00:00 | |
| 9A1FER-10 | 2026-09-03 23:57:12 | 45.36897 | 16.22223 | 178° | 157km/h | 11812m | 3.9m/s | -57.8°C | 69.6% | 0hPa | 2.7V | 00:00:00 | 00:57:14 | 00:00:00 | |
| 9A1FER-3 | 2026-09-03 23:56:57 | 45.37489 | 16.22187 | 177° | 155km/h | 11752m | 4.8m/s | -57.3°C | 71.7% | 0hPa | 2.7V | 00:00:00 | 00:56:59 | 00:00:00 | |
| 9A1FER-10 | 2026-09-03 23:56:42 | 45.38080 | 16.22139 | 176° | 153km/h | 11694m | 3.0m/s | -56.9°C | 72.6% | 0hPa | 2.7V | 00:00:00 | 00:56:44 | 00:00:00 | |
| 9A1FER-3 | 2026-09-03 23:56:27 | 45.38663 | 16.22091 | 177° | 151km/h | 11638m | 4.4m/s | -56.5°C | 72.3% | 0hPa | 2.7V | 00:00:00 | 00:56:29 | 00:00:00 | |
| 9A1FER-3 | 2026-09-03 23:56:12 | 45.39239 | 16.22043 | 177° | 150km/h | 11580m | 3.7m/s | -56.0°C | 72.9% | 0hPa | 2.7V | 00:00:00 | 00:56:14 | 00:00:00 | |
| 9A1FER-10 | 2026-09-03 23:55:57 | 45.39803 | 16.21998 | 177° | 148km/h | 11518m | 4.0m/s | -55.4°C | 69.7% | 0hPa | 2.7V | 00:00:00 | 00:55:59 | 00:00:00 | |
| 9A1FER-3 | 2026-09-03 23:55:42 | 45.40365 | 16.21965 | 178° | 146km/h | 11454m | 2.7m/s | -54.9°C | 64.7% | 0hPa | 2.7V | 00:00:00 | 00:55:44 | 00:00:00 | |
| 9A1FER-3 | 2026-09-03 23:55:27 | 45.40915 | 16.21938 | 178° | 141km/h | 11385m | 4.2m/s | -54.2°C | 59.1% | 0hPa | 2.7V | 00:00:00 | 00:55:29 | 08:30:00 | |
| 9A1FER-10 | 2026-09-03 23:55:12 | 45.41447 | 16.21893 | 177° | 141km/h | 11313m | 5.5m/s | -53.6°C | 52.2% | 0hPa | 2.7V | 00:00:00 | 00:55:14 | 00:00:00 | |
| 9A1FER-3 | 2026-09-03 23:54:57 | 45.41979 | 16.21851 | 178° | 141km/h | 11247m | 4.0m/s | -53.0°C | 46.0% | 0hPa | 2.7V | 00:00:00 | 00:54:59 | 00:00:00 | |
| 9A1FER-10 | 2026-09-03 23:54:42 | 45.42514 | 16.21812 | 176° | 137km/h | 11182m | 5.5m/s | -52.4°C | 39.3% | 0hPa | 2.7V | 00:00:00 | 00:54:44 | 00:00:00 | |
| 9A1FER-3 | 2026-09-03 23:54:27 | 45.43035 | 16.21772 | 177° | 133km/h | 11113m | 5.3m/s | -51.9°C | 38.9% | 0hPa | 2.7V | 00:00:00 | 00:54:29 | 00:00:00 | |
| 9A1FER-3 | 2026-09-03 23:54:12 | 45.43539 | 16.21730 | 177° | 133km/h | 11047m | 4.8m/s | -51.3°C | 39.4% | 0hPa | 2.7V | 00:00:00 | 00:54:14 | 00:00:00 | |
| 9A1FER-10 | 2026-09-03 23:53:57 | 45.44046 | 16.21690 | 177° | 131km/h | 10980m | 4.5m/s | -50.7°C | 40.1% | 0hPa | 2.7V | 00:00:00 | 00:53:59 | 00:00:00 | |
| 9A1FER-3 | 2026-09-03 23:53:42 | 45.44543 | 16.21654 | 177° | 131km/h | 10918m | 4.3m/s | -50.2°C | 42.1% | 0hPa | 2.9V | 00:00:00 | 00:53:44 | 00:00:00 | |
| 9A1FER-3 | 2026-09-03 23:53:27 | 45.45041 | 16.21603 | 174° | 128km/h | 10844m | 5.6m/s | -49.6°C | 41.6% | 0hPa | 2.9V | 00:00:00 | 00:53:29 | 00:00:00 | |
| 9A1FER-10 | 2026-09-03 23:53:12 | 45.45525 | 16.21528 | 172° | 131km/h | 10775m | 5.5m/s | -48.9°C | 39.5% | 0hPa | 2.9V | 00:00:00 | 00:53:14 | 08:30:00 | |
| 9A1FER-3 | 2026-09-03 23:52:57 | 45.46018 | 16.21434 | 173° | 128km/h | 10700m | 4.3m/s | -48.1°C | 36.5% | 0hPa | 2.9V | 00:00:00 | 00:52:59 | 00:00:00 | |
| 9A1FER-10 | 2026-09-03 23:52:42 | 45.46496 | 16.21351 | 175° | 124km/h | 10619m | 5.4m/s | -47.4°C | 35.0% | 0hPa | 2.9V | 00:00:00 | 00:52:44 | 00:00:00 | |
| 9A1FER-3 | 2026-09-03 23:52:27 | 45.46964 | 16.21280 | 178° | 126km/h | 10539m | 6.1m/s | -46.6°C | 35.5% | 0hPa | 2.9V | 00:00:00 | 00:52:29 | 00:00:00 | |
| 9A1FER-3 | 2026-09-03 23:52:12 | 45.47450 | 16.21174 | 171° | 126km/h | 10443m | 5.6m/s | -45.7°C | 34.1% | 0hPa | 2.9V | 00:00:00 | 00:52:14 | 00:00:00 | |
| 9A1FER-10 | 2026-09-03 23:51:57 | 45.47904 | 16.21064 | 170° | 126km/h | 10349m | 4.1m/s | -44.9°C | 31.8% | 0hPa | 2.9V | 00:00:00 | 00:51:59 | 00:00:00 | |
| 9A1FER-3 | 2026-09-03 23:51:42 | 45.48373 | 16.20928 | 170° | 122km/h | 10268m | 5.3m/s | -44.1°C | 30.0% | 0hPa | 2.9V | 00:00:00 | 00:51:44 | 00:00:00 | |
| 9A1FER-3 | 2026-09-03 23:51:27 | 45.48830 | 16.20793 | 169° | 122km/h | 10193m | 4.7m/s | -43.5°C | 30.4% | 0hPa | 2.9V | 00:00:00 | 00:51:29 | 00:00:00 | |
| 9A1FER-10 | 2026-09-03 23:51:12 | 45.49279 | 16.20642 | 169° | 120km/h | 10120m | 5.1m/s | -42.8°C | 33.0% | 0hPa | 2.9V | 00:00:00 | 00:51:14 | 00:00:00 | |
| 9A1FER-3 | 2026-09-03 23:50:57 | 45.49722 | 16.20494 | 167° | 119km/h | 10055m | 4.5m/s | -42.3°C | 39.0% | 0hPa | 2.9V | 00:00:00 | 00:50:59 | 08:30:00 | |
| 9A1FER-10 | 2026-09-03 23:50:42 | 45.50155 | 16.20334 | 165° | 117km/h | 9987m | 5.3m/s | -41.8°C | 45.5% | 0hPa | 2.9V | 00:00:00 | 00:50:44 | 00:00:00 | |
| 9A1FER-3 | 2026-09-03 23:50:27 | 45.50582 | 16.20164 | 165° | 115km/h | 9921m | 5.2m/s | -41.3°C | 45.0% | 0hPa | 2.9V | 00:00:00 | 00:50:29 | 00:00:00 | |
| 9A1FER-3 | 2026-09-03 23:50:12 | 45.51007 | 16.20004 | 165° | 115km/h | 9855m | 3.6m/s | -40.7°C | 46.7% | 0hPa | 2.9V | 00:00:00 | 00:50:14 | 00:00:00 | |
| 9A1FER-10 | 2026-09-03 23:49:57 | 45.51429 | 16.19857 | 166° | 117km/h | 9794m | 3.9m/s | -40.1°C | 47.6% | 0hPa | 2.9V | 00:00:00 | 00:49:59 | 00:00:00 | |
| 9A1FER-3 | 2026-09-03 23:49:42 | 45.51857 | 16.19709 | 166° | 117km/h | 9727m | 4.6m/s | -39.5°C | 46.9% | 0hPa | 2.9V | 00:00:00 | 00:49:44 | 00:00:00 | |
| 9A1FER-3 | 2026-09-03 23:49:27 | 45.52285 | 16.19561 | 166° | 115km/h | 9666m | 3.8m/s | -39.0°C | 46.1% | 0hPa | 2.9V | 00:00:00 | 00:49:29 | 00:00:00 | |
| 9A1FER-10 | 2026-09-03 23:49:12 | 45.52708 | 16.19422 | 168° | 115km/h | 9603m | 3.2m/s | -38.4°C | 49.6% | 0hPa | 2.9V | 00:00:00 | 00:49:14 | 00:00:00 | |
| 9A1FER-3 | 2026-09-03 23:48:57 | 45.53133 | 16.19285 | 168° | 115km/h | 9541m | 3.9m/s | -37.8°C | 49.1% | 0hPa | 2.9V | 00:00:00 | 00:48:59 | 00:00:00 | |
| 9A1FER-10 | 2026-09-03 23:48:42 | 45.53556 | 16.19141 | 167° | 115km/h | 9481m | 3.3m/s | -37.3°C | 50.0% | 0hPa | 2.9V | 00:00:00 | 00:48:44 | 08:30:00 | |
| 9A1FER-3 | 2026-09-03 23:48:27 | 45.53982 | 16.18997 | 168° | 113km/h | 9419m | 4.3m/s | -36.7°C | 49.0% | 0hPa | 2.9V | 00:00:00 | 00:48:29 | 00:00:00 | |
| 9A1FER-3 | 2026-09-03 23:48:12 | 45.54400 | 16.18870 | 168° | 113km/h | 9358m | 4.7m/s | -36.2°C | 43.3% | 0hPa | 2.9V | 00:00:00 | 00:48:14 | 00:00:00 | |
| 9A1FER-10 | 2026-09-03 23:47:57 | 45.54821 | 16.18738 | 169° | 110km/h | 9296m | 3.5m/s | -35.7°C | 44.9% | 0hPa | 2.9V | 00:00:00 | 00:47:59 | 00:00:00 | |
| 9A1FER-3 | 2026-09-03 23:47:42 | 45.55229 | 16.18618 | 169° | 108km/h | 9237m | 4.0m/s | -35.4°C | 53.6% | 0hPa | 2.7V | 00:00:00 | 00:47:44 | 00:00:00 | |
| 9A1FER-3 | 2026-09-03 23:47:27 | 45.55632 | 16.18509 | 168° | 110km/h | 9177m | 3.0m/s | -34.8°C | 53.7% | 0hPa | 2.7V | 00:00:00 | 00:47:29 | 00:00:00 | |
| 9A1FER-10 | 2026-09-03 23:47:12 | 45.56038 | 16.18390 | 166° | 111km/h | 9115m | 4.9m/s | -34.3°C | 55.0% | 0hPa | 2.7V | 00:00:00 | 00:47:14 | 00:00:00 | |
| 9A1FER-10 | 2026-09-03 23:46:42 | 45.56855 | 16.18084 | 168° | 111km/h | 8986m | 4.1m/s | -33.2°C | 55.3% | 0hPa | 2.9V | 00:00:00 | 00:46:44 | 00:00:00 | |
| 9A1FER-3 | 2026-09-03 23:46:27 | 45.57261 | 16.17919 | 163° | 108km/h | 8924m | 4.2m/s | -32.9°C | 49.4% | 0hPa | 2.9V | 00:00:00 | 00:46:29 | 08:30:00 | |
| 9A1FER-3 | 2026-09-03 23:46:12 | 45.57649 | 16.17748 | 163° | 102km/h | 8856m | 4.7m/s | -32.3°C | 45.0% | 0hPa | 2.9V | 00:00:00 | 00:46:14 | 00:00:00 | |
| 9A1FER-10 | 2026-09-03 23:45:57 | 45.58021 | 16.17579 | 163° | 100km/h | 8778m | 4.3m/s | -31.6°C | 42.0% | 0hPa | 2.9V | 00:00:00 | 00:45:59 | 00:00:00 | |
| 9A1FER-3 | 2026-09-03 23:45:42 | 45.58390 | 16.17424 | 165° | 104km/h | 8700m | 5.6m/s | -30.9°C | 38.9% | 0hPa | 2.9V | 00:00:00 | 00:45:44 | 00:00:00 | |
| 9A1FER-3 | 2026-09-03 23:45:27 | 45.58763 | 16.17245 | 162° | 100km/h | 8627m | 2.6m/s | -30.3°C | 40.1% | 0hPa | 2.9V | 00:00:00 | 00:45:29 | 00:00:00 | |
| 9A1FER-10 | 2026-09-03 23:45:12 | 45.59123 | 16.17071 | 163° | 99km/h | 8555m | 7.1m/s | -29.6°C | 38.1% | 0hPa | 2.9V | 00:00:00 | 00:45:14 | 00:00:00 | |
| 9A1FER-3 | 2026-09-03 23:44:57 | 45.59478 | 16.16908 | 163° | 97km/h | 8477m | 5.4m/s | -28.8°C | 36.8% | 0hPa | 2.9V | 00:00:00 | 00:44:59 | 00:00:00 | |
| 9A1FER-10 | 2026-09-03 23:44:42 | 45.59825 | 16.16739 | 161° | 100km/h | 8404m | 3.0m/s | -28.2°C | 34.7% | 0hPa | 2.9V | 00:00:00 | 00:44:44 | 00:00:00 | |
| 9A1FER-3 | 2026-09-03 23:44:27 | 45.60184 | 16.16565 | 161° | 95km/h | 8335m | 4.8m/s | -27.5°C | 32.6% | 0hPa | 2.9V | 00:00:00 | 00:44:29 | 00:00:00 | |
| 9A1FER-3 | 2026-09-03 23:44:12 | 45.60528 | 16.16408 | 162° | 95km/h | 8276m | 5.0m/s | -27.0°C | 32.5% | 0hPa | 2.9V | 00:00:00 | 00:44:14 | 08:30:00 | |
| 9A1FER-10 | 2026-09-03 23:43:57 | 45.60867 | 16.16234 | 163° | 93km/h | 8213m | 3.6m/s | -26.4°C | 27.8% | 0hPa | 2.9V | 00:00:00 | 00:43:59 | 00:00:00 | |
| 9A1FER-3 | 2026-09-03 23:43:42 | 45.61198 | 16.16064 | 160° | 97km/h | 8154m | 4.3m/s | -25.9°C | 26.8% | 0hPa | 2.9V | 00:00:00 | 00:43:44 | 00:00:00 | |
| 9A1FER-3 | 2026-09-03 23:43:27 | 45.61540 | 16.15877 | 157° | 97km/h | 8096m | 2.7m/s | -25.3°C | 25.7% | 0hPa | 2.9V | 00:00:00 | 00:43:29 | 00:00:00 | |
| 9A1FER-3 | 2026-09-03 23:42:57 | 45.62204 | 16.15486 | 154° | 93km/h | 7950m | 2.3m/s | -24.5°C | 42.4% | 0hPa | 2.9V | 00:00:00 | 00:42:59 | 00:00:00 | |
| 9A1FER-10 | 2026-09-03 23:42:42 | 45.62521 | 16.15251 | 152° | 91km/h | 7878m | 5.0m/s | -24.0°C | 43.6% | 0hPa | 2.9V | 00:00:00 | 00:42:44 | 00:00:00 | |
| 9A1FER-3 | 2026-09-03 23:42:27 | 45.62827 | 16.15017 | 155° | 91km/h | 7805m | 7.2m/s | -23.4°C | 44.9% | 0hPa | 2.9V | 00:00:00 | 00:42:29 | 00:00:00 | |
| 9A1FER-3 | 2026-09-03 23:42:12 | 45.63130 | 16.14784 | 153° | 89km/h | 7734m | 5.5m/s | -23.0°C | 50.7% | 0hPa | 2.9V | 00:00:00 | 00:42:14 | 00:00:00 | |
| 9A1FER-10 | 2026-09-03 23:41:57 | 45.63430 | 16.14551 | 148° | 89km/h | 7664m | 2.6m/s | -22.8°C | 65.7% | 0hPa | 2.9V | 00:00:00 | 00:41:59 | 08:30:00 | |
| 9A1FER-3 | 2026-09-03 23:41:42 | 45.63723 | 16.14300 | 150° | 88km/h | 7590m | 6.8m/s | -22.1°C | 62.6% | 0hPa | 2.9V | 00:00:00 | 00:41:44 | 00:00:00 | |
| 9A1FER-3 | 2026-09-03 23:41:27 | 45.64015 | 16.14065 | 154° | 89km/h | 7510m | 7.8m/s | -21.3°C | 59.2% | 0hPa | 2.9V | 00:00:00 | 00:41:29 | 00:00:00 | |
| 9A1FER-10 | 2026-09-03 23:41:12 | 45.64310 | 16.13830 | 149° | 89km/h | 7429m | 3.3m/s | -20.6°C | 56.5% | 0hPa | 2.9V | 00:00:00 | 00:41:14 | 00:00:00 | |
| 9A1FER-3 | 2026-09-03 23:40:57 | 45.64606 | 16.13601 | 149° | 86km/h | 7353m | 6.1m/s | -19.9°C | 54.5% | 0hPa | 2.7V | 00:00:00 | 00:40:59 | 00:00:00 | |
| 9A1FER-10 | 2026-09-03 23:40:42 | 45.64893 | 16.13375 | 152° | 89km/h | 7281m | 4.8m/s | -19.3°C | 57.9% | 0hPa | 2.7V | 00:00:00 | 00:40:44 | 00:00:00 | |
| 9A1FER-10 | 2026-09-03 23:40:27 | 45.65191 | 16.13142 | 150° | 91km/h | 7213m | 4.2m/s | -18.6°C | 55.9% | 0hPa | 2.7V | 00:00:00 | 00:40:29 | 00:00:00 | |
| 9A1FER-3 | 2026-09-03 23:40:12 | 45.65490 | 16.12893 | 147° | 91km/h | 7150m | 3.8m/s | -18.0°C | 54.2% | 0hPa | 2.7V | 00:00:00 | 00:40:14 | 00:00:00 | |
| 9A1FER-10 | 2026-09-03 23:39:57 | 45.65785 | 16.12634 | 146° | 91km/h | 7088m | 4.2m/s | -17.6°C | 55.0% | 0hPa | 2.7V | 00:00:00 | 00:39:59 | 00:00:00 | |
| 9A1FER-3 | 2026-09-03 23:39:42 | 45.66081 | 16.12366 | 151° | 93km/h | 7024m | 5.3m/s | -17.0°C | 49.2% | 0hPa | 2.7V | 00:00:00 | 00:39:44 | 08:30:00 | |
| 9A1FER-3 | 2026-09-03 23:39:27 | 45.66379 | 16.12103 | 148° | 89km/h | 6958m | 4.9m/s | -16.5°C | 49.0% | 0hPa | 2.9V | 00:00:00 | 00:39:29 | 00:00:00 | |
| 9A1FER-10 | 2026-09-03 23:39:12 | 45.66671 | 16.11847 | 147° | 89km/h | 6899m | 2.9m/s | -16.0°C | 47.4% | 0hPa | 2.9V | 00:00:00 | 00:39:14 | 00:00:00 | |
| 9A1FER-3 | 2026-09-03 23:38:57 | 45.66965 | 16.11612 | 153° | 89km/h | 6838m | 3.9m/s | -15.4°C | 45.0% | 0hPa | 2.9V | 00:00:00 | 00:38:59 | 00:00:00 | |
| 9A1FER-10 | 2026-09-03 23:38:42 | 45.67266 | 16.11377 | 151° | 89km/h | 6776m | 6.9m/s | -14.9°C | 43.8% | 0hPa | 2.9V | 00:00:00 | 00:38:44 | 00:00:00 | |
| 9A1FER-10 | 2026-09-03 23:38:27 | 45.67566 | 16.11154 | 153° | 93km/h | 6694m | 4.2m/s | -14.4°C | 44.2% | 0hPa | 2.9V | 00:00:00 | 00:38:29 | 00:00:00 | |
| 9A1FER-3 | 2026-09-03 23:38:12 | 45.67884 | 16.10929 | 155° | 93km/h | 6620m | 8.6m/s | -13.8°C | 45.9% | 0hPa | 2.9V | 00:00:00 | 00:38:14 | 00:00:00 | |
| 9A1FER-10 | 2026-09-03 23:37:57 | 45.68203 | 16.10718 | 154° | 93km/h | 6541m | 7.2m/s | -13.1°C | 45.2% | 0hPa | 2.9V | 00:00:00 | 00:37:59 | 00:00:00 | |
| 9A1FER-3 | 2026-09-03 23:37:42 | 45.68522 | 16.10513 | 158° | 95km/h | 6455m | 5.1m/s | -12.4°C | 44.8% | 0hPa | 2.9V | 00:00:00 | 00:37:44 | 00:00:00 | |
| 9A1FER-3 | 2026-09-03 23:37:27 | 45.68845 | 16.10295 | 151° | 95km/h | 6384m | 5.6m/s | -11.7°C | 42.2% | 0hPa | 2.9V | 00:00:00 | 00:37:29 | 08:30:00 | |
| 9A1FER-10 | 2026-09-03 23:37:12 | 45.69171 | 16.10068 | 154° | 97km/h | 6314m | 5.2m/s | -11.1°C | 38.6% | 0hPa | 2.7V | 00:00:00 | 00:37:14 | 00:00:00 | |
| 9A1FER-3 | 2026-09-03 23:36:57 | 45.69496 | 16.09827 | 155° | 95km/h | 6239m | 3.0m/s | -10.9°C | 37.8% | 0hPa | 2.7V | 00:00:00 | 00:36:59 | 00:00:00 | |
| 9A1FER-10 | 2026-09-03 23:36:42 | 45.69817 | 16.09594 | 157° | 93km/h | 6155m | 5.0m/s | -10.5°C | 39.7% | 0hPa | 2.7V | 00:00:00 | 00:36:44 | 00:00:00 | |
| 9A1FER-10 | 2026-09-03 23:36:27 | 45.70144 | 16.09396 | 160° | 89km/h | 6082m | 2.5m/s | -10.2°C | 41.0% | 0hPa | 2.9V | 00:00:00 | 00:36:29 | 00:00:00 | |
| 9A1FER-3 | 2026-09-03 23:36:12 | 45.70461 | 16.09220 | 163° | 89km/h | 6004m | 3.0m/s | -9.7°C | 38.0% | 0hPa | 2.9V | 00:00:00 | 00:36:14 | 00:00:00 | |
| 9A1FER-10 | 2026-09-03 23:35:57 | 45.70784 | 16.09068 | 167° | 86km/h | 5930m | 4.6m/s | -9.4°C | 37.7% | 0hPa | 2.9V | 00:00:00 | 00:35:59 | 00:00:00 | |
| 9A1FER-3 | 2026-09-03 23:35:42 | 45.71105 | 16.08968 | 167° | 82km/h | 5868m | 3.9m/s | -9.2°C | 39.5% | 0hPa | 2.9V | 00:00:00 | 00:35:44 | 00:00:00 | |
| 9A1FER-3 | 2026-09-03 23:35:27 | 45.71413 | 16.08880 | 172° | 78km/h | 5795m | 5.1m/s | -8.7°C | 41.1% | 0hPa | 2.9V | 00:00:00 | 00:35:29 | 00:00:00 | |
| 9A1FER-10 | 2026-09-03 23:35:12 | 45.71706 | 16.08805 | 164° | 80km/h | 5722m | 2.6m/s | -8.2°C | 43.6% | 0hPa | 2.9V | 00:00:00 | 00:35:14 | 08:30:00 | |
| 9A1FER-3 | 2026-09-03 23:34:57 | 45.72000 | 16.08699 | 166° | 73km/h | 5646m | 4.7m/s | -7.8°C | 44.4% | 0hPa | 2.9V | 00:00:00 | 00:34:59 | 00:00:00 | |
| 9A1FER-10 | 2026-09-03 23:34:42 | 45.72263 | 16.08586 | 163° | 77km/h | 5578m | 3.1m/s | -7.9°C | 54.6% | 0hPa | 2.9V | 00:00:00 | 00:34:44 | 00:00:00 | |
| 9A1FER-10 | 2026-09-03 23:34:27 | 45.72532 | 16.08440 | 161° | 73km/h | 5521m | 4.5m/s | -7.6°C | 53.9% | 0hPa | 2.9V | 00:00:00 | 00:34:29 | 00:00:00 | |
| 9A1FER-3 | 2026-09-03 23:34:12 | 45.72790 | 16.08293 | 158° | 73km/h | 5457m | 5.7m/s | -7.8°C | 59.7% | 0hPa | 3.0V | 00:00:00 | 00:34:14 | 00:00:00 | |
| 9A1FER-10 | 2026-09-03 23:33:57 | 45.73042 | 16.08124 | 160° | 77km/h | 5383m | 6.2m/s | -7.7°C | 58.9% | 0hPa | 3.0V | 00:00:00 | 00:33:59 | 00:00:00 | |
| 9A1FER-3 | 2026-09-03 23:33:42 | 45.73320 | 16.07982 | 166° | 78km/h | 5304m | 5.9m/s | -7.1°C | 60.3% | 0hPa | 3.0V | 00:00:00 | 00:33:44 | 00:00:00 | |
| 9A1FER-3 | 2026-09-03 23:33:27 | 45.73599 | 16.07844 | 162° | 77km/h | 5232m | 5.6m/s | -7.0°C | 58.5% | 0hPa | 3.0V | 00:00:00 | 00:33:29 | 00:00:00 | |
| 9A1FER-10 | 2026-09-03 23:33:12 | 45.73869 | 16.07696 | 164° | 71km/h | 5154m | 6.2m/s | -6.5°C | 47.6% | 0hPa | 3.0V | 00:00:00 | 00:33:14 | 00:00:00 | |
| 9A1FER-3 | 2026-09-03 23:32:57 | 45.74126 | 16.07580 | 164° | 71km/h | 5069m | 4.8m/s | -5.9°C | 39.4% | 0hPa | 3.0V | 00:00:00 | 00:32:59 | 08:30:00 | |
| 9A1FER-3 | 2026-09-03 23:32:42 | 45.74381 | 16.07442 | 166° | 73km/h | 4995m | 4.9m/s | -5.6°C | 42.2% | 0hPa | 3.0V | 00:00:00 | 00:32:44 | 00:00:00 | |
| 9A1FER-10 | 2026-09-03 23:32:27 | 45.74651 | 16.07330 | 165° | 69km/h | 4918m | 4.5m/s | -5.8°C | 47.0% | 0hPa | 3.0V | 00:00:00 | 00:32:29 | 00:00:00 | |
| 9A1FER-3 | 2026-09-03 23:32:12 | 45.74903 | 16.07242 | 164° | 66km/h | 4856m | 4.6m/s | -5.8°C | 63.7% | 0hPa | 3.0V | 00:00:00 | 00:32:14 | 00:00:00 | |
| 9A1FER-10 | 2026-09-03 23:31:57 | 45.75145 | 16.07171 | 172° | 71km/h | 4777m | 7.2m/s | -6.2°C | 86.5% | 0hPa | 3.0V | 00:00:00 | 00:31:59 | 00:00:00 | |
| 9A1FER-3 | 2026-09-03 23:31:42 | 45.75415 | 16.07136 | 175° | 71km/h | 4701m | 3.8m/s | -5.8°C | 91.4% | 0hPa | 3.0V | 00:00:00 | 00:31:44 | 00:00:00 | |
| 9A1FER-3 | 2026-09-03 23:31:27 | 45.75684 | 16.07112 | 178° | 69km/h | 4623m | 8.1m/s | -5.2°C | 84.7% | 0hPa | 3.0V | 00:00:00 | 00:31:29 | 00:00:00 | |
| 9A1FER-10 | 2026-09-03 23:31:12 | 45.75942 | 16.07076 | 173° | 69km/h | 4546m | 4.7m/s | -4.7°C | 85.3% | 0hPa | 3.0V | 00:00:00 | 00:31:14 | 00:00:00 | |
| 9A1FER-3 | 2026-09-03 23:30:57 | 45.76204 | 16.07024 | 175° | 69km/h | 4469m | 6.3m/s | -4.2°C | 85.6% | 0hPa | 3.0V | 00:00:00 | 00:30:59 | 00:00:00 | |
| 9A1FER-10 | 2026-09-03 23:30:42 | 45.76461 | 16.06968 | 173° | 69km/h | 4398m | 4.2m/s | -4.1°C | 95.1% | 0hPa | 3.0V | 00:00:00 | 00:30:44 | 08:30:00 | |
| 9A1FER-10 | 2026-09-03 23:30:27 | 45.76723 | 16.06895 | 171° | 71km/h | 4335m | 5.4m/s | -4.1°C | 98.4% | 0hPa | 3.0V | 00:00:00 | 00:30:29 | 00:00:00 | |
| 9A1FER-3 | 2026-09-03 23:30:12 | 45.76995 | 16.06877 | 175° | 69km/h | 4268m | 4.5m/s | -3.6°C | 96.8% | 0hPa | 3.0V | 00:00:00 | 00:30:14 | 00:00:00 | |
| 9A1FER-10 | 2026-09-03 23:29:57 | 45.77254 | 16.06832 | 176° | 68km/h | 4200m | 5.6m/s | -3.4°C | 97.2% | 0hPa | 3.0V | 00:00:00 | 00:29:59 | 00:00:00 | |
| 9A1FER-3 | 2026-09-03 23:29:42 | 45.77510 | 16.06765 | 166° | 66km/h | 4128m | 3.8m/s | -3.2°C | 0% | 0hPa | 3.0V | 00:00:00 | 00:29:44 | 00:00:00 | |
| 9A1FER-3 | 2026-09-03 23:29:27 | 45.77754 | 16.06685 | 172° | 66km/h | 4070m | 6.1m/s | -2.6°C | 98.2% | 0hPa | 3.0V | 00:00:00 | 00:29:29 | 00:00:00 | |
| 9A1FER-10 | 2026-09-03 23:29:12 | 45.77999 | 16.06618 | 173° | 71km/h | 4009m | 3.9m/s | -2.1°C | 95.3% | 0hPa | 3.0V | 00:00:00 | 00:29:14 | 00:00:00 | |
| 9A1FER-3 | 2026-09-03 23:28:57 | 45.78266 | 16.06567 | 168° | 66km/h | 3940m | 5.2m/s | -1.6°C | 96.8% | 0hPa | 3.0V | 00:00:00 | 00:28:59 | 00:00:00 | |
| 9A1FER-3 | 2026-09-03 23:28:42 | 45.78512 | 16.06502 | 171° | 68km/h | 3879m | 3.2m/s | -1.8°C | 0% | 0hPa | 3.0V | 00:00:00 | 00:28:44 | 00:00:00 | |
| 9A1FER-10 | 2026-09-03 23:28:27 | 45.78763 | 16.06456 | 174° | 64km/h | 3817m | 4.6m/s | -1.4°C | 0% | 0hPa | 3.0V | 00:00:00 | 00:28:29 | 08:30:00 | |
| 9A1FER-3 | 2026-09-03 23:28:12 | 45.78995 | 16.06380 | 173° | 69km/h | 3759m | 3.7m/s | -1.0°C | 0% | 0hPa | 3.0V | 00:00:00 | 00:28:14 | 00:00:00 | |
| 9A1FER-10 | 2026-09-03 23:27:57 | 45.79257 | 16.06325 | 168° | 66km/h | 3692m | 4.3m/s | -0.6°C | 0% | 0hPa | 3.0V | 00:00:00 | 00:27:59 | 00:00:00 | |
| 9A1FER-3 | 2026-09-03 23:27:42 | 45.79490 | 16.06210 | 170° | 60km/h | 3635m | 3.0m/s | -0.3°C | 0% | 0hPa | 3.0V | 00:00:00 | 00:27:44 | 00:00:00 | |
| 9A1FER-3 | 2026-09-03 23:27:27 | 45.79710 | 16.06132 | 174° | 53km/h | 3563m | 4.2m/s | -0.0°C | 0% | 0hPa | 3.0V | 00:00:00 | 00:27:29 | 00:00:00 | |
| 9A1FER-10 | 2026-09-03 23:27:12 | 45.79901 | 16.06051 | 164° | 49km/h | 3489m | 5.2m/s | 0.3°C | 99.0% | 0hPa | 3.0V | 00:00:00 | 00:27:14 | 00:00:00 | |
| 9A1FER-3 | 2026-09-03 23:26:57 | 45.80072 | 16.05953 | 154° | 47km/h | 3410m | 5.8m/s | 1.0°C | 95.1% | 0hPa | 3.0V | 00:00:00 | 00:26:59 | 00:00:00 | |
| 9A1FER-10 | 2026-09-03 23:26:42 | 45.80232 | 16.05841 | 153° | 40km/h | 3331m | 5.6m/s | 1.3°C | 94.5% | 0hPa | 3.0V | 00:00:00 | 00:26:44 | 00:00:00 | |
| 9A1FER-10 | 2026-09-03 23:26:27 | 45.80367 | 16.05734 | 142° | 40km/h | 3263m | 4.7m/s | 1.8°C | 90.2% | 0hPa | 3.0V | 00:00:00 | 00:26:29 | 00:00:00 | |
| 9A1FER-3 | 2026-09-03 23:26:12 | 45.80488 | 16.05598 | 145° | 37km/h | 3199m | 4.8m/s | 2.2°C | 89.7% | 0hPa | 3.0V | 00:00:00 | 00:26:14 | 08:30:00 | |
| 9A1FER-10 | 2026-09-03 23:25:57 | 45.80601 | 16.05486 | 153° | 31km/h | 3140m | 4.9m/s | 2.6°C | 90.6% | 0hPa | 3.0V | 00:00:00 | 00:25:59 | 00:00:00 | |
| 9A1FER-3 | 2026-09-03 23:25:42 | 45.80697 | 16.05392 | 163° | 31km/h | 3067m | 4.7m/s | 3.0°C | 88.9% | 0hPa | 3.0V | 00:00:00 | 00:25:44 | 00:00:00 | |
| 9A1FER-3 | 2026-09-03 23:25:27 | 45.80801 | 16.05312 | 151° | 29km/h | 2993m | 3.7m/s | 3.6°C | 87.3% | 0hPa | 3.0V | 00:00:00 | 00:25:29 | 00:00:00 | |
| 9A1FER-10 | 2026-09-03 23:25:12 | 45.80899 | 16.05246 | 154° | 22km/h | 2912m | 5.1m/s | 4.3°C | 86.3% | 0hPa | 3.0V | 00:00:00 | 00:25:14 | 00:00:00 | |
| 9A1FER-3 | 2026-09-03 23:24:57 | 45.80972 | 16.05188 | 176° | 20km/h | 2846m | 2.6m/s | 4.9°C | 84.0% | 0hPa | 3.0V | 00:00:00 | 00:24:59 | 00:00:00 | |
| 9A1FER-3 | 2026-09-03 23:24:42 | 45.81043 | 16.05156 | 166° | 18km/h | 2783m | 4.5m/s | 5.4°C | 85.1% | 0hPa | 3.0V | 00:00:00 | 00:24:44 | 00:00:00 | |
| 9A1FER-10 | 2026-09-03 23:24:27 | 45.81110 | 16.05115 | 146° | 16km/h | 2709m | 4.7m/s | 6.1°C | 84.6% | 0hPa | 3.0V | 00:00:00 | 00:24:29 | 00:00:00 | |
| 9A1FER-3 | 2026-09-03 23:24:12 | 45.81169 | 16.05084 | 140° | 18km/h | 2637m | 5.2m/s | 6.8°C | 84.9% | 0hPa | 3.0V | 00:00:00 | 00:24:14 | 00:00:00 | |
| 9A1FER-3 | 2026-09-03 23:23:42 | 45.81290 | 16.05014 | 192° | 15km/h | 2506m | 3.5m/s | 8.0°C | 80.2% | 0hPa | 3.0V | 00:00:00 | 00:23:44 | 00:00:00 | |
| 9A1FER-3 | 2026-09-03 23:23:27 | 45.81346 | 16.04999 | 141° | 18km/h | 2431m | 5.5m/s | 8.8°C | 77.8% | 0hPa | 3.0V | 00:00:00 | 00:23:29 | 00:00:00 | |
| 9A1FER-10 | 2026-09-03 23:23:12 | 45.81411 | 16.04966 | 176° | 16km/h | 2375m | 3.6m/s | 9.2°C | 77.6% | 0hPa | 3.0V | 00:00:00 | 00:23:14 | 00:00:00 | |
| 9A1FER-3 | 2026-09-03 23:22:57 | 45.81468 | 16.04937 | 147° | 15km/h | 2306m | 5.0m/s | 9.9°C | 74.0% | 0hPa | 3.0V | 00:00:00 | 00:22:59 | 00:00:00 | |
| 9A1FER-3 | 2026-09-03 23:22:42 | 45.81520 | 16.04902 | 170° | 20km/h | 2242m | 5.8m/s | 10.5°C | 72.7% | 0hPa | 3.0V | 00:00:00 | 00:22:44 | 00:00:00 | |
| 9A1FER-10 | 2026-09-03 23:22:27 | 45.81584 | 16.04853 | 140° | 18km/h | 2180m | 4.8m/s | 11.1°C | 70.6% | 0hPa | 3.0V | 00:00:00 | 00:22:29 | 00:00:00 | |
| 9A1FER-3 | 2026-09-03 23:22:12 | 45.81648 | 16.04815 | 155° | 18km/h | 2116m | 6.1m/s | 11.7°C | 68.4% | 0hPa | 3.0V | 00:00:00 | 00:22:14 | 00:00:00 | |
| 9A1FER-10 | 2026-09-03 23:21:57 | 45.81708 | 16.04758 | 147° | 18km/h | 2056m | 4.0m/s | 12.3°C | 66.7% | 0hPa | 3.0V | 00:00:00 | 00:21:59 | 00:00:00 | |
| 9A1FER-10 | 2026-09-03 23:21:42 | 45.81769 | 16.04706 | 144° | 20km/h | 2000m | 2.9m/s | 12.8°C | 65.7% | 0hPa | 3.0V | 00:00:00 | 00:21:44 | 08:30:00 | |
| 9A1FER-3 | 2026-09-03 23:21:42 | 45.81769 | 16.04706 | 144° | 20km/h | 2000m | 2.9m/s | 12.8°C | 65.7% | 0hPa | 3.0V | 00:00:00 | 00:21:44 | 08:30:00 | |
| 9A1FER-10 | 2026-09-03 23:21:27 | 45.81831 | 16.04649 | 147° | 18km/h | 1943m | 3.0m/s | 13.3°C | 64.0% | 0hPa | 3.0V | 00:00:00 | 00:21:29 | 00:00:00 | |
| 9A1FER-3 | 2026-09-03 23:21:27 | 45.81831 | 16.04649 | 147° | 18km/h | 1943m | 3.0m/s | 13.3°C | 64.0% | 0hPa | 3.0V | 00:00:00 | 00:21:29 | 00:00:00 | |
| 9A1FER-3 | 2026-09-03 23:21:12 | 45.81883 | 16.04584 | 158° | 16km/h | 1876m | 4.2m/s | 13.8°C | 62.1% | 0hPa | 3.0V | 00:00:00 | 00:21:14 | 00:00:00 | |
| 9A1FER-10 | 2026-09-03 23:21:12 | 45.81883 | 16.04584 | 158° | 16km/h | 1876m | 4.2m/s | 13.8°C | 62.1% | 0hPa | 3.0V | 00:00:00 | 00:21:14 | 00:00:00 | |
| 9A1FER-10 | 2026-09-03 23:20:57 | 45.81934 | 16.04532 | 152° | 16km/h | 1816m | 5.0m/s | 14.4°C | 60.4% | 0hPa | 3.0V | 00:00:00 | 00:20:59 | 00:00:00 | |
| 9A1FER-3 | 2026-09-03 23:20:57 | 45.81934 | 16.04532 | 152° | 16km/h | 1816m | 5.0m/s | 14.4°C | 60.4% | 0hPa | 3.0V | 00:00:00 | 00:20:59 | 00:00:00 | |
| 9A1FER-10 | 2026-09-03 23:20:42 | 45.81983 | 16.04482 | 140° | 11km/h | 1741m | 4.3m/s | 15.1°C | 57.5% | 0hPa | 3.0V | 00:00:00 | 00:20:44 | 00:00:00 | |
| 9A1FER-3 | 2026-09-03 23:20:42 | 45.81983 | 16.04482 | 140° | 11km/h | 1741m | 4.3m/s | 15.1°C | 57.5% | 0hPa | 3.0V | 00:00:00 | 00:20:44 | 00:00:00 | |
| 9A1FER-3 | 2026-09-03 23:20:27 | 45.82018 | 16.04444 | 155° | 15km/h | 1688m | 4.8m/s | 15.6°C | 55.5% | 0hPa | 3.0V | 00:00:00 | 00:20:29 | 00:00:00 | |
| 9A1FER-10 | 2026-09-03 23:20:27 | 45.82018 | 16.04444 | 155° | 15km/h | 1688m | 4.8m/s | 15.6°C | 55.5% | 0hPa | 3.0V | 00:00:00 | 00:20:29 | 00:00:00 | |
| 9A1FER-10 | 2026-09-03 23:20:12 | 45.82061 | 16.04397 | 114° | 13km/h | 1631m | 4.0m/s | 16.1°C | 54.0% | 0hPa | 3.0V | 00:00:00 | 00:20:14 | 00:00:00 | |
| 9A1FER-3 | 2026-09-03 23:20:12 | 45.82061 | 16.04397 | 114° | 13km/h | 1631m | 4.0m/s | 16.1°C | 54.0% | 0hPa | 3.0V | 00:00:00 | 00:20:14 | 00:00:00 | |
| 9A1FER-10 | 2026-09-03 23:19:57 | 45.82091 | 16.04345 | 102° | 13km/h | 1568m | 3.9m/s | 16.7°C | 51.4% | 0hPa | 3.0V | 00:00:00 | 00:19:59 | 00:00:00 | |
| 9A1FER-3 | 2026-09-03 23:19:57 | 45.82091 | 16.04345 | 102° | 13km/h | 1568m | 3.9m/s | 16.7°C | 51.4% | 0hPa | 3.0V | 00:00:00 | 00:19:59 | 00:00:00 | |
| 9A1FER-3 | 2026-09-03 23:19:42 | 45.82111 | 16.04290 | 135° | 15km/h | 1499m | 6.1m/s | 17.3°C | 49.2% | 0hPa | 3.0V | 00:00:00 | 00:19:44 | 00:00:00 | |
| 9A1FER-10 | 2026-09-03 23:19:42 | 45.82111 | 16.04290 | 135° | 15km/h | 1499m | 6.1m/s | 17.3°C | 49.2% | 0hPa | 3.0V | 00:00:00 | 00:19:44 | 00:00:00 | |
| 9A1FER-10 | 2026-09-03 23:19:27 | 45.82141 | 16.04223 | 91° | 16km/h | 1426m | 4.1m/s | 18.0°C | 49.2% | 0hPa | 3.0V | 00:00:00 | 00:19:29 | 08:30:00 | |
| 9A1FER-3 | 2026-09-03 23:19:27 | 45.82141 | 16.04223 | 91° | 16km/h | 1426m | 4.1m/s | 18.0°C | 49.2% | 0hPa | 3.0V | 00:00:00 | 00:19:29 | 08:30:00 | |
| 9A1FER-3 | 2026-09-03 23:19:12 | 45.82145 | 16.04138 | 108° | 15km/h | 1357m | 5.4m/s | 18.5°C | 49.0% | 0hPa | 3.0V | 00:00:00 | 00:19:14 | 00:00:00 | |
| 9A1FER-10 | 2026-09-03 23:19:12 | 45.82145 | 16.04138 | 108° | 15km/h | 1357m | 5.4m/s | 18.5°C | 49.0% | 0hPa | 3.0V | 00:00:00 | 00:19:14 | 00:00:00 | |
| 9A1FER-10 | 2026-09-03 23:18:57 | 45.82160 | 16.04061 | 93° | 15km/h | 1283m | 3.5m/s | 19.1°C | 48.2% | 0hPa | 3.0V | 00:00:00 | 00:18:59 | 00:00:00 | |
| 9A1FER-3 | 2026-09-03 23:18:57 | 45.82160 | 16.04061 | 93° | 15km/h | 1283m | 3.5m/s | 19.1°C | 48.2% | 0hPa | 3.0V | 00:00:00 | 00:18:59 | 00:00:00 | |
| 9A1FER-10 | 2026-09-03 23:18:42 | 45.82153 | 16.03980 | 87° | 16km/h | 1232m | 3.5m/s | 19.6°C | 46.8% | 0hPa | 3.0V | 00:00:00 | 00:18:44 | 00:00:00 | |
| 9A1FER-3 | 2026-09-03 23:18:42 | 45.82153 | 16.03980 | 87° | 16km/h | 1232m | 3.5m/s | 19.6°C | 46.8% | 0hPa | 3.0V | 00:00:00 | 00:18:44 | 00:00:00 | |
| 9A1FER-3 | 2026-09-03 23:18:27 | 45.82157 | 16.03894 | 102° | 13km/h | 1155m | 3.3m/s | 20.4°C | 43.5% | 0hPa | 3.0V | 00:00:00 | 00:18:29 | 00:00:00 | |
| 9A1FER-10 | 2026-09-03 23:18:27 | 45.82157 | 16.03894 | 102° | 13km/h | 1155m | 3.3m/s | 20.4°C | 43.5% | 0hPa | 3.0V | 00:00:00 | 00:18:29 | 00:00:00 | |
| 9A1FER-10 | 2026-09-03 23:18:12 | 45.82156 | 16.03829 | 72° | 15km/h | 1092m | 6.1m/s | 20.9°C | 41.4% | 0hPa | 3.0V | 00:00:00 | 00:18:14 | 00:00:00 | |
| 9A1FER-3 | 2026-09-03 23:18:12 | 45.82156 | 16.03829 | 72° | 15km/h | 1092m | 6.1m/s | 20.9°C | 41.4% | 0hPa | 3.0V | 00:00:00 | 00:18:14 | 00:00:00 | |
| 9A1FER-10 | 2026-09-03 23:17:57 | 45.82161 | 16.03758 | 108° | 11km/h | 1011m | 4.6m/s | 21.1°C | 45.5% | 0hPa | 3.0V | 00:00:00 | 00:17:59 | 00:00:00 | |
| 9A1FER-3 | 2026-09-03 23:17:57 | 45.82161 | 16.03758 | 108° | 11km/h | 1011m | 4.6m/s | 21.1°C | 45.5% | 0hPa | 3.0V | 00:00:00 | 00:17:59 | 00:00:00 | |
| 9A1FER-10 | 2026-09-03 23:17:42 | 45.82163 | 16.03697 | 59° | 13km/h | 946m | 3.3m/s | 21.6°C | 44.9% | 0hPa | 3.0V | 00:00:00 | 00:17:44 | 00:00:00 | |
| 9A1FER-3 | 2026-09-03 23:17:42 | 45.82163 | 16.03697 | 59° | 13km/h | 946m | 3.3m/s | 21.6°C | 44.9% | 0hPa | 3.0V | 00:00:00 | 00:17:44 | 00:00:00 | |
| 9A1FER-10 | 2026-09-03 23:17:27 | 45.82143 | 16.03641 | 29° | 13km/h | 875m | 5.2m/s | 22.2°C | 41.6% | 0hPa | 3.0V | 00:00:00 | 00:17:29 | 00:00:00 | |
| 9A1FER-3 | 2026-09-03 23:17:27 | 45.82143 | 16.03641 | 29° | 13km/h | 875m | 5.2m/s | 22.2°C | 41.6% | 0hPa | 3.0V | 00:00:00 | 00:17:29 | 00:00:00 | |
| 9A1FER-3 | 2026-09-03 23:17:12 | 45.82134 | 16.03584 | 74° | 7km/h | 807m | 4.1m/s | 22.8°C | 38.4% | 0hPa | 3.0V | 00:00:00 | 00:17:14 | 08:30:00 | |
| 9A1FER-10 | 2026-09-03 23:17:12 | 45.82134 | 16.03584 | 74° | 7km/h | 807m | 4.1m/s | 22.8°C | 38.4% | 0hPa | 3.0V | 00:00:00 | 00:17:14 | 08:30:00 | |
| 9A1FER-10 | 2026-09-03 23:16:57 | 45.82125 | 16.03556 | 120° | 11km/h | 745m | 3.5m/s | 23.3°C | 37.7% | 0hPa | 3.0V | 00:00:00 | 00:16:59 | 00:00:00 | |
| 9A1FER-3 | 2026-09-03 23:16:57 | 45.82125 | 16.03556 | 120° | 11km/h | 745m | 3.5m/s | 23.3°C | 37.7% | 0hPa | 3.0V | 00:00:00 | 00:16:59 | 00:00:00 | |
| 9A1FER-10 | 2026-09-03 23:16:42 | 45.82126 | 16.03506 | 65° | 11km/h | 684m | 2.8m/s | 23.8°C | 35.5% | 0hPa | 3.0V | 00:00:00 | 00:16:44 | 00:00:00 | |
| 9A1FER-3 | 2026-09-03 23:16:42 | 45.82126 | 16.03506 | 65° | 11km/h | 684m | 2.8m/s | 23.8°C | 35.5% | 0hPa | 3.0V | 00:00:00 | 00:16:44 | 00:00:00 | |
| 9A1FER-3 | 2026-09-03 23:16:27 | 45.82089 | 16.03502 | 358° | 13km/h | 623m | 3.4m/s | 24.4°C | 32.6% | 0hPa | 3.0V | 00:00:00 | 00:16:29 | 00:00:00 | |
| 9A1FER-10 | 2026-09-03 23:16:27 | 45.82089 | 16.03502 | 358° | 11km/h | 623m | 3.4m/s | 24.4°C | 32.6% | 0hPa | 3.0V | 00:00:00 | 00:16:29 | 00:00:00 | |
| 9A1FER-10 | 2026-09-03 23:16:12 | 45.82066 | 16.03506 | 165° | 11km/h | 560m | 3.5m/s | 24.8°C | 32.8% | 0hPa | 0V | 00:00:00 | 00:16:14 | 00:00:00 | |
| 9A1FER-3 | 2026-09-03 23:16:12 | 45.82066 | 16.03506 | 165° | 11km/h | 560m | 3.5m/s | 0°C | 0% | 0hPa | 0V | 00:00:00 | 00:16:14 | 00:00:00 | |
| 9A1FER-3 | 2026-09-03 23:15:57 | 45.82061 | 16.03480 | 164° | 11km/h | 503m | 4.3m/s | 0°C | 0% | 0hPa | 0V | 00:00:00 | 00:15:59 | 00:00:00 | |
| 9A1FER-10 | 2026-09-03 23:15:57 | 45.82061 | 16.03480 | 164° | 11km/h | 503m | 4.3m/s | 0°C | 0% | 0hPa | 0V | 00:00:00 | 00:15:59 | 00:00:00 | |
| 9A1FER-10 | 2026-09-03 23:15:42 | 45.82061 | 16.03468 | 108° | 15km/h | 436m | 4.1m/s | 0°C | 0% | 0hPa | 0V | 00:00:00 | 00:15:44 | 00:00:00 | |
| 9A1FER-3 | 2026-09-03 23:15:42 | 45.82061 | 16.03468 | 108° | 15km/h | 436m | 4.1m/s | 0°C | 0% | 0hPa | 0V | 00:00:00 | 00:15:44 | 00:00:00 | |
| 9A1FER-10 | 2026-09-03 23:15:27 | 45.82048 | 16.03424 | 178° | 11km/h | 376m | 5.3m/s | 0°C | 0% | 0hPa | 0V | 00:00:00 | 00:15:29 | 00:00:00 | |
| 9A1FER-3 | 2026-09-03 23:15:27 | 45.82048 | 16.03424 | 178° | 11km/h | 376m | 5.3m/s | 0°C | 0% | 0hPa | 0V | 00:00:00 | 00:15:29 | 00:00:00 | |
| 9A1FER-3 | 2026-09-03 23:15:12 | 45.82067 | 16.03402 | 100° | 15km/h | 303m | 4.4m/s | 0°C | 0% | 0hPa | 0V | 00:00:00 | 00:15:14 | 00:00:00 | |
| 9A1FER-10 | 2026-09-03 23:15:12 | 45.82067 | 16.03402 | 100° | 16km/h | 303m | 4.4m/s | 0°C | 0% | 0hPa | 0V | 00:00:00 | 00:15:14 | 00:00:00 | |
| 9A1FER-3 | 2026-09-03 23:14:57 | 45.82068 | 16.03379 | 168° | 11km/h | 218m | 5.5m/s | 0°C | 0% | 0hPa | 0V | 00:00:00 | 00:14:59 | 00:00:00 | |
| 9A1FER-10 | 2026-09-03 23:14:56 | 45.82070 | 16.03375 | 103° | 9km/h | 212m | 5.3m/s | 0°C | 0% | 0hPa | 0V | 00:00:00 | 00:14:58 | 00:00:00 |